<?xml version="1.0" encoding="UTF-8" standalone="no" ?>
<gpx xmlns="http://www.topografix.com/GPX/1/1" xmlns:xsi="http://www.w3.org/2001/XMLSchema-instance" xsi:schemaLocation="http://www.topografix.com/GPX/1/1 http://www.topografix.com/GPX/1/1/gpx.xsd" version="1.1" creator="VisuGPX - https://www.visugpx.com">
  <metadata>
    <name>Pla Segala Cime de Pomarole</name>
    <desc><![CDATA[Sortie raquettes du 22.02.2018 au départ du Col de Mantet ]]></desc>
  </metadata>
  <trk>
    <name><![CDATA[2018-02-22 16:22:52]]></name>
    <trkseg>
      <trkpt lat="42.48102" lon="2.3141">
        <ele>1848.75</ele>
        <time>2018-02-22T08:36:21Z</time>
      </trkpt>
      <trkpt lat="42.48118" lon="2.31404">
        <ele>1848.75</ele>
        <time>2018-02-22T08:36:43Z</time>
      </trkpt>
      <trkpt lat="42.48115" lon="2.31406">
        <ele>1846.35</ele>
        <time>2018-02-22T08:37:21Z</time>
      </trkpt>
      <trkpt lat="42.48118" lon="2.31409">
        <ele>1844.43</ele>
        <time>2018-02-22T08:38:08Z</time>
      </trkpt>
      <trkpt lat="42.48117" lon="2.31409">
        <ele>1843.47</ele>
        <time>2018-02-22T08:38:34Z</time>
      </trkpt>
      <trkpt lat="42.48116" lon="2.31412">
        <ele>1841.54</ele>
        <time>2018-02-22T08:39:08Z</time>
      </trkpt>
      <trkpt lat="42.48118" lon="2.31411">
        <ele>1840.1</ele>
        <time>2018-02-22T08:39:34Z</time>
      </trkpt>
      <trkpt lat="42.48118" lon="2.31412">
        <ele>1840.1</ele>
        <time>2018-02-22T08:39:58Z</time>
      </trkpt>
      <trkpt lat="42.48117" lon="2.31412">
        <ele>1839.62</ele>
        <time>2018-02-22T08:40:15Z</time>
      </trkpt>
      <trkpt lat="42.48116" lon="2.31412">
        <ele>1838.66</ele>
        <time>2018-02-22T08:40:36Z</time>
      </trkpt>
      <trkpt lat="42.48117" lon="2.31413">
        <ele>1837.7</ele>
        <time>2018-02-22T08:41:00Z</time>
      </trkpt>
      <trkpt lat="42.48116" lon="2.31413">
        <ele>1836.74</ele>
        <time>2018-02-22T08:41:17Z</time>
      </trkpt>
      <trkpt lat="42.48116" lon="2.31413">
        <ele>1836.26</ele>
        <time>2018-02-22T08:41:34Z</time>
      </trkpt>
      <trkpt lat="42.48115" lon="2.31413">
        <ele>1835.77</ele>
        <time>2018-02-22T08:41:51Z</time>
      </trkpt>
      <trkpt lat="42.48116" lon="2.31413">
        <ele>1834.81</ele>
        <time>2018-02-22T08:42:13Z</time>
      </trkpt>
      <trkpt lat="42.48117" lon="2.31411">
        <ele>1833.85</ele>
        <time>2018-02-22T08:42:34Z</time>
      </trkpt>
      <trkpt lat="42.48118" lon="2.3141">
        <ele>1833.37</ele>
        <time>2018-02-22T08:42:53Z</time>
      </trkpt>
      <trkpt lat="42.48114" lon="2.31413">
        <ele>1832.89</ele>
        <time>2018-02-22T08:43:04Z</time>
      </trkpt>
      <trkpt lat="42.48114" lon="2.31411">
        <ele>1833.37</ele>
        <time>2018-02-22T08:43:16Z</time>
      </trkpt>
      <trkpt lat="42.48116" lon="2.3141">
        <ele>1832.41</ele>
        <time>2018-02-22T08:43:38Z</time>
      </trkpt>
      <trkpt lat="42.48116" lon="2.31408">
        <ele>1831.93</ele>
        <time>2018-02-22T08:43:52Z</time>
      </trkpt>
      <trkpt lat="42.48114" lon="2.31408">
        <ele>1830.97</ele>
        <time>2018-02-22T08:44:11Z</time>
      </trkpt>
      <trkpt lat="42.48114" lon="2.31406">
        <ele>1830.01</ele>
        <time>2018-02-22T08:44:36Z</time>
      </trkpt>
      <trkpt lat="42.48116" lon="2.31405">
        <ele>1829.53</ele>
        <time>2018-02-22T08:44:48Z</time>
      </trkpt>
      <trkpt lat="42.48114" lon="2.31407">
        <ele>1828.56</ele>
        <time>2018-02-22T08:45:06Z</time>
      </trkpt>
      <trkpt lat="42.48111" lon="2.31407">
        <ele>1828.56</ele>
        <time>2018-02-22T08:45:25Z</time>
      </trkpt>
      <trkpt lat="42.48109" lon="2.31409">
        <ele>1829.53</ele>
        <time>2018-02-22T08:45:36Z</time>
      </trkpt>
      <trkpt lat="42.4811" lon="2.31409">
        <ele>1828.56</ele>
        <time>2018-02-22T08:46:04Z</time>
      </trkpt>
      <trkpt lat="42.48109" lon="2.3141">
        <ele>1827.12</ele>
        <time>2018-02-22T08:46:10Z</time>
      </trkpt>
      <trkpt lat="42.48109" lon="2.31408">
        <ele>1825.68</ele>
        <time>2018-02-22T08:46:22Z</time>
      </trkpt>
      <trkpt lat="42.4811" lon="2.31407">
        <ele>1825.2</ele>
        <time>2018-02-22T08:46:36Z</time>
      </trkpt>
      <trkpt lat="42.4811" lon="2.31407">
        <ele>1824.72</ele>
        <time>2018-02-22T08:46:52Z</time>
      </trkpt>
      <trkpt lat="42.4811" lon="2.31407">
        <ele>1825.2</ele>
        <time>2018-02-22T08:47:15Z</time>
      </trkpt>
      <trkpt lat="42.48108" lon="2.31408">
        <ele>1823.76</ele>
        <time>2018-02-22T08:47:48Z</time>
      </trkpt>
      <trkpt lat="42.48108" lon="2.31409">
        <ele>1823.28</ele>
        <time>2018-02-22T08:48:08Z</time>
      </trkpt>
      <trkpt lat="42.48109" lon="2.31408">
        <ele>1822.32</ele>
        <time>2018-02-22T08:48:31Z</time>
      </trkpt>
      <trkpt lat="42.48108" lon="2.31409">
        <ele>1821.35</ele>
        <time>2018-02-22T08:48:53Z</time>
      </trkpt>
      <trkpt lat="42.48105" lon="2.31418">
        <ele>1820.87</ele>
        <time>2018-02-22T08:49:09Z</time>
      </trkpt>
      <trkpt lat="42.48098" lon="2.31425">
        <ele>1821.84</ele>
        <time>2018-02-22T08:49:20Z</time>
      </trkpt>
      <trkpt lat="42.48093" lon="2.3143">
        <ele>1822.32</ele>
        <time>2018-02-22T08:49:32Z</time>
      </trkpt>
      <trkpt lat="42.48087" lon="2.3144">
        <ele>1823.76</ele>
        <time>2018-02-22T08:49:48Z</time>
      </trkpt>
      <trkpt lat="42.48082" lon="2.31444">
        <ele>1824.72</ele>
        <time>2018-02-22T08:50:03Z</time>
      </trkpt>
      <trkpt lat="42.48075" lon="2.31447">
        <ele>1825.68</ele>
        <time>2018-02-22T08:50:17Z</time>
      </trkpt>
      <trkpt lat="42.48068" lon="2.31447">
        <ele>1826.64</ele>
        <time>2018-02-22T08:50:32Z</time>
      </trkpt>
      <trkpt lat="42.48064" lon="2.31453">
        <ele>1828.56</ele>
        <time>2018-02-22T08:50:44Z</time>
      </trkpt>
      <trkpt lat="42.48061" lon="2.31459">
        <ele>1829.53</ele>
        <time>2018-02-22T08:50:59Z</time>
      </trkpt>
      <trkpt lat="42.48055" lon="2.3146">
        <ele>1830.97</ele>
        <time>2018-02-22T08:51:11Z</time>
      </trkpt>
      <trkpt lat="42.48051" lon="2.31464">
        <ele>1831.93</ele>
        <time>2018-02-22T08:51:22Z</time>
      </trkpt>
      <trkpt lat="42.48046" lon="2.31471">
        <ele>1834.81</ele>
        <time>2018-02-22T08:51:44Z</time>
      </trkpt>
      <trkpt lat="42.48039" lon="2.31475">
        <ele>1836.74</ele>
        <time>2018-02-22T08:52:03Z</time>
      </trkpt>
      <trkpt lat="42.48032" lon="2.31481">
        <ele>1838.18</ele>
        <time>2018-02-22T08:52:17Z</time>
      </trkpt>
      <trkpt lat="42.48023" lon="2.31484">
        <ele>1839.14</ele>
        <time>2018-02-22T08:52:35Z</time>
      </trkpt>
      <trkpt lat="42.4802" lon="2.31489">
        <ele>1841.06</ele>
        <time>2018-02-22T08:52:49Z</time>
      </trkpt>
      <trkpt lat="42.48013" lon="2.31492">
        <ele>1842.02</ele>
        <time>2018-02-22T08:53:02Z</time>
      </trkpt>
      <trkpt lat="42.48006" lon="2.31495">
        <ele>1843.47</ele>
        <time>2018-02-22T08:53:18Z</time>
      </trkpt>
      <trkpt lat="42.48" lon="2.315">
        <ele>1844.43</ele>
        <time>2018-02-22T08:53:31Z</time>
      </trkpt>
      <trkpt lat="42.47996" lon="2.31503">
        <ele>1845.39</ele>
        <time>2018-02-22T08:53:42Z</time>
      </trkpt>
      <trkpt lat="42.47988" lon="2.31503">
        <ele>1846.83</ele>
        <time>2018-02-22T08:53:58Z</time>
      </trkpt>
      <trkpt lat="42.47979" lon="2.31503">
        <ele>1847.79</ele>
        <time>2018-02-22T08:54:10Z</time>
      </trkpt>
      <trkpt lat="42.47974" lon="2.31508">
        <ele>1849.23</ele>
        <time>2018-02-22T08:54:26Z</time>
      </trkpt>
      <trkpt lat="42.47961" lon="2.31511">
        <ele>1849.71</ele>
        <time>2018-02-22T08:54:46Z</time>
      </trkpt>
      <trkpt lat="42.47953" lon="2.31513">
        <ele>1849.71</ele>
        <time>2018-02-22T08:54:58Z</time>
      </trkpt>
      <trkpt lat="42.47944" lon="2.3151">
        <ele>1850.68</ele>
        <time>2018-02-22T08:55:16Z</time>
      </trkpt>
      <trkpt lat="42.47937" lon="2.31513">
        <ele>1851.16</ele>
        <time>2018-02-22T08:55:33Z</time>
      </trkpt>
      <trkpt lat="42.4793" lon="2.31517">
        <ele>1852.12</ele>
        <time>2018-02-22T08:55:44Z</time>
      </trkpt>
      <trkpt lat="42.47923" lon="2.31518">
        <ele>1853.08</ele>
        <time>2018-02-22T08:55:56Z</time>
      </trkpt>
      <trkpt lat="42.47921" lon="2.31517">
        <ele>1853.08</ele>
        <time>2018-02-22T08:56:09Z</time>
      </trkpt>
      <trkpt lat="42.47918" lon="2.3152">
        <ele>1854.04</ele>
        <time>2018-02-22T08:56:20Z</time>
      </trkpt>
      <trkpt lat="42.47914" lon="2.31523">
        <ele>1855.96</ele>
        <time>2018-02-22T08:56:33Z</time>
      </trkpt>
      <trkpt lat="42.4791" lon="2.31527">
        <ele>1856.92</ele>
        <time>2018-02-22T08:56:46Z</time>
      </trkpt>
      <trkpt lat="42.47907" lon="2.31529">
        <ele>1858.37</ele>
        <time>2018-02-22T08:56:58Z</time>
      </trkpt>
      <trkpt lat="42.47902" lon="2.3153">
        <ele>1859.81</ele>
        <time>2018-02-22T08:57:10Z</time>
      </trkpt>
      <trkpt lat="42.47895" lon="2.31528">
        <ele>1861.73</ele>
        <time>2018-02-22T08:57:26Z</time>
      </trkpt>
      <trkpt lat="42.47886" lon="2.31528">
        <ele>1863.65</ele>
        <time>2018-02-22T08:57:43Z</time>
      </trkpt>
      <trkpt lat="42.4788" lon="2.3153">
        <ele>1863.17</ele>
        <time>2018-02-22T08:58:01Z</time>
      </trkpt>
      <trkpt lat="42.47879" lon="2.3153">
        <ele>1863.65</ele>
        <time>2018-02-22T08:58:03Z</time>
      </trkpt>
      <trkpt lat="42.47871" lon="2.31539">
        <ele>1864.61</ele>
        <time>2018-02-22T08:58:16Z</time>
      </trkpt>
      <trkpt lat="42.47861" lon="2.31545">
        <ele>1864.13</ele>
        <time>2018-02-22T08:58:30Z</time>
      </trkpt>
      <trkpt lat="42.47852" lon="2.3155">
        <ele>1865.09</ele>
        <time>2018-02-22T08:58:43Z</time>
      </trkpt>
      <trkpt lat="42.47845" lon="2.31554">
        <ele>1865.58</ele>
        <time>2018-02-22T08:58:57Z</time>
      </trkpt>
      <trkpt lat="42.4784" lon="2.3156">
        <ele>1867.02</ele>
        <time>2018-02-22T08:59:10Z</time>
      </trkpt>
      <trkpt lat="42.47832" lon="2.31569">
        <ele>1867.98</ele>
        <time>2018-02-22T08:59:24Z</time>
      </trkpt>
      <trkpt lat="42.47827" lon="2.31576">
        <ele>1868.94</ele>
        <time>2018-02-22T08:59:34Z</time>
      </trkpt>
      <trkpt lat="42.47819" lon="2.31584">
        <ele>1869.42</ele>
        <time>2018-02-22T08:59:48Z</time>
      </trkpt>
      <trkpt lat="42.47815" lon="2.31588">
        <ele>1869.9</ele>
        <time>2018-02-22T08:59:56Z</time>
      </trkpt>
      <trkpt lat="42.4781" lon="2.31595">
        <ele>1870.38</ele>
        <time>2018-02-22T09:00:10Z</time>
      </trkpt>
      <trkpt lat="42.47802" lon="2.31604">
        <ele>1871.82</ele>
        <time>2018-02-22T09:00:29Z</time>
      </trkpt>
      <trkpt lat="42.47795" lon="2.31609">
        <ele>1872.79</ele>
        <time>2018-02-22T09:00:40Z</time>
      </trkpt>
      <trkpt lat="42.4779" lon="2.31614">
        <ele>1873.75</ele>
        <time>2018-02-22T09:00:51Z</time>
      </trkpt>
      <trkpt lat="42.47785" lon="2.31619">
        <ele>1874.71</ele>
        <time>2018-02-22T09:01:01Z</time>
      </trkpt>
      <trkpt lat="42.47779" lon="2.31625">
        <ele>1876.63</ele>
        <time>2018-02-22T09:01:15Z</time>
      </trkpt>
      <trkpt lat="42.47775" lon="2.31635">
        <ele>1877.11</ele>
        <time>2018-02-22T09:01:30Z</time>
      </trkpt>
      <trkpt lat="42.47774" lon="2.31644">
        <ele>1878.07</ele>
        <time>2018-02-22T09:01:42Z</time>
      </trkpt>
      <trkpt lat="42.47768" lon="2.31649">
        <ele>1878.07</ele>
        <time>2018-02-22T09:01:53Z</time>
      </trkpt>
      <trkpt lat="42.47762" lon="2.31658">
        <ele>1878.07</ele>
        <time>2018-02-22T09:02:05Z</time>
      </trkpt>
      <trkpt lat="42.47762" lon="2.31661">
        <ele>1882.4</ele>
        <time>2018-02-22T09:02:07Z</time>
      </trkpt>
      <trkpt lat="42.47761" lon="2.31662">
        <ele>1878.55</ele>
        <time>2018-02-22T09:02:08Z</time>
      </trkpt>
      <trkpt lat="42.47754" lon="2.31675">
        <ele>1878.07</ele>
        <time>2018-02-22T09:02:23Z</time>
      </trkpt>
      <trkpt lat="42.47749" lon="2.31687">
        <ele>1879.03</ele>
        <time>2018-02-22T09:02:39Z</time>
      </trkpt>
      <trkpt lat="42.47745" lon="2.317">
        <ele>1880.48</ele>
        <time>2018-02-22T09:02:55Z</time>
      </trkpt>
      <trkpt lat="42.4774" lon="2.31712">
        <ele>1881.44</ele>
        <time>2018-02-22T09:03:12Z</time>
      </trkpt>
      <trkpt lat="42.47736" lon="2.31722">
        <ele>1881.92</ele>
        <time>2018-02-22T09:03:26Z</time>
      </trkpt>
      <trkpt lat="42.47738" lon="2.31723">
        <ele>1881.44</ele>
        <time>2018-02-22T09:03:59Z</time>
      </trkpt>
      <trkpt lat="42.47735" lon="2.31723">
        <ele>1880.96</ele>
        <time>2018-02-22T09:04:26Z</time>
      </trkpt>
      <trkpt lat="42.47735" lon="2.31722">
        <ele>1880</ele>
        <time>2018-02-22T09:04:55Z</time>
      </trkpt>
      <trkpt lat="42.47736" lon="2.31722">
        <ele>1879.51</ele>
        <time>2018-02-22T09:05:28Z</time>
      </trkpt>
      <trkpt lat="42.47735" lon="2.31723">
        <ele>1879.03</ele>
        <time>2018-02-22T09:05:52Z</time>
      </trkpt>
      <trkpt lat="42.47733" lon="2.31724">
        <ele>1878.55</ele>
        <time>2018-02-22T09:06:18Z</time>
      </trkpt>
      <trkpt lat="42.47733" lon="2.31734">
        <ele>1878.55</ele>
        <time>2018-02-22T09:06:34Z</time>
      </trkpt>
      <trkpt lat="42.47733" lon="2.31746">
        <ele>1880</ele>
        <time>2018-02-22T09:06:48Z</time>
      </trkpt>
      <trkpt lat="42.47727" lon="2.31756">
        <ele>1881.44</ele>
        <time>2018-02-22T09:07:06Z</time>
      </trkpt>
      <trkpt lat="42.47715" lon="2.31762">
        <ele>1882.88</ele>
        <time>2018-02-22T09:07:24Z</time>
      </trkpt>
      <trkpt lat="42.47707" lon="2.31765">
        <ele>1884.32</ele>
        <time>2018-02-22T09:07:40Z</time>
      </trkpt>
      <trkpt lat="42.47706" lon="2.31762">
        <ele>1883.84</ele>
        <time>2018-02-22T09:08:00Z</time>
      </trkpt>
      <trkpt lat="42.47699" lon="2.31768">
        <ele>1885.28</ele>
        <time>2018-02-22T09:08:15Z</time>
      </trkpt>
      <trkpt lat="42.47703" lon="2.31762">
        <ele>1884.8</ele>
        <time>2018-02-22T09:08:38Z</time>
      </trkpt>
      <trkpt lat="42.47704" lon="2.31762">
        <ele>1884.32</ele>
        <time>2018-02-22T09:08:55Z</time>
      </trkpt>
      <trkpt lat="42.47705" lon="2.31761">
        <ele>1883.36</ele>
        <time>2018-02-22T09:09:30Z</time>
      </trkpt>
      <trkpt lat="42.47704" lon="2.31762">
        <ele>1883.36</ele>
        <time>2018-02-22T09:09:49Z</time>
      </trkpt>
      <trkpt lat="42.47701" lon="2.31765">
        <ele>1882.88</ele>
        <time>2018-02-22T09:10:04Z</time>
      </trkpt>
      <trkpt lat="42.47699" lon="2.3177">
        <ele>1882.4</ele>
        <time>2018-02-22T09:10:24Z</time>
      </trkpt>
      <trkpt lat="42.47697" lon="2.31772">
        <ele>1882.88</ele>
        <time>2018-02-22T09:10:37Z</time>
      </trkpt>
      <trkpt lat="42.47694" lon="2.31774">
        <ele>1882.88</ele>
        <time>2018-02-22T09:10:59Z</time>
      </trkpt>
      <trkpt lat="42.47692" lon="2.31777">
        <ele>1882.4</ele>
        <time>2018-02-22T09:11:20Z</time>
      </trkpt>
      <trkpt lat="42.47693" lon="2.31775">
        <ele>1881.92</ele>
        <time>2018-02-22T09:11:42Z</time>
      </trkpt>
      <trkpt lat="42.47693" lon="2.31779">
        <ele>1881.92</ele>
        <time>2018-02-22T09:12:06Z</time>
      </trkpt>
      <trkpt lat="42.47691" lon="2.31789">
        <ele>1882.4</ele>
        <time>2018-02-22T09:12:20Z</time>
      </trkpt>
      <trkpt lat="42.4769" lon="2.31803">
        <ele>1882.4</ele>
        <time>2018-02-22T09:12:34Z</time>
      </trkpt>
      <trkpt lat="42.47692" lon="2.31815">
        <ele>1883.84</ele>
        <time>2018-02-22T09:12:48Z</time>
      </trkpt>
      <trkpt lat="42.47692" lon="2.31825">
        <ele>1883.36</ele>
        <time>2018-02-22T09:13:01Z</time>
      </trkpt>
      <trkpt lat="42.47693" lon="2.31835">
        <ele>1884.32</ele>
        <time>2018-02-22T09:13:15Z</time>
      </trkpt>
      <trkpt lat="42.4769" lon="2.31845">
        <ele>1885.28</ele>
        <time>2018-02-22T09:13:28Z</time>
      </trkpt>
      <trkpt lat="42.47689" lon="2.31853">
        <ele>1886.72</ele>
        <time>2018-02-22T09:13:42Z</time>
      </trkpt>
      <trkpt lat="42.47687" lon="2.3186">
        <ele>1887.69</ele>
        <time>2018-02-22T09:13:52Z</time>
      </trkpt>
      <trkpt lat="42.47686" lon="2.31867">
        <ele>1889.61</ele>
        <time>2018-02-22T09:14:06Z</time>
      </trkpt>
      <trkpt lat="42.47684" lon="2.31876">
        <ele>1891.05</ele>
        <time>2018-02-22T09:14:23Z</time>
      </trkpt>
      <trkpt lat="42.47683" lon="2.31887">
        <ele>1892.97</ele>
        <time>2018-02-22T09:14:39Z</time>
      </trkpt>
      <trkpt lat="42.47682" lon="2.31895">
        <ele>1894.9</ele>
        <time>2018-02-22T09:14:55Z</time>
      </trkpt>
      <trkpt lat="42.47681" lon="2.31903">
        <ele>1896.34</ele>
        <time>2018-02-22T09:15:09Z</time>
      </trkpt>
      <trkpt lat="42.47681" lon="2.3191">
        <ele>1897.78</ele>
        <time>2018-02-22T09:15:23Z</time>
      </trkpt>
      <trkpt lat="42.47681" lon="2.31914">
        <ele>1898.74</ele>
        <time>2018-02-22T09:15:41Z</time>
      </trkpt>
      <trkpt lat="42.47682" lon="2.31919">
        <ele>1899.7</ele>
        <time>2018-02-22T09:15:56Z</time>
      </trkpt>
      <trkpt lat="42.47676" lon="2.31922">
        <ele>1900.66</ele>
        <time>2018-02-22T09:16:10Z</time>
      </trkpt>
      <trkpt lat="42.47677" lon="2.31929">
        <ele>1902.11</ele>
        <time>2018-02-22T09:16:26Z</time>
      </trkpt>
      <trkpt lat="42.47674" lon="2.31937">
        <ele>1903.55</ele>
        <time>2018-02-22T09:16:42Z</time>
      </trkpt>
      <trkpt lat="42.47671" lon="2.31944">
        <ele>1905.95</ele>
        <time>2018-02-22T09:16:59Z</time>
      </trkpt>
      <trkpt lat="42.47669" lon="2.3195">
        <ele>1906.91</ele>
        <time>2018-02-22T09:17:16Z</time>
      </trkpt>
      <trkpt lat="42.47667" lon="2.31957">
        <ele>1908.35</ele>
        <time>2018-02-22T09:17:31Z</time>
      </trkpt>
      <trkpt lat="42.47667" lon="2.31961">
        <ele>1909.32</ele>
        <time>2018-02-22T09:17:46Z</time>
      </trkpt>
      <trkpt lat="42.47664" lon="2.31966">
        <ele>1910.76</ele>
        <time>2018-02-22T09:18:00Z</time>
      </trkpt>
      <trkpt lat="42.4766" lon="2.31972">
        <ele>1912.2</ele>
        <time>2018-02-22T09:18:14Z</time>
      </trkpt>
      <trkpt lat="42.47658" lon="2.31979">
        <ele>1914.12</ele>
        <time>2018-02-22T09:18:29Z</time>
      </trkpt>
      <trkpt lat="42.47656" lon="2.31988">
        <ele>1915.56</ele>
        <time>2018-02-22T09:18:46Z</time>
      </trkpt>
      <trkpt lat="42.47656" lon="2.31993">
        <ele>1917.01</ele>
        <time>2018-02-22T09:19:00Z</time>
      </trkpt>
      <trkpt lat="42.4765" lon="2.31996">
        <ele>1918.93</ele>
        <time>2018-02-22T09:19:14Z</time>
      </trkpt>
      <trkpt lat="42.47649" lon="2.32">
        <ele>1919.89</ele>
        <time>2018-02-22T09:19:26Z</time>
      </trkpt>
      <trkpt lat="42.47651" lon="2.32006">
        <ele>1920.85</ele>
        <time>2018-02-22T09:19:43Z</time>
      </trkpt>
      <trkpt lat="42.47654" lon="2.32015">
        <ele>1922.29</ele>
        <time>2018-02-22T09:19:59Z</time>
      </trkpt>
      <trkpt lat="42.47652" lon="2.32025">
        <ele>1923.25</ele>
        <time>2018-02-22T09:20:15Z</time>
      </trkpt>
      <trkpt lat="42.47652" lon="2.32028">
        <ele>1923.74</ele>
        <time>2018-02-22T09:20:32Z</time>
      </trkpt>
      <trkpt lat="42.47653" lon="2.32027">
        <ele>1924.22</ele>
        <time>2018-02-22T09:20:50Z</time>
      </trkpt>
      <trkpt lat="42.47652" lon="2.32025">
        <ele>1923.74</ele>
        <time>2018-02-22T09:21:09Z</time>
      </trkpt>
      <trkpt lat="42.47652" lon="2.32026">
        <ele>1923.25</ele>
        <time>2018-02-22T09:21:28Z</time>
      </trkpt>
      <trkpt lat="42.47653" lon="2.32025">
        <ele>1922.77</ele>
        <time>2018-02-22T09:21:49Z</time>
      </trkpt>
      <trkpt lat="42.47652" lon="2.32024">
        <ele>1922.77</ele>
        <time>2018-02-22T09:22:10Z</time>
      </trkpt>
      <trkpt lat="42.47651" lon="2.32028">
        <ele>1922.29</ele>
        <time>2018-02-22T09:22:28Z</time>
      </trkpt>
      <trkpt lat="42.47653" lon="2.32029">
        <ele>1921.81</ele>
        <time>2018-02-22T09:22:57Z</time>
      </trkpt>
      <trkpt lat="42.47651" lon="2.32028">
        <ele>1921.33</ele>
        <time>2018-02-22T09:23:21Z</time>
      </trkpt>
      <trkpt lat="42.47649" lon="2.32029">
        <ele>1921.33</ele>
        <time>2018-02-22T09:23:43Z</time>
      </trkpt>
      <trkpt lat="42.47649" lon="2.32031">
        <ele>1920.85</ele>
        <time>2018-02-22T09:24:11Z</time>
      </trkpt>
      <trkpt lat="42.47651" lon="2.32039">
        <ele>1920.37</ele>
        <time>2018-02-22T09:24:25Z</time>
      </trkpt>
      <trkpt lat="42.4765" lon="2.32048">
        <ele>1919.41</ele>
        <time>2018-02-22T09:24:41Z</time>
      </trkpt>
      <trkpt lat="42.47643" lon="2.32051">
        <ele>1921.33</ele>
        <time>2018-02-22T09:24:56Z</time>
      </trkpt>
      <trkpt lat="42.47636" lon="2.32054">
        <ele>1923.25</ele>
        <time>2018-02-22T09:25:13Z</time>
      </trkpt>
      <trkpt lat="42.47628" lon="2.32061">
        <ele>1924.22</ele>
        <time>2018-02-22T09:25:32Z</time>
      </trkpt>
      <trkpt lat="42.47618" lon="2.32065">
        <ele>1925.18</ele>
        <time>2018-02-22T09:25:48Z</time>
      </trkpt>
      <trkpt lat="42.4761" lon="2.32068">
        <ele>1926.14</ele>
        <time>2018-02-22T09:26:04Z</time>
      </trkpt>
      <trkpt lat="42.47603" lon="2.32074">
        <ele>1926.62</ele>
        <time>2018-02-22T09:26:17Z</time>
      </trkpt>
      <trkpt lat="42.47595" lon="2.32077">
        <ele>1927.58</ele>
        <time>2018-02-22T09:26:33Z</time>
      </trkpt>
      <trkpt lat="42.47586" lon="2.3208">
        <ele>1928.54</ele>
        <time>2018-02-22T09:26:46Z</time>
      </trkpt>
      <trkpt lat="42.47577" lon="2.32081">
        <ele>1929.98</ele>
        <time>2018-02-22T09:27:02Z</time>
      </trkpt>
      <trkpt lat="42.47571" lon="2.32083">
        <ele>1931.43</ele>
        <time>2018-02-22T09:27:18Z</time>
      </trkpt>
      <trkpt lat="42.47563" lon="2.32086">
        <ele>1933.35</ele>
        <time>2018-02-22T09:27:34Z</time>
      </trkpt>
      <trkpt lat="42.4756" lon="2.32087">
        <ele>1933.35</ele>
        <time>2018-02-22T09:27:38Z</time>
      </trkpt>
      <trkpt lat="42.47553" lon="2.32088">
        <ele>1934.31</ele>
        <time>2018-02-22T09:27:56Z</time>
      </trkpt>
      <trkpt lat="42.47554" lon="2.32086">
        <ele>1933.83</ele>
        <time>2018-02-22T09:28:14Z</time>
      </trkpt>
      <trkpt lat="42.47555" lon="2.32086">
        <ele>1933.83</ele>
        <time>2018-02-22T09:28:38Z</time>
      </trkpt>
      <trkpt lat="42.47555" lon="2.32089">
        <ele>1933.35</ele>
        <time>2018-02-22T09:29:14Z</time>
      </trkpt>
      <trkpt lat="42.47552" lon="2.32087">
        <ele>1932.87</ele>
        <time>2018-02-22T09:29:34Z</time>
      </trkpt>
      <trkpt lat="42.47555" lon="2.32084">
        <ele>1933.35</ele>
        <time>2018-02-22T09:29:56Z</time>
      </trkpt>
      <trkpt lat="42.47554" lon="2.32084">
        <ele>1933.83</ele>
        <time>2018-02-22T09:30:02Z</time>
      </trkpt>
      <trkpt lat="42.47555" lon="2.32084">
        <ele>1933.35</ele>
        <time>2018-02-22T09:30:20Z</time>
      </trkpt>
      <trkpt lat="42.47555" lon="2.32082">
        <ele>1932.39</ele>
        <time>2018-02-22T09:30:35Z</time>
      </trkpt>
      <trkpt lat="42.47548" lon="2.32084">
        <ele>1932.39</ele>
        <time>2018-02-22T09:30:47Z</time>
      </trkpt>
      <trkpt lat="42.47541" lon="2.32085">
        <ele>1934.31</ele>
        <time>2018-02-22T09:31:01Z</time>
      </trkpt>
      <trkpt lat="42.47532" lon="2.32089">
        <ele>1935.75</ele>
        <time>2018-02-22T09:31:18Z</time>
      </trkpt>
      <trkpt lat="42.47529" lon="2.32093">
        <ele>1936.71</ele>
        <time>2018-02-22T09:31:33Z</time>
      </trkpt>
      <trkpt lat="42.4753" lon="2.32102">
        <ele>1939.12</ele>
        <time>2018-02-22T09:31:50Z</time>
      </trkpt>
      <trkpt lat="42.47529" lon="2.32111">
        <ele>1940.56</ele>
        <time>2018-02-22T09:32:05Z</time>
      </trkpt>
      <trkpt lat="42.47522" lon="2.3211">
        <ele>1942</ele>
        <time>2018-02-22T09:32:18Z</time>
      </trkpt>
      <trkpt lat="42.47518" lon="2.32112">
        <ele>1942.48</ele>
        <time>2018-02-22T09:32:34Z</time>
      </trkpt>
      <trkpt lat="42.47514" lon="2.32118">
        <ele>1944.4</ele>
        <time>2018-02-22T09:32:49Z</time>
      </trkpt>
      <trkpt lat="42.47512" lon="2.32124">
        <ele>1946.33</ele>
        <time>2018-02-22T09:33:03Z</time>
      </trkpt>
      <trkpt lat="42.47509" lon="2.32132">
        <ele>1947.77</ele>
        <time>2018-02-22T09:33:18Z</time>
      </trkpt>
      <trkpt lat="42.47506" lon="2.32134">
        <ele>1948.25</ele>
        <time>2018-02-22T09:33:37Z</time>
      </trkpt>
      <trkpt lat="42.47501" lon="2.32136">
        <ele>1948.73</ele>
        <time>2018-02-22T09:33:51Z</time>
      </trkpt>
      <trkpt lat="42.47495" lon="2.32136">
        <ele>1950.65</ele>
        <time>2018-02-22T09:34:07Z</time>
      </trkpt>
      <trkpt lat="42.47488" lon="2.32137">
        <ele>1951.61</ele>
        <time>2018-02-22T09:34:22Z</time>
      </trkpt>
      <trkpt lat="42.47481" lon="2.32136">
        <ele>1953.54</ele>
        <time>2018-02-22T09:34:37Z</time>
      </trkpt>
      <trkpt lat="42.47473" lon="2.32137">
        <ele>1955.46</ele>
        <time>2018-02-22T09:34:53Z</time>
      </trkpt>
      <trkpt lat="42.47467" lon="2.3214">
        <ele>1956.9</ele>
        <time>2018-02-22T09:35:08Z</time>
      </trkpt>
      <trkpt lat="42.47463" lon="2.32141">
        <ele>1958.34</ele>
        <time>2018-02-22T09:35:22Z</time>
      </trkpt>
      <trkpt lat="42.47457" lon="2.32141">
        <ele>1960.27</ele>
        <time>2018-02-22T09:35:38Z</time>
      </trkpt>
      <trkpt lat="42.47449" lon="2.32142">
        <ele>1962.19</ele>
        <time>2018-02-22T09:35:55Z</time>
      </trkpt>
      <trkpt lat="42.47441" lon="2.32142">
        <ele>1963.63</ele>
        <time>2018-02-22T09:36:13Z</time>
      </trkpt>
      <trkpt lat="42.47434" lon="2.32143">
        <ele>1965.07</ele>
        <time>2018-02-22T09:36:28Z</time>
      </trkpt>
      <trkpt lat="42.47427" lon="2.32144">
        <ele>1966.03</ele>
        <time>2018-02-22T09:36:44Z</time>
      </trkpt>
      <trkpt lat="42.47423" lon="2.32146">
        <ele>1967.96</ele>
        <time>2018-02-22T09:37:01Z</time>
      </trkpt>
      <trkpt lat="42.47424" lon="2.32151">
        <ele>1969.4</ele>
        <time>2018-02-22T09:37:14Z</time>
      </trkpt>
      <trkpt lat="42.47424" lon="2.32157">
        <ele>1970.36</ele>
        <time>2018-02-22T09:37:27Z</time>
      </trkpt>
      <trkpt lat="42.47418" lon="2.32158">
        <ele>1972.28</ele>
        <time>2018-02-22T09:37:40Z</time>
      </trkpt>
      <trkpt lat="42.47411" lon="2.32161">
        <ele>1973.24</ele>
        <time>2018-02-22T09:37:57Z</time>
      </trkpt>
      <trkpt lat="42.47404" lon="2.32159">
        <ele>1975.17</ele>
        <time>2018-02-22T09:38:13Z</time>
      </trkpt>
      <trkpt lat="42.47399" lon="2.32158">
        <ele>1976.61</ele>
        <time>2018-02-22T09:38:28Z</time>
      </trkpt>
      <trkpt lat="42.47393" lon="2.32157">
        <ele>1978.05</ele>
        <time>2018-02-22T09:38:42Z</time>
      </trkpt>
      <trkpt lat="42.47388" lon="2.32159">
        <ele>1979.97</ele>
        <time>2018-02-22T09:39:00Z</time>
      </trkpt>
      <trkpt lat="42.47385" lon="2.32164">
        <ele>1981.41</ele>
        <time>2018-02-22T09:39:13Z</time>
      </trkpt>
      <trkpt lat="42.47385" lon="2.32168">
        <ele>1982.38</ele>
        <time>2018-02-22T09:39:26Z</time>
      </trkpt>
      <trkpt lat="42.47379" lon="2.32172">
        <ele>1983.34</ele>
        <time>2018-02-22T09:39:36Z</time>
      </trkpt>
      <trkpt lat="42.47374" lon="2.32174">
        <ele>1984.3</ele>
        <time>2018-02-22T09:39:50Z</time>
      </trkpt>
      <trkpt lat="42.47365" lon="2.32174">
        <ele>1985.74</ele>
        <time>2018-02-22T09:40:05Z</time>
      </trkpt>
      <trkpt lat="42.47358" lon="2.32171">
        <ele>1986.7</ele>
        <time>2018-02-22T09:40:21Z</time>
      </trkpt>
      <trkpt lat="42.47356" lon="2.32168">
        <ele>1987.18</ele>
        <time>2018-02-22T09:40:49Z</time>
      </trkpt>
      <trkpt lat="42.47358" lon="2.32169">
        <ele>1987.18</ele>
        <time>2018-02-22T09:41:15Z</time>
      </trkpt>
      <trkpt lat="42.47358" lon="2.3217">
        <ele>1986.7</ele>
        <time>2018-02-22T09:41:40Z</time>
      </trkpt>
      <trkpt lat="42.47356" lon="2.3217">
        <ele>1986.7</ele>
        <time>2018-02-22T09:42:00Z</time>
      </trkpt>
      <trkpt lat="42.4736" lon="2.3217">
        <ele>1986.7</ele>
        <time>2018-02-22T09:42:25Z</time>
      </trkpt>
      <trkpt lat="42.47365" lon="2.32171">
        <ele>1986.7</ele>
        <time>2018-02-22T09:42:53Z</time>
      </trkpt>
      <trkpt lat="42.47362" lon="2.3217">
        <ele>1986.7</ele>
        <time>2018-02-22T09:43:07Z</time>
      </trkpt>
      <trkpt lat="42.4736" lon="2.3217">
        <ele>1986.7</ele>
        <time>2018-02-22T09:43:29Z</time>
      </trkpt>
      <trkpt lat="42.47357" lon="2.32167">
        <ele>1986.22</ele>
        <time>2018-02-22T09:43:48Z</time>
      </trkpt>
      <trkpt lat="42.47353" lon="2.32167">
        <ele>1986.22</ele>
        <time>2018-02-22T09:44:12Z</time>
      </trkpt>
      <trkpt lat="42.4735" lon="2.32172">
        <ele>1987.66</ele>
        <time>2018-02-22T09:44:27Z</time>
      </trkpt>
      <trkpt lat="42.47348" lon="2.32177">
        <ele>1989.1</ele>
        <time>2018-02-22T09:44:40Z</time>
      </trkpt>
      <trkpt lat="42.47348" lon="2.32182">
        <ele>1991.03</ele>
        <time>2018-02-22T09:44:54Z</time>
      </trkpt>
      <trkpt lat="42.47343" lon="2.32187">
        <ele>1992.47</ele>
        <time>2018-02-22T09:45:11Z</time>
      </trkpt>
      <trkpt lat="42.47337" lon="2.32188">
        <ele>1993.43</ele>
        <time>2018-02-22T09:45:27Z</time>
      </trkpt>
      <trkpt lat="42.47332" lon="2.32192">
        <ele>1995.83</ele>
        <time>2018-02-22T09:45:43Z</time>
      </trkpt>
      <trkpt lat="42.47326" lon="2.32189">
        <ele>1996.8</ele>
        <time>2018-02-22T09:45:57Z</time>
      </trkpt>
      <trkpt lat="42.47321" lon="2.32192">
        <ele>1998.24</ele>
        <time>2018-02-22T09:46:13Z</time>
      </trkpt>
      <trkpt lat="42.47315" lon="2.32197">
        <ele>1999.68</ele>
        <time>2018-02-22T09:46:28Z</time>
      </trkpt>
      <trkpt lat="42.47308" lon="2.32199">
        <ele>2002.08</ele>
        <time>2018-02-22T09:46:45Z</time>
      </trkpt>
      <trkpt lat="42.47299" lon="2.32198">
        <ele>2003.52</ele>
        <time>2018-02-22T09:47:02Z</time>
      </trkpt>
      <trkpt lat="42.47295" lon="2.32197">
        <ele>2004.97</ele>
        <time>2018-02-22T09:47:19Z</time>
      </trkpt>
      <trkpt lat="42.47287" lon="2.32194">
        <ele>2005.93</ele>
        <time>2018-02-22T09:47:35Z</time>
      </trkpt>
      <trkpt lat="42.47281" lon="2.32196">
        <ele>2007.37</ele>
        <time>2018-02-22T09:47:52Z</time>
      </trkpt>
      <trkpt lat="42.47275" lon="2.3219">
        <ele>2008.33</ele>
        <time>2018-02-22T09:48:09Z</time>
      </trkpt>
      <trkpt lat="42.47268" lon="2.32187">
        <ele>2009.77</ele>
        <time>2018-02-22T09:48:26Z</time>
      </trkpt>
      <trkpt lat="42.47263" lon="2.32187">
        <ele>2011.22</ele>
        <time>2018-02-22T09:48:40Z</time>
      </trkpt>
      <trkpt lat="42.47259" lon="2.32181">
        <ele>2012.18</ele>
        <time>2018-02-22T09:48:56Z</time>
      </trkpt>
      <trkpt lat="42.47252" lon="2.32185">
        <ele>2014.1</ele>
        <time>2018-02-22T09:49:13Z</time>
      </trkpt>
      <trkpt lat="42.47247" lon="2.32187">
        <ele>2015.06</ele>
        <time>2018-02-22T09:49:29Z</time>
      </trkpt>
      <trkpt lat="42.47238" lon="2.32186">
        <ele>2016.5</ele>
        <time>2018-02-22T09:49:46Z</time>
      </trkpt>
      <trkpt lat="42.47232" lon="2.32183">
        <ele>2017.46</ele>
        <time>2018-02-22T09:50:04Z</time>
      </trkpt>
      <trkpt lat="42.47229" lon="2.32179">
        <ele>2018.43</ele>
        <time>2018-02-22T09:50:19Z</time>
      </trkpt>
      <trkpt lat="42.47224" lon="2.32175">
        <ele>2019.39</ele>
        <time>2018-02-22T09:50:38Z</time>
      </trkpt>
      <trkpt lat="42.47218" lon="2.32172">
        <ele>2021.31</ele>
        <time>2018-02-22T09:50:53Z</time>
      </trkpt>
      <trkpt lat="42.47212" lon="2.32173">
        <ele>2022.75</ele>
        <time>2018-02-22T09:51:07Z</time>
      </trkpt>
      <trkpt lat="42.47207" lon="2.3217">
        <ele>2024.19</ele>
        <time>2018-02-22T09:51:24Z</time>
      </trkpt>
      <trkpt lat="42.47203" lon="2.32165">
        <ele>2024.67</ele>
        <time>2018-02-22T09:51:39Z</time>
      </trkpt>
      <trkpt lat="42.47198" lon="2.32167">
        <ele>2026.6</ele>
        <time>2018-02-22T09:51:52Z</time>
      </trkpt>
      <trkpt lat="42.47192" lon="2.32165">
        <ele>2028.04</ele>
        <time>2018-02-22T09:52:06Z</time>
      </trkpt>
      <trkpt lat="42.47187" lon="2.32162">
        <ele>2029.48</ele>
        <time>2018-02-22T09:52:22Z</time>
      </trkpt>
      <trkpt lat="42.47183" lon="2.32159">
        <ele>2030.44</ele>
        <time>2018-02-22T09:52:36Z</time>
      </trkpt>
      <trkpt lat="42.47178" lon="2.32156">
        <ele>2031.88</ele>
        <time>2018-02-22T09:52:50Z</time>
      </trkpt>
      <trkpt lat="42.47173" lon="2.32154">
        <ele>2033.81</ele>
        <time>2018-02-22T09:53:06Z</time>
      </trkpt>
      <trkpt lat="42.47169" lon="2.32152">
        <ele>2034.77</ele>
        <time>2018-02-22T09:53:21Z</time>
      </trkpt>
      <trkpt lat="42.47164" lon="2.32152">
        <ele>2036.21</ele>
        <time>2018-02-22T09:53:42Z</time>
      </trkpt>
      <trkpt lat="42.47161" lon="2.32155">
        <ele>2037.65</ele>
        <time>2018-02-22T09:53:59Z</time>
      </trkpt>
      <trkpt lat="42.47159" lon="2.32156">
        <ele>2037.17</ele>
        <time>2018-02-22T09:54:31Z</time>
      </trkpt>
      <trkpt lat="42.47153" lon="2.32158">
        <ele>2039.09</ele>
        <time>2018-02-22T09:54:48Z</time>
      </trkpt>
      <trkpt lat="42.4715" lon="2.32159">
        <ele>2040.54</ele>
        <time>2018-02-22T09:55:01Z</time>
      </trkpt>
      <trkpt lat="42.47143" lon="2.3216">
        <ele>2042.46</ele>
        <time>2018-02-22T09:55:14Z</time>
      </trkpt>
      <trkpt lat="42.47138" lon="2.32161">
        <ele>2043.9</ele>
        <time>2018-02-22T09:55:29Z</time>
      </trkpt>
      <trkpt lat="42.47134" lon="2.32164">
        <ele>2045.34</ele>
        <time>2018-02-22T09:55:42Z</time>
      </trkpt>
      <trkpt lat="42.47129" lon="2.32168">
        <ele>2046.78</ele>
        <time>2018-02-22T09:55:57Z</time>
      </trkpt>
      <trkpt lat="42.47125" lon="2.32169">
        <ele>2048.71</ele>
        <time>2018-02-22T09:56:12Z</time>
      </trkpt>
      <trkpt lat="42.47121" lon="2.32174">
        <ele>2049.67</ele>
        <time>2018-02-22T09:56:27Z</time>
      </trkpt>
      <trkpt lat="42.47118" lon="2.32175">
        <ele>2051.59</ele>
        <time>2018-02-22T09:56:42Z</time>
      </trkpt>
      <trkpt lat="42.47114" lon="2.32177">
        <ele>2053.03</ele>
        <time>2018-02-22T09:56:58Z</time>
      </trkpt>
      <trkpt lat="42.47111" lon="2.3218">
        <ele>2054.47</ele>
        <time>2018-02-22T09:57:14Z</time>
      </trkpt>
      <trkpt lat="42.47107" lon="2.32182">
        <ele>2055.92</ele>
        <time>2018-02-22T09:57:29Z</time>
      </trkpt>
      <trkpt lat="42.47101" lon="2.32181">
        <ele>2057.84</ele>
        <time>2018-02-22T09:57:44Z</time>
      </trkpt>
      <trkpt lat="42.47095" lon="2.3218">
        <ele>2059.76</ele>
        <time>2018-02-22T09:57:58Z</time>
      </trkpt>
      <trkpt lat="42.4709" lon="2.32176">
        <ele>2061.68</ele>
        <time>2018-02-22T09:58:15Z</time>
      </trkpt>
      <trkpt lat="42.47086" lon="2.32173">
        <ele>2063.13</ele>
        <time>2018-02-22T09:58:31Z</time>
      </trkpt>
      <trkpt lat="42.47082" lon="2.32175">
        <ele>2064.57</ele>
        <time>2018-02-22T09:58:47Z</time>
      </trkpt>
      <trkpt lat="42.47075" lon="2.32176">
        <ele>2066.01</ele>
        <time>2018-02-22T09:59:00Z</time>
      </trkpt>
      <trkpt lat="42.47071" lon="2.32178">
        <ele>2067.45</ele>
        <time>2018-02-22T09:59:14Z</time>
      </trkpt>
      <trkpt lat="42.47066" lon="2.3218">
        <ele>2069.38</ele>
        <time>2018-02-22T09:59:30Z</time>
      </trkpt>
      <trkpt lat="42.47061" lon="2.32182">
        <ele>2071.3</ele>
        <time>2018-02-22T09:59:46Z</time>
      </trkpt>
      <trkpt lat="42.47057" lon="2.3218">
        <ele>2073.22</ele>
        <time>2018-02-22T10:00:01Z</time>
      </trkpt>
      <trkpt lat="42.47051" lon="2.32179">
        <ele>2075.14</ele>
        <time>2018-02-22T10:00:17Z</time>
      </trkpt>
      <trkpt lat="42.47045" lon="2.32178">
        <ele>2076.59</ele>
        <time>2018-02-22T10:00:32Z</time>
      </trkpt>
      <trkpt lat="42.47037" lon="2.32177">
        <ele>2078.03</ele>
        <time>2018-02-22T10:00:49Z</time>
      </trkpt>
      <trkpt lat="42.4703" lon="2.32176">
        <ele>2079.95</ele>
        <time>2018-02-22T10:01:05Z</time>
      </trkpt>
      <trkpt lat="42.47024" lon="2.32177">
        <ele>2080.91</ele>
        <time>2018-02-22T10:01:19Z</time>
      </trkpt>
      <trkpt lat="42.47016" lon="2.32176">
        <ele>2082.35</ele>
        <time>2018-02-22T10:01:36Z</time>
      </trkpt>
      <trkpt lat="42.47012" lon="2.32169">
        <ele>2083.79</ele>
        <time>2018-02-22T10:01:50Z</time>
      </trkpt>
      <trkpt lat="42.47005" lon="2.32162">
        <ele>2084.76</ele>
        <time>2018-02-22T10:02:05Z</time>
      </trkpt>
      <trkpt lat="42.47004" lon="2.32156">
        <ele>2086.2</ele>
        <time>2018-02-22T10:02:19Z</time>
      </trkpt>
      <trkpt lat="42.47003" lon="2.32147">
        <ele>2088.12</ele>
        <time>2018-02-22T10:02:35Z</time>
      </trkpt>
      <trkpt lat="42.47003" lon="2.32143">
        <ele>2089.56</ele>
        <time>2018-02-22T10:02:51Z</time>
      </trkpt>
      <trkpt lat="42.46998" lon="2.32144">
        <ele>2090.04</ele>
        <time>2018-02-22T10:03:04Z</time>
      </trkpt>
      <trkpt lat="42.47" lon="2.32143">
        <ele>2090.04</ele>
        <time>2018-02-22T10:03:28Z</time>
      </trkpt>
      <trkpt lat="42.47003" lon="2.32146">
        <ele>2090.04</ele>
        <time>2018-02-22T10:03:44Z</time>
      </trkpt>
      <trkpt lat="42.47005" lon="2.32143">
        <ele>2089.56</ele>
        <time>2018-02-22T10:04:13Z</time>
      </trkpt>
      <trkpt lat="42.47003" lon="2.32143">
        <ele>2088.6</ele>
        <time>2018-02-22T10:04:37Z</time>
      </trkpt>
      <trkpt lat="42.47003" lon="2.32145">
        <ele>2088.12</ele>
        <time>2018-02-22T10:04:58Z</time>
      </trkpt>
      <trkpt lat="42.47003" lon="2.32146">
        <ele>2086.68</ele>
        <time>2018-02-22T10:05:14Z</time>
      </trkpt>
      <trkpt lat="42.47006" lon="2.32147">
        <ele>2086.68</ele>
        <time>2018-02-22T10:05:37Z</time>
      </trkpt>
      <trkpt lat="42.47007" lon="2.32146">
        <ele>2085.72</ele>
        <time>2018-02-22T10:06:16Z</time>
      </trkpt>
      <trkpt lat="42.47004" lon="2.32145">
        <ele>2086.68</ele>
        <time>2018-02-22T10:06:30Z</time>
      </trkpt>
      <trkpt lat="42.47001" lon="2.32145">
        <ele>2086.2</ele>
        <time>2018-02-22T10:06:44Z</time>
      </trkpt>
      <trkpt lat="42.47001" lon="2.32145">
        <ele>2085.72</ele>
        <time>2018-02-22T10:07:04Z</time>
      </trkpt>
      <trkpt lat="42.46999" lon="2.32145">
        <ele>2085.72</ele>
        <time>2018-02-22T10:07:37Z</time>
      </trkpt>
      <trkpt lat="42.46999" lon="2.32144">
        <ele>2085.24</ele>
        <time>2018-02-22T10:08:10Z</time>
      </trkpt>
      <trkpt lat="42.47" lon="2.32145">
        <ele>2084.76</ele>
        <time>2018-02-22T10:08:31Z</time>
      </trkpt>
      <trkpt lat="42.47003" lon="2.32148">
        <ele>2084.76</ele>
        <time>2018-02-22T10:08:53Z</time>
      </trkpt>
      <trkpt lat="42.47004" lon="2.32145">
        <ele>2084.76</ele>
        <time>2018-02-22T10:09:20Z</time>
      </trkpt>
      <trkpt lat="42.47006" lon="2.32149">
        <ele>2083.31</ele>
        <time>2018-02-22T10:09:43Z</time>
      </trkpt>
      <trkpt lat="42.47006" lon="2.32155">
        <ele>2081.87</ele>
        <time>2018-02-22T10:09:55Z</time>
      </trkpt>
      <trkpt lat="42.47007" lon="2.32157">
        <ele>2080.91</ele>
        <time>2018-02-22T10:10:14Z</time>
      </trkpt>
      <trkpt lat="42.47005" lon="2.32158">
        <ele>2080.91</ele>
        <time>2018-02-22T10:10:32Z</time>
      </trkpt>
      <trkpt lat="42.47005" lon="2.3216">
        <ele>2080.43</ele>
        <time>2018-02-22T10:10:54Z</time>
      </trkpt>
      <trkpt lat="42.46999" lon="2.32164">
        <ele>2079.47</ele>
        <time>2018-02-22T10:11:06Z</time>
      </trkpt>
      <trkpt lat="42.46992" lon="2.32174">
        <ele>2079.47</ele>
        <time>2018-02-22T10:11:20Z</time>
      </trkpt>
      <trkpt lat="42.46986" lon="2.32185">
        <ele>2079.47</ele>
        <time>2018-02-22T10:11:36Z</time>
      </trkpt>
      <trkpt lat="42.46981" lon="2.32194">
        <ele>2080.43</ele>
        <time>2018-02-22T10:11:51Z</time>
      </trkpt>
      <trkpt lat="42.46976" lon="2.32201">
        <ele>2081.39</ele>
        <time>2018-02-22T10:12:00Z</time>
      </trkpt>
      <trkpt lat="42.4697" lon="2.32211">
        <ele>2081.87</ele>
        <time>2018-02-22T10:12:13Z</time>
      </trkpt>
      <trkpt lat="42.46962" lon="2.32219">
        <ele>2082.83</ele>
        <time>2018-02-22T10:12:27Z</time>
      </trkpt>
      <trkpt lat="42.46952" lon="2.32227">
        <ele>2082.83</ele>
        <time>2018-02-22T10:12:45Z</time>
      </trkpt>
      <trkpt lat="42.46943" lon="2.32237">
        <ele>2082.83</ele>
        <time>2018-02-22T10:13:01Z</time>
      </trkpt>
      <trkpt lat="42.46939" lon="2.32247">
        <ele>2084.28</ele>
        <time>2018-02-22T10:13:18Z</time>
      </trkpt>
      <trkpt lat="42.46933" lon="2.32257">
        <ele>2085.24</ele>
        <time>2018-02-22T10:13:35Z</time>
      </trkpt>
      <trkpt lat="42.46926" lon="2.32265">
        <ele>2086.2</ele>
        <time>2018-02-22T10:13:49Z</time>
      </trkpt>
      <trkpt lat="42.46918" lon="2.32274">
        <ele>2087.16</ele>
        <time>2018-02-22T10:14:04Z</time>
      </trkpt>
      <trkpt lat="42.46914" lon="2.32278">
        <ele>2087.16</ele>
        <time>2018-02-22T10:14:17Z</time>
      </trkpt>
      <trkpt lat="42.46908" lon="2.32287">
        <ele>2087.64</ele>
        <time>2018-02-22T10:14:34Z</time>
      </trkpt>
      <trkpt lat="42.46898" lon="2.32297">
        <ele>2088.6</ele>
        <time>2018-02-22T10:14:50Z</time>
      </trkpt>
      <trkpt lat="42.46891" lon="2.32307">
        <ele>2090.04</ele>
        <time>2018-02-22T10:15:07Z</time>
      </trkpt>
      <trkpt lat="42.46882" lon="2.32314">
        <ele>2091.97</ele>
        <time>2018-02-22T10:15:26Z</time>
      </trkpt>
      <trkpt lat="42.46873" lon="2.32319">
        <ele>2092.45</ele>
        <time>2018-02-22T10:15:41Z</time>
      </trkpt>
      <trkpt lat="42.46865" lon="2.32323">
        <ele>2093.89</ele>
        <time>2018-02-22T10:15:56Z</time>
      </trkpt>
      <trkpt lat="42.46859" lon="2.32329">
        <ele>2095.33</ele>
        <time>2018-02-22T10:16:13Z</time>
      </trkpt>
      <trkpt lat="42.46849" lon="2.32335">
        <ele>2097.25</ele>
        <time>2018-02-22T10:16:32Z</time>
      </trkpt>
      <trkpt lat="42.46842" lon="2.32339">
        <ele>2099.18</ele>
        <time>2018-02-22T10:16:50Z</time>
      </trkpt>
      <trkpt lat="42.46834" lon="2.32341">
        <ele>2100.14</ele>
        <time>2018-02-22T10:17:06Z</time>
      </trkpt>
      <trkpt lat="42.46829" lon="2.32341">
        <ele>2101.1</ele>
        <time>2018-02-22T10:17:26Z</time>
      </trkpt>
      <trkpt lat="42.46822" lon="2.32342">
        <ele>2102.54</ele>
        <time>2018-02-22T10:17:48Z</time>
      </trkpt>
      <trkpt lat="42.46817" lon="2.32343">
        <ele>2103.98</ele>
        <time>2018-02-22T10:18:04Z</time>
      </trkpt>
      <trkpt lat="42.46811" lon="2.32345">
        <ele>2105.91</ele>
        <time>2018-02-22T10:18:22Z</time>
      </trkpt>
      <trkpt lat="42.46808" lon="2.32347">
        <ele>2107.35</ele>
        <time>2018-02-22T10:18:35Z</time>
      </trkpt>
      <trkpt lat="42.46805" lon="2.32348">
        <ele>2108.31</ele>
        <time>2018-02-22T10:18:49Z</time>
      </trkpt>
      <trkpt lat="42.46801" lon="2.32347">
        <ele>2109.27</ele>
        <time>2018-02-22T10:19:01Z</time>
      </trkpt>
      <trkpt lat="42.46797" lon="2.32346">
        <ele>2110.71</ele>
        <time>2018-02-22T10:19:17Z</time>
      </trkpt>
      <trkpt lat="42.46793" lon="2.32347">
        <ele>2112.63</ele>
        <time>2018-02-22T10:19:32Z</time>
      </trkpt>
      <trkpt lat="42.46787" lon="2.32345">
        <ele>2113.12</ele>
        <time>2018-02-22T10:19:46Z</time>
      </trkpt>
      <trkpt lat="42.46779" lon="2.3234">
        <ele>2114.56</ele>
        <time>2018-02-22T10:20:00Z</time>
      </trkpt>
      <trkpt lat="42.46774" lon="2.32338">
        <ele>2115.04</ele>
        <time>2018-02-22T10:20:12Z</time>
      </trkpt>
      <trkpt lat="42.46769" lon="2.32334">
        <ele>2116.48</ele>
        <time>2018-02-22T10:20:30Z</time>
      </trkpt>
      <trkpt lat="42.46762" lon="2.32333">
        <ele>2118.4</ele>
        <time>2018-02-22T10:20:45Z</time>
      </trkpt>
      <trkpt lat="42.46757" lon="2.32332">
        <ele>2119.36</ele>
        <time>2018-02-22T10:20:58Z</time>
      </trkpt>
      <trkpt lat="42.46751" lon="2.32331">
        <ele>2120.81</ele>
        <time>2018-02-22T10:21:12Z</time>
      </trkpt>
      <trkpt lat="42.46745" lon="2.32332">
        <ele>2122.25</ele>
        <time>2018-02-22T10:21:27Z</time>
      </trkpt>
      <trkpt lat="42.46738" lon="2.3233">
        <ele>2123.69</ele>
        <time>2018-02-22T10:21:41Z</time>
      </trkpt>
      <trkpt lat="42.46732" lon="2.32329">
        <ele>2125.13</ele>
        <time>2018-02-22T10:21:54Z</time>
      </trkpt>
      <trkpt lat="42.46726" lon="2.32326">
        <ele>2125.61</ele>
        <time>2018-02-22T10:22:09Z</time>
      </trkpt>
      <trkpt lat="42.46722" lon="2.32333">
        <ele>2127.05</ele>
        <time>2018-02-22T10:22:23Z</time>
      </trkpt>
      <trkpt lat="42.46717" lon="2.3234">
        <ele>2128.5</ele>
        <time>2018-02-22T10:22:36Z</time>
      </trkpt>
      <trkpt lat="42.46711" lon="2.32348">
        <ele>2129.46</ele>
        <time>2018-02-22T10:22:53Z</time>
      </trkpt>
      <trkpt lat="42.46707" lon="2.32356">
        <ele>2130.42</ele>
        <time>2018-02-22T10:23:08Z</time>
      </trkpt>
      <trkpt lat="42.46703" lon="2.32366">
        <ele>2131.86</ele>
        <time>2018-02-22T10:23:24Z</time>
      </trkpt>
      <trkpt lat="42.46699" lon="2.32376">
        <ele>2133.3</ele>
        <time>2018-02-22T10:23:40Z</time>
      </trkpt>
      <trkpt lat="42.46694" lon="2.32386">
        <ele>2134.26</ele>
        <time>2018-02-22T10:23:55Z</time>
      </trkpt>
      <trkpt lat="42.46694" lon="2.32387">
        <ele>2134.74</ele>
        <time>2018-02-22T10:24:08Z</time>
      </trkpt>
      <trkpt lat="42.46694" lon="2.32387">
        <ele>2134.26</ele>
        <time>2018-02-22T10:24:29Z</time>
      </trkpt>
      <trkpt lat="42.46692" lon="2.32385">
        <ele>2134.26</ele>
        <time>2018-02-22T10:24:52Z</time>
      </trkpt>
      <trkpt lat="42.46692" lon="2.32388">
        <ele>2134.26</ele>
        <time>2018-02-22T10:25:10Z</time>
      </trkpt>
      <trkpt lat="42.46692" lon="2.32399">
        <ele>2135.23</ele>
        <time>2018-02-22T10:25:25Z</time>
      </trkpt>
      <trkpt lat="42.46694" lon="2.3241">
        <ele>2137.15</ele>
        <time>2018-02-22T10:25:39Z</time>
      </trkpt>
      <trkpt lat="42.46695" lon="2.32422">
        <ele>2138.59</ele>
        <time>2018-02-22T10:25:54Z</time>
      </trkpt>
      <trkpt lat="42.46696" lon="2.32432">
        <ele>2140.03</ele>
        <time>2018-02-22T10:26:07Z</time>
      </trkpt>
      <trkpt lat="42.46697" lon="2.32443">
        <ele>2141.95</ele>
        <time>2018-02-22T10:26:26Z</time>
      </trkpt>
      <trkpt lat="42.46697" lon="2.32455">
        <ele>2143.88</ele>
        <time>2018-02-22T10:26:41Z</time>
      </trkpt>
      <trkpt lat="42.46696" lon="2.32465">
        <ele>2145.32</ele>
        <time>2018-02-22T10:26:55Z</time>
      </trkpt>
      <trkpt lat="42.46697" lon="2.32473">
        <ele>2146.76</ele>
        <time>2018-02-22T10:27:10Z</time>
      </trkpt>
      <trkpt lat="42.46698" lon="2.32477">
        <ele>2147.72</ele>
        <time>2018-02-22T10:27:25Z</time>
      </trkpt>
      <trkpt lat="42.467" lon="2.32481">
        <ele>2147.72</ele>
        <time>2018-02-22T10:27:42Z</time>
      </trkpt>
      <trkpt lat="42.46696" lon="2.32492">
        <ele>2149.16</ele>
        <time>2018-02-22T10:27:59Z</time>
      </trkpt>
      <trkpt lat="42.46693" lon="2.32502">
        <ele>2150.61</ele>
        <time>2018-02-22T10:28:13Z</time>
      </trkpt>
      <trkpt lat="42.46689" lon="2.3251">
        <ele>2151.57</ele>
        <time>2018-02-22T10:28:29Z</time>
      </trkpt>
      <trkpt lat="42.46686" lon="2.32519">
        <ele>2152.53</ele>
        <time>2018-02-22T10:28:43Z</time>
      </trkpt>
      <trkpt lat="42.4668" lon="2.32529">
        <ele>2153.49</ele>
        <time>2018-02-22T10:29:01Z</time>
      </trkpt>
      <trkpt lat="42.4668" lon="2.32536">
        <ele>2155.41</ele>
        <time>2018-02-22T10:29:15Z</time>
      </trkpt>
      <trkpt lat="42.4668" lon="2.32544">
        <ele>2156.37</ele>
        <time>2018-02-22T10:29:29Z</time>
      </trkpt>
      <trkpt lat="42.4668" lon="2.32551">
        <ele>2157.82</ele>
        <time>2018-02-22T10:29:42Z</time>
      </trkpt>
      <trkpt lat="42.46681" lon="2.32561">
        <ele>2159.26</ele>
        <time>2018-02-22T10:29:54Z</time>
      </trkpt>
      <trkpt lat="42.46681" lon="2.3257">
        <ele>2161.18</ele>
        <time>2018-02-22T10:30:10Z</time>
      </trkpt>
      <trkpt lat="42.4668" lon="2.3258">
        <ele>2163.1</ele>
        <time>2018-02-22T10:30:28Z</time>
      </trkpt>
      <trkpt lat="42.46679" lon="2.32591">
        <ele>2164.55</ele>
        <time>2018-02-22T10:30:43Z</time>
      </trkpt>
      <trkpt lat="42.46678" lon="2.326">
        <ele>2166.47</ele>
        <time>2018-02-22T10:31:00Z</time>
      </trkpt>
      <trkpt lat="42.46677" lon="2.32602">
        <ele>2166.47</ele>
        <time>2018-02-22T10:31:22Z</time>
      </trkpt>
      <trkpt lat="42.46676" lon="2.32615">
        <ele>2167.91</ele>
        <time>2018-02-22T10:31:37Z</time>
      </trkpt>
      <trkpt lat="42.46675" lon="2.32626">
        <ele>2169.35</ele>
        <time>2018-02-22T10:31:53Z</time>
      </trkpt>
      <trkpt lat="42.46676" lon="2.32637">
        <ele>2171.27</ele>
        <time>2018-02-22T10:32:10Z</time>
      </trkpt>
      <trkpt lat="42.46673" lon="2.32647">
        <ele>2173.2</ele>
        <time>2018-02-22T10:32:26Z</time>
      </trkpt>
      <trkpt lat="42.46672" lon="2.32656">
        <ele>2174.64</ele>
        <time>2018-02-22T10:32:42Z</time>
      </trkpt>
      <trkpt lat="42.46671" lon="2.32667">
        <ele>2176.08</ele>
        <time>2018-02-22T10:32:57Z</time>
      </trkpt>
      <trkpt lat="42.46668" lon="2.32678">
        <ele>2178.48</ele>
        <time>2018-02-22T10:33:15Z</time>
      </trkpt>
      <trkpt lat="42.46665" lon="2.32688">
        <ele>2180.41</ele>
        <time>2018-02-22T10:33:30Z</time>
      </trkpt>
      <trkpt lat="42.46662" lon="2.32698">
        <ele>2181.37</ele>
        <time>2018-02-22T10:33:46Z</time>
      </trkpt>
      <trkpt lat="42.46661" lon="2.32706">
        <ele>2182.81</ele>
        <time>2018-02-22T10:34:01Z</time>
      </trkpt>
      <trkpt lat="42.4666" lon="2.32714">
        <ele>2183.77</ele>
        <time>2018-02-22T10:34:15Z</time>
      </trkpt>
      <trkpt lat="42.46659" lon="2.32722">
        <ele>2185.69</ele>
        <time>2018-02-22T10:34:30Z</time>
      </trkpt>
      <trkpt lat="42.46657" lon="2.32729">
        <ele>2187.14</ele>
        <time>2018-02-22T10:34:43Z</time>
      </trkpt>
      <trkpt lat="42.46654" lon="2.32736">
        <ele>2189.06</ele>
        <time>2018-02-22T10:34:56Z</time>
      </trkpt>
      <trkpt lat="42.4665" lon="2.32743">
        <ele>2190.5</ele>
        <time>2018-02-22T10:35:09Z</time>
      </trkpt>
      <trkpt lat="42.46644" lon="2.3275">
        <ele>2191.94</ele>
        <time>2018-02-22T10:35:24Z</time>
      </trkpt>
      <trkpt lat="42.46638" lon="2.32756">
        <ele>2193.39</ele>
        <time>2018-02-22T10:35:38Z</time>
      </trkpt>
      <trkpt lat="42.46633" lon="2.32761">
        <ele>2194.35</ele>
        <time>2018-02-22T10:35:52Z</time>
      </trkpt>
      <trkpt lat="42.46626" lon="2.32766">
        <ele>2195.79</ele>
        <time>2018-02-22T10:36:07Z</time>
      </trkpt>
      <trkpt lat="42.46619" lon="2.32769">
        <ele>2197.71</ele>
        <time>2018-02-22T10:36:22Z</time>
      </trkpt>
      <trkpt lat="42.46612" lon="2.32772">
        <ele>2198.67</ele>
        <time>2018-02-22T10:36:36Z</time>
      </trkpt>
      <trkpt lat="42.46605" lon="2.32773">
        <ele>2200.11</ele>
        <time>2018-02-22T10:36:49Z</time>
      </trkpt>
      <trkpt lat="42.46595" lon="2.32775">
        <ele>2201.08</ele>
        <time>2018-02-22T10:37:04Z</time>
      </trkpt>
      <trkpt lat="42.46592" lon="2.32779">
        <ele>2201.56</ele>
        <time>2018-02-22T10:37:18Z</time>
      </trkpt>
      <trkpt lat="42.46589" lon="2.32785">
        <ele>2201.56</ele>
        <time>2018-02-22T10:37:35Z</time>
      </trkpt>
      <trkpt lat="42.4659" lon="2.32785">
        <ele>2202.04</ele>
        <time>2018-02-22T10:37:57Z</time>
      </trkpt>
      <trkpt lat="42.46589" lon="2.32786">
        <ele>2202.04</ele>
        <time>2018-02-22T10:38:21Z</time>
      </trkpt>
      <trkpt lat="42.46589" lon="2.32787">
        <ele>2202.04</ele>
        <time>2018-02-22T10:38:40Z</time>
      </trkpt>
      <trkpt lat="42.46586" lon="2.32787">
        <ele>2202.04</ele>
        <time>2018-02-22T10:38:54Z</time>
      </trkpt>
      <trkpt lat="42.46587" lon="2.32785">
        <ele>2201.56</ele>
        <time>2018-02-22T10:39:16Z</time>
      </trkpt>
      <trkpt lat="42.46587" lon="2.32783">
        <ele>2201.56</ele>
        <time>2018-02-22T10:39:41Z</time>
      </trkpt>
      <trkpt lat="42.46586" lon="2.32783">
        <ele>2200.11</ele>
        <time>2018-02-22T10:39:44Z</time>
      </trkpt>
      <trkpt lat="42.46586" lon="2.32783">
        <ele>2202.04</ele>
        <time>2018-02-22T10:39:54Z</time>
      </trkpt>
      <trkpt lat="42.46585" lon="2.32786">
        <ele>2202.04</ele>
        <time>2018-02-22T10:40:15Z</time>
      </trkpt>
      <trkpt lat="42.46587" lon="2.32785">
        <ele>2202.04</ele>
        <time>2018-02-22T10:40:40Z</time>
      </trkpt>
      <trkpt lat="42.46585" lon="2.32785">
        <ele>2202.04</ele>
        <time>2018-02-22T10:41:01Z</time>
      </trkpt>
      <trkpt lat="42.46586" lon="2.32784">
        <ele>2201.56</ele>
        <time>2018-02-22T10:41:24Z</time>
      </trkpt>
      <trkpt lat="42.46584" lon="2.32783">
        <ele>2201.56</ele>
        <time>2018-02-22T10:41:41Z</time>
      </trkpt>
      <trkpt lat="42.46583" lon="2.32785">
        <ele>2201.56</ele>
        <time>2018-02-22T10:42:09Z</time>
      </trkpt>
      <trkpt lat="42.46584" lon="2.32788">
        <ele>2201.56</ele>
        <time>2018-02-22T10:42:38Z</time>
      </trkpt>
      <trkpt lat="42.46584" lon="2.32788">
        <ele>2201.56</ele>
        <time>2018-02-22T10:43:02Z</time>
      </trkpt>
      <trkpt lat="42.46583" lon="2.32788">
        <ele>2201.56</ele>
        <time>2018-02-22T10:43:19Z</time>
      </trkpt>
      <trkpt lat="42.46584" lon="2.32787">
        <ele>2201.56</ele>
        <time>2018-02-22T10:43:41Z</time>
      </trkpt>
      <trkpt lat="42.46583" lon="2.32786">
        <ele>2201.56</ele>
        <time>2018-02-22T10:44:00Z</time>
      </trkpt>
      <trkpt lat="42.46582" lon="2.32786">
        <ele>2201.08</ele>
        <time>2018-02-22T10:44:25Z</time>
      </trkpt>
      <trkpt lat="42.46581" lon="2.32788">
        <ele>2201.08</ele>
        <time>2018-02-22T10:44:47Z</time>
      </trkpt>
      <trkpt lat="42.46578" lon="2.32789">
        <ele>2201.08</ele>
        <time>2018-02-22T10:44:59Z</time>
      </trkpt>
      <trkpt lat="42.46575" lon="2.3279">
        <ele>2197.23</ele>
        <time>2018-02-22T10:45:07Z</time>
      </trkpt>
      <trkpt lat="42.46573" lon="2.32791">
        <ele>2206.36</ele>
        <time>2018-02-22T10:45:09Z</time>
      </trkpt>
      <trkpt lat="42.46572" lon="2.32791">
        <ele>2202.04</ele>
        <time>2018-02-22T10:45:10Z</time>
      </trkpt>
      <trkpt lat="42.46571" lon="2.32793">
        <ele>2208.29</ele>
        <time>2018-02-22T10:45:12Z</time>
      </trkpt>
      <trkpt lat="42.46571" lon="2.32794">
        <ele>2208.29</ele>
        <time>2018-02-22T10:45:13Z</time>
      </trkpt>
      <trkpt lat="42.4657" lon="2.32794">
        <ele>2201.56</ele>
        <time>2018-02-22T10:45:14Z</time>
      </trkpt>
      <trkpt lat="42.46569" lon="2.32795">
        <ele>2201.56</ele>
        <time>2018-02-22T10:45:15Z</time>
      </trkpt>
      <trkpt lat="42.46562" lon="2.32798">
        <ele>2201.08</ele>
        <time>2018-02-22T10:45:27Z</time>
      </trkpt>
      <trkpt lat="42.46551" lon="2.32799">
        <ele>2201.08</ele>
        <time>2018-02-22T10:45:42Z</time>
      </trkpt>
      <trkpt lat="42.4654" lon="2.328">
        <ele>2202.04</ele>
        <time>2018-02-22T10:45:58Z</time>
      </trkpt>
      <trkpt lat="42.46529" lon="2.32799">
        <ele>2203</ele>
        <time>2018-02-22T10:46:11Z</time>
      </trkpt>
      <trkpt lat="42.46519" lon="2.32798">
        <ele>2203.96</ele>
        <time>2018-02-22T10:46:24Z</time>
      </trkpt>
      <trkpt lat="42.46507" lon="2.32797">
        <ele>2205.88</ele>
        <time>2018-02-22T10:46:42Z</time>
      </trkpt>
      <trkpt lat="42.46498" lon="2.32796">
        <ele>2206.84</ele>
        <time>2018-02-22T10:46:55Z</time>
      </trkpt>
      <trkpt lat="42.46492" lon="2.32793">
        <ele>2207.81</ele>
        <time>2018-02-22T10:47:07Z</time>
      </trkpt>
      <trkpt lat="42.46488" lon="2.32795">
        <ele>2208.29</ele>
        <time>2018-02-22T10:47:27Z</time>
      </trkpt>
      <trkpt lat="42.46486" lon="2.32796">
        <ele>2208.29</ele>
        <time>2018-02-22T10:47:43Z</time>
      </trkpt>
      <trkpt lat="42.46478" lon="2.32795">
        <ele>2208.29</ele>
        <time>2018-02-22T10:47:57Z</time>
      </trkpt>
      <trkpt lat="42.46467" lon="2.32795">
        <ele>2208.29</ele>
        <time>2018-02-22T10:48:11Z</time>
      </trkpt>
      <trkpt lat="42.46458" lon="2.32795">
        <ele>2207.32</ele>
        <time>2018-02-22T10:48:23Z</time>
      </trkpt>
      <trkpt lat="42.46446" lon="2.32796">
        <ele>2206.36</ele>
        <time>2018-02-22T10:48:39Z</time>
      </trkpt>
      <trkpt lat="42.46434" lon="2.32797">
        <ele>2205.88</ele>
        <time>2018-02-22T10:48:54Z</time>
      </trkpt>
      <trkpt lat="42.46434" lon="2.32798">
        <ele>2205.88</ele>
        <time>2018-02-22T10:48:55Z</time>
      </trkpt>
      <trkpt lat="42.46421" lon="2.32799">
        <ele>2205.88</ele>
        <time>2018-02-22T10:49:11Z</time>
      </trkpt>
      <trkpt lat="42.46414" lon="2.328">
        <ele>2205.88</ele>
        <time>2018-02-22T10:49:28Z</time>
      </trkpt>
      <trkpt lat="42.46402" lon="2.32802">
        <ele>2207.81</ele>
        <time>2018-02-22T10:49:44Z</time>
      </trkpt>
      <trkpt lat="42.46391" lon="2.32803">
        <ele>2209.25</ele>
        <time>2018-02-22T10:50:00Z</time>
      </trkpt>
      <trkpt lat="42.46382" lon="2.32804">
        <ele>2209.73</ele>
        <time>2018-02-22T10:50:13Z</time>
      </trkpt>
      <trkpt lat="42.46371" lon="2.32806">
        <ele>2210.69</ele>
        <time>2018-02-22T10:50:29Z</time>
      </trkpt>
      <trkpt lat="42.46361" lon="2.32806">
        <ele>2211.65</ele>
        <time>2018-02-22T10:50:43Z</time>
      </trkpt>
      <trkpt lat="42.46351" lon="2.32808">
        <ele>2212.13</ele>
        <time>2018-02-22T10:50:59Z</time>
      </trkpt>
      <trkpt lat="42.4634" lon="2.32811">
        <ele>2213.09</ele>
        <time>2018-02-22T10:51:15Z</time>
      </trkpt>
      <trkpt lat="42.46331" lon="2.32817">
        <ele>2213.57</ele>
        <time>2018-02-22T10:51:31Z</time>
      </trkpt>
      <trkpt lat="42.46329" lon="2.32819">
        <ele>2213.57</ele>
        <time>2018-02-22T10:51:46Z</time>
      </trkpt>
      <trkpt lat="42.46328" lon="2.32818">
        <ele>2214.05</ele>
        <time>2018-02-22T10:52:13Z</time>
      </trkpt>
      <trkpt lat="42.46325" lon="2.3282">
        <ele>2214.05</ele>
        <time>2018-02-22T10:52:38Z</time>
      </trkpt>
      <trkpt lat="42.46318" lon="2.32826">
        <ele>2214.53</ele>
        <time>2018-02-22T10:52:51Z</time>
      </trkpt>
      <trkpt lat="42.46308" lon="2.32831">
        <ele>2215.5</ele>
        <time>2018-02-22T10:53:07Z</time>
      </trkpt>
      <trkpt lat="42.46298" lon="2.32836">
        <ele>2216.46</ele>
        <time>2018-02-22T10:53:23Z</time>
      </trkpt>
      <trkpt lat="42.46285" lon="2.3284">
        <ele>2217.9</ele>
        <time>2018-02-22T10:53:41Z</time>
      </trkpt>
      <trkpt lat="42.46277" lon="2.32842">
        <ele>2218.86</ele>
        <time>2018-02-22T10:53:55Z</time>
      </trkpt>
      <trkpt lat="42.46268" lon="2.32846">
        <ele>2220.3</ele>
        <time>2018-02-22T10:54:12Z</time>
      </trkpt>
      <trkpt lat="42.46255" lon="2.32851">
        <ele>2221.26</ele>
        <time>2018-02-22T10:54:33Z</time>
      </trkpt>
      <trkpt lat="42.46246" lon="2.32857">
        <ele>2221.74</ele>
        <time>2018-02-22T10:54:48Z</time>
      </trkpt>
      <trkpt lat="42.46238" lon="2.32858">
        <ele>2223.67</ele>
        <time>2018-02-22T10:55:04Z</time>
      </trkpt>
      <trkpt lat="42.46228" lon="2.32861">
        <ele>2224.15</ele>
        <time>2018-02-22T10:55:21Z</time>
      </trkpt>
      <trkpt lat="42.46216" lon="2.32863">
        <ele>2224.63</ele>
        <time>2018-02-22T10:55:38Z</time>
      </trkpt>
      <trkpt lat="42.46209" lon="2.32863">
        <ele>2225.59</ele>
        <time>2018-02-22T10:55:51Z</time>
      </trkpt>
      <trkpt lat="42.46196" lon="2.32862">
        <ele>2227.03</ele>
        <time>2018-02-22T10:56:10Z</time>
      </trkpt>
      <trkpt lat="42.46185" lon="2.32862">
        <ele>2228.47</ele>
        <time>2018-02-22T10:56:27Z</time>
      </trkpt>
      <trkpt lat="42.46175" lon="2.32863">
        <ele>2229.43</ele>
        <time>2018-02-22T10:56:41Z</time>
      </trkpt>
      <trkpt lat="42.46164" lon="2.32861">
        <ele>2229.92</ele>
        <time>2018-02-22T10:56:56Z</time>
      </trkpt>
      <trkpt lat="42.46154" lon="2.3286">
        <ele>2230.4</ele>
        <time>2018-02-22T10:57:11Z</time>
      </trkpt>
      <trkpt lat="42.46144" lon="2.32856">
        <ele>2230.88</ele>
        <time>2018-02-22T10:57:26Z</time>
      </trkpt>
      <trkpt lat="42.46133" lon="2.32854">
        <ele>2231.36</ele>
        <time>2018-02-22T10:57:42Z</time>
      </trkpt>
      <trkpt lat="42.46121" lon="2.32851">
        <ele>2232.32</ele>
        <time>2018-02-22T10:57:58Z</time>
      </trkpt>
      <trkpt lat="42.46111" lon="2.3285">
        <ele>2233.28</ele>
        <time>2018-02-22T10:58:12Z</time>
      </trkpt>
      <trkpt lat="42.46098" lon="2.32847">
        <ele>2234.24</ele>
        <time>2018-02-22T10:58:27Z</time>
      </trkpt>
      <trkpt lat="42.46086" lon="2.32845">
        <ele>2234.72</ele>
        <time>2018-02-22T10:58:44Z</time>
      </trkpt>
      <trkpt lat="42.46075" lon="2.32842">
        <ele>2235.68</ele>
        <time>2018-02-22T10:59:00Z</time>
      </trkpt>
      <trkpt lat="42.46061" lon="2.32839">
        <ele>2236.64</ele>
        <time>2018-02-22T10:59:18Z</time>
      </trkpt>
      <trkpt lat="42.4605" lon="2.32835">
        <ele>2237.61</ele>
        <time>2018-02-22T10:59:33Z</time>
      </trkpt>
      <trkpt lat="42.46043" lon="2.32833">
        <ele>2238.57</ele>
        <time>2018-02-22T10:59:42Z</time>
      </trkpt>
      <trkpt lat="42.4603" lon="2.32831">
        <ele>2239.05</ele>
        <time>2018-02-22T10:59:59Z</time>
      </trkpt>
      <trkpt lat="42.46018" lon="2.32828">
        <ele>2239.53</ele>
        <time>2018-02-22T11:00:14Z</time>
      </trkpt>
      <trkpt lat="42.46007" lon="2.32825">
        <ele>2240.49</ele>
        <time>2018-02-22T11:00:29Z</time>
      </trkpt>
      <trkpt lat="42.45995" lon="2.32823">
        <ele>2240.97</ele>
        <time>2018-02-22T11:00:43Z</time>
      </trkpt>
      <trkpt lat="42.45983" lon="2.32821">
        <ele>2241.45</ele>
        <time>2018-02-22T11:00:58Z</time>
      </trkpt>
      <trkpt lat="42.45972" lon="2.32818">
        <ele>2242.41</ele>
        <time>2018-02-22T11:01:12Z</time>
      </trkpt>
      <trkpt lat="42.45962" lon="2.32815">
        <ele>2243.37</ele>
        <time>2018-02-22T11:01:26Z</time>
      </trkpt>
      <trkpt lat="42.45952" lon="2.32812">
        <ele>2245.3</ele>
        <time>2018-02-22T11:01:42Z</time>
      </trkpt>
      <trkpt lat="42.4594" lon="2.32808">
        <ele>2246.26</ele>
        <time>2018-02-22T11:01:59Z</time>
      </trkpt>
      <trkpt lat="42.4593" lon="2.32805">
        <ele>2246.74</ele>
        <time>2018-02-22T11:02:13Z</time>
      </trkpt>
      <trkpt lat="42.45918" lon="2.32801">
        <ele>2247.7</ele>
        <time>2018-02-22T11:02:30Z</time>
      </trkpt>
      <trkpt lat="42.45907" lon="2.328">
        <ele>2249.14</ele>
        <time>2018-02-22T11:02:45Z</time>
      </trkpt>
      <trkpt lat="42.45897" lon="2.328">
        <ele>2250.1</ele>
        <time>2018-02-22T11:03:00Z</time>
      </trkpt>
      <trkpt lat="42.45895" lon="2.328">
        <ele>2250.58</ele>
        <time>2018-02-22T11:03:18Z</time>
      </trkpt>
      <trkpt lat="42.45896" lon="2.32802">
        <ele>2250.58</ele>
        <time>2018-02-22T11:03:36Z</time>
      </trkpt>
      <trkpt lat="42.45897" lon="2.32803">
        <ele>2250.58</ele>
        <time>2018-02-22T11:04:07Z</time>
      </trkpt>
      <trkpt lat="42.45897" lon="2.32801">
        <ele>2250.58</ele>
        <time>2018-02-22T11:04:30Z</time>
      </trkpt>
      <trkpt lat="42.45896" lon="2.32802">
        <ele>2250.58</ele>
        <time>2018-02-22T11:04:51Z</time>
      </trkpt>
      <trkpt lat="42.45893" lon="2.32799">
        <ele>2250.58</ele>
        <time>2018-02-22T11:05:11Z</time>
      </trkpt>
      <trkpt lat="42.45893" lon="2.32799">
        <ele>2250.58</ele>
        <time>2018-02-22T11:05:40Z</time>
      </trkpt>
      <trkpt lat="42.45887" lon="2.32802">
        <ele>2250.58</ele>
        <time>2018-02-22T11:06:02Z</time>
      </trkpt>
      <trkpt lat="42.45877" lon="2.32804">
        <ele>2250.58</ele>
        <time>2018-02-22T11:06:17Z</time>
      </trkpt>
      <trkpt lat="42.45866" lon="2.32804">
        <ele>2250.58</ele>
        <time>2018-02-22T11:06:31Z</time>
      </trkpt>
      <trkpt lat="42.45854" lon="2.32803">
        <ele>2250.58</ele>
        <time>2018-02-22T11:06:47Z</time>
      </trkpt>
      <trkpt lat="42.45842" lon="2.32801">
        <ele>2251.06</ele>
        <time>2018-02-22T11:07:03Z</time>
      </trkpt>
      <trkpt lat="42.4583" lon="2.328">
        <ele>2251.06</ele>
        <time>2018-02-22T11:07:19Z</time>
      </trkpt>
      <trkpt lat="42.45817" lon="2.32798">
        <ele>2251.06</ele>
        <time>2018-02-22T11:07:35Z</time>
      </trkpt>
      <trkpt lat="42.45805" lon="2.32796">
        <ele>2251.06</ele>
        <time>2018-02-22T11:07:50Z</time>
      </trkpt>
      <trkpt lat="42.45795" lon="2.32792">
        <ele>2251.06</ele>
        <time>2018-02-22T11:08:04Z</time>
      </trkpt>
      <trkpt lat="42.45783" lon="2.3279">
        <ele>2249.62</ele>
        <time>2018-02-22T11:08:19Z</time>
      </trkpt>
      <trkpt lat="42.45771" lon="2.32789">
        <ele>2249.62</ele>
        <time>2018-02-22T11:08:34Z</time>
      </trkpt>
      <trkpt lat="42.45759" lon="2.32788">
        <ele>2249.14</ele>
        <time>2018-02-22T11:08:49Z</time>
      </trkpt>
      <trkpt lat="42.45746" lon="2.32788">
        <ele>2248.66</ele>
        <time>2018-02-22T11:09:06Z</time>
      </trkpt>
      <trkpt lat="42.45734" lon="2.32786">
        <ele>2248.66</ele>
        <time>2018-02-22T11:09:22Z</time>
      </trkpt>
      <trkpt lat="42.45723" lon="2.32783">
        <ele>2248.66</ele>
        <time>2018-02-22T11:09:36Z</time>
      </trkpt>
      <trkpt lat="42.45712" lon="2.32781">
        <ele>2248.66</ele>
        <time>2018-02-22T11:09:52Z</time>
      </trkpt>
      <trkpt lat="42.457" lon="2.32779">
        <ele>2250.1</ele>
        <time>2018-02-22T11:10:08Z</time>
      </trkpt>
      <trkpt lat="42.45688" lon="2.32779">
        <ele>2250.1</ele>
        <time>2018-02-22T11:10:24Z</time>
      </trkpt>
      <trkpt lat="42.45677" lon="2.32779">
        <ele>2251.54</ele>
        <time>2018-02-22T11:10:40Z</time>
      </trkpt>
      <trkpt lat="42.45668" lon="2.32779">
        <ele>2252.03</ele>
        <time>2018-02-22T11:10:55Z</time>
      </trkpt>
      <trkpt lat="42.45656" lon="2.3278">
        <ele>2252.99</ele>
        <time>2018-02-22T11:11:15Z</time>
      </trkpt>
      <trkpt lat="42.45646" lon="2.32781">
        <ele>2254.43</ele>
        <time>2018-02-22T11:11:32Z</time>
      </trkpt>
      <trkpt lat="42.45637" lon="2.3278">
        <ele>2255.87</ele>
        <time>2018-02-22T11:11:47Z</time>
      </trkpt>
      <trkpt lat="42.45629" lon="2.3278">
        <ele>2257.31</ele>
        <time>2018-02-22T11:12:10Z</time>
      </trkpt>
      <trkpt lat="42.45626" lon="2.32781">
        <ele>2257.79</ele>
        <time>2018-02-22T11:12:30Z</time>
      </trkpt>
      <trkpt lat="42.45623" lon="2.32781">
        <ele>2257.79</ele>
        <time>2018-02-22T11:12:47Z</time>
      </trkpt>
      <trkpt lat="42.45621" lon="2.32782">
        <ele>2258.27</ele>
        <time>2018-02-22T11:13:08Z</time>
      </trkpt>
      <trkpt lat="42.4562" lon="2.32785">
        <ele>2258.75</ele>
        <time>2018-02-22T11:13:22Z</time>
      </trkpt>
      <trkpt lat="42.45618" lon="2.32784">
        <ele>2258.75</ele>
        <time>2018-02-22T11:13:37Z</time>
      </trkpt>
      <trkpt lat="42.45617" lon="2.32785">
        <ele>2258.75</ele>
        <time>2018-02-22T11:14:05Z</time>
      </trkpt>
      <trkpt lat="42.45616" lon="2.32787">
        <ele>2258.75</ele>
        <time>2018-02-22T11:14:23Z</time>
      </trkpt>
      <trkpt lat="42.45609" lon="2.32793">
        <ele>2260.68</ele>
        <time>2018-02-22T11:14:41Z</time>
      </trkpt>
      <trkpt lat="42.45607" lon="2.32794">
        <ele>2260.68</ele>
        <time>2018-02-22T11:14:54Z</time>
      </trkpt>
      <trkpt lat="42.45606" lon="2.32794">
        <ele>2261.16</ele>
        <time>2018-02-22T11:15:09Z</time>
      </trkpt>
      <trkpt lat="42.45606" lon="2.32795">
        <ele>2261.16</ele>
        <time>2018-02-22T11:15:23Z</time>
      </trkpt>
      <trkpt lat="42.456" lon="2.32794">
        <ele>2261.16</ele>
        <time>2018-02-22T11:15:41Z</time>
      </trkpt>
      <trkpt lat="42.45599" lon="2.32795">
        <ele>2262.12</ele>
        <time>2018-02-22T11:15:56Z</time>
      </trkpt>
      <trkpt lat="42.45597" lon="2.32795">
        <ele>2262.12</ele>
        <time>2018-02-22T11:16:20Z</time>
      </trkpt>
      <trkpt lat="42.45593" lon="2.32802">
        <ele>2262.6</ele>
        <time>2018-02-22T11:16:27Z</time>
      </trkpt>
      <trkpt lat="42.45584" lon="2.3281">
        <ele>2263.56</ele>
        <time>2018-02-22T11:16:42Z</time>
      </trkpt>
      <trkpt lat="42.45574" lon="2.32818">
        <ele>2264.52</ele>
        <time>2018-02-22T11:16:58Z</time>
      </trkpt>
      <trkpt lat="42.45562" lon="2.32822">
        <ele>2266.45</ele>
        <time>2018-02-22T11:17:16Z</time>
      </trkpt>
      <trkpt lat="42.45554" lon="2.32823">
        <ele>2267.41</ele>
        <time>2018-02-22T11:17:31Z</time>
      </trkpt>
      <trkpt lat="42.45542" lon="2.32825">
        <ele>2268.85</ele>
        <time>2018-02-22T11:17:47Z</time>
      </trkpt>
      <trkpt lat="42.45536" lon="2.32827">
        <ele>2269.33</ele>
        <time>2018-02-22T11:18:05Z</time>
      </trkpt>
      <trkpt lat="42.45531" lon="2.32833">
        <ele>2270.29</ele>
        <time>2018-02-22T11:18:17Z</time>
      </trkpt>
      <trkpt lat="42.45527" lon="2.3284">
        <ele>2269.81</ele>
        <time>2018-02-22T11:18:31Z</time>
      </trkpt>
      <trkpt lat="42.45525" lon="2.3284">
        <ele>2269.81</ele>
        <time>2018-02-22T11:18:54Z</time>
      </trkpt>
      <trkpt lat="42.45518" lon="2.32843">
        <ele>2269.81</ele>
        <time>2018-02-22T11:19:14Z</time>
      </trkpt>
      <trkpt lat="42.45507" lon="2.32849">
        <ele>2269.81</ele>
        <time>2018-02-22T11:19:30Z</time>
      </trkpt>
      <trkpt lat="42.45495" lon="2.32856">
        <ele>2269.81</ele>
        <time>2018-02-22T11:19:48Z</time>
      </trkpt>
      <trkpt lat="42.45485" lon="2.32855">
        <ele>2271.25</ele>
        <time>2018-02-22T11:20:03Z</time>
      </trkpt>
      <trkpt lat="42.45471" lon="2.32856">
        <ele>2272.21</ele>
        <time>2018-02-22T11:20:25Z</time>
      </trkpt>
      <trkpt lat="42.45461" lon="2.32857">
        <ele>2272.21</ele>
        <time>2018-02-22T11:20:42Z</time>
      </trkpt>
      <trkpt lat="42.45452" lon="2.32855">
        <ele>2272.69</ele>
        <time>2018-02-22T11:20:56Z</time>
      </trkpt>
      <trkpt lat="42.4545" lon="2.32854">
        <ele>2273.17</ele>
        <time>2018-02-22T11:21:17Z</time>
      </trkpt>
      <trkpt lat="42.4544" lon="2.3285">
        <ele>2273.66</ele>
        <time>2018-02-22T11:21:32Z</time>
      </trkpt>
      <trkpt lat="42.45434" lon="2.32847">
        <ele>2275.1</ele>
        <time>2018-02-22T11:21:47Z</time>
      </trkpt>
      <trkpt lat="42.4543" lon="2.3284">
        <ele>2275.58</ele>
        <time>2018-02-22T11:22:02Z</time>
      </trkpt>
      <trkpt lat="42.45424" lon="2.32837">
        <ele>2276.54</ele>
        <time>2018-02-22T11:22:17Z</time>
      </trkpt>
      <trkpt lat="42.45419" lon="2.32831">
        <ele>2277.5</ele>
        <time>2018-02-22T11:22:31Z</time>
      </trkpt>
      <trkpt lat="42.45414" lon="2.32826">
        <ele>2278.46</ele>
        <time>2018-02-22T11:22:46Z</time>
      </trkpt>
      <trkpt lat="42.45409" lon="2.32824">
        <ele>2279.42</ele>
        <time>2018-02-22T11:23:01Z</time>
      </trkpt>
      <trkpt lat="42.45403" lon="2.32821">
        <ele>2280.38</ele>
        <time>2018-02-22T11:23:16Z</time>
      </trkpt>
      <trkpt lat="42.45397" lon="2.32817">
        <ele>2282.31</ele>
        <time>2018-02-22T11:23:33Z</time>
      </trkpt>
      <trkpt lat="42.45392" lon="2.32816">
        <ele>2283.27</ele>
        <time>2018-02-22T11:23:47Z</time>
      </trkpt>
      <trkpt lat="42.45386" lon="2.32813">
        <ele>2283.75</ele>
        <time>2018-02-22T11:24:01Z</time>
      </trkpt>
      <trkpt lat="42.45379" lon="2.32812">
        <ele>2284.23</ele>
        <time>2018-02-22T11:24:16Z</time>
      </trkpt>
      <trkpt lat="42.45376" lon="2.32808">
        <ele>2284.71</ele>
        <time>2018-02-22T11:24:40Z</time>
      </trkpt>
      <trkpt lat="42.45372" lon="2.32804">
        <ele>2285.19</ele>
        <time>2018-02-22T11:24:55Z</time>
      </trkpt>
      <trkpt lat="42.45368" lon="2.32801">
        <ele>2286.15</ele>
        <time>2018-02-22T11:25:08Z</time>
      </trkpt>
      <trkpt lat="42.45365" lon="2.32798">
        <ele>2287.11</ele>
        <time>2018-02-22T11:25:21Z</time>
      </trkpt>
      <trkpt lat="42.45362" lon="2.32791">
        <ele>2289.04</ele>
        <time>2018-02-22T11:25:37Z</time>
      </trkpt>
      <trkpt lat="42.45358" lon="2.32786">
        <ele>2290</ele>
        <time>2018-02-22T11:25:52Z</time>
      </trkpt>
      <trkpt lat="42.45354" lon="2.32781">
        <ele>2291.44</ele>
        <time>2018-02-22T11:26:06Z</time>
      </trkpt>
      <trkpt lat="42.4535" lon="2.32778">
        <ele>2291.92</ele>
        <time>2018-02-22T11:26:19Z</time>
      </trkpt>
      <trkpt lat="42.4535" lon="2.32776">
        <ele>2291.92</ele>
        <time>2018-02-22T11:26:46Z</time>
      </trkpt>
      <trkpt lat="42.45348" lon="2.32774">
        <ele>2291.92</ele>
        <time>2018-02-22T11:27:07Z</time>
      </trkpt>
      <trkpt lat="42.45345" lon="2.32768">
        <ele>2293.36</ele>
        <time>2018-02-22T11:27:22Z</time>
      </trkpt>
      <trkpt lat="42.45342" lon="2.32763">
        <ele>2294.8</ele>
        <time>2018-02-22T11:27:39Z</time>
      </trkpt>
      <trkpt lat="42.4534" lon="2.32759">
        <ele>2295.77</ele>
        <time>2018-02-22T11:27:53Z</time>
      </trkpt>
      <trkpt lat="42.45338" lon="2.32753">
        <ele>2296.73</ele>
        <time>2018-02-22T11:28:08Z</time>
      </trkpt>
      <trkpt lat="42.45335" lon="2.32746">
        <ele>2298.65</ele>
        <time>2018-02-22T11:28:24Z</time>
      </trkpt>
      <trkpt lat="42.45333" lon="2.32741">
        <ele>2299.13</ele>
        <time>2018-02-22T11:28:39Z</time>
      </trkpt>
      <trkpt lat="42.45331" lon="2.32737">
        <ele>2301.05</ele>
        <time>2018-02-22T11:28:54Z</time>
      </trkpt>
      <trkpt lat="42.45328" lon="2.32731">
        <ele>2301.53</ele>
        <time>2018-02-22T11:29:08Z</time>
      </trkpt>
      <trkpt lat="42.45327" lon="2.32727">
        <ele>2302.01</ele>
        <time>2018-02-22T11:29:21Z</time>
      </trkpt>
      <trkpt lat="42.45327" lon="2.3272">
        <ele>2302.98</ele>
        <time>2018-02-22T11:29:35Z</time>
      </trkpt>
      <trkpt lat="42.4533" lon="2.3271">
        <ele>2304.9</ele>
        <time>2018-02-22T11:29:51Z</time>
      </trkpt>
      <trkpt lat="42.45323" lon="2.32709">
        <ele>2306.34</ele>
        <time>2018-02-22T11:30:08Z</time>
      </trkpt>
      <trkpt lat="42.45321" lon="2.32702">
        <ele>2307.3</ele>
        <time>2018-02-22T11:30:21Z</time>
      </trkpt>
      <trkpt lat="42.4532" lon="2.32695">
        <ele>2308.26</ele>
        <time>2018-02-22T11:30:34Z</time>
      </trkpt>
      <trkpt lat="42.45319" lon="2.3269">
        <ele>2309.7</ele>
        <time>2018-02-22T11:30:49Z</time>
      </trkpt>
      <trkpt lat="42.45318" lon="2.32683">
        <ele>2310.19</ele>
        <time>2018-02-22T11:31:03Z</time>
      </trkpt>
      <trkpt lat="42.45317" lon="2.32677">
        <ele>2311.15</ele>
        <time>2018-02-22T11:31:17Z</time>
      </trkpt>
      <trkpt lat="42.45315" lon="2.32672">
        <ele>2312.59</ele>
        <time>2018-02-22T11:31:31Z</time>
      </trkpt>
      <trkpt lat="42.45313" lon="2.32668">
        <ele>2314.03</ele>
        <time>2018-02-22T11:31:45Z</time>
      </trkpt>
      <trkpt lat="42.45311" lon="2.32664">
        <ele>2314.99</ele>
        <time>2018-02-22T11:31:58Z</time>
      </trkpt>
      <trkpt lat="42.45309" lon="2.32659">
        <ele>2315.47</ele>
        <time>2018-02-22T11:32:12Z</time>
      </trkpt>
      <trkpt lat="42.45305" lon="2.32654">
        <ele>2316.91</ele>
        <time>2018-02-22T11:32:28Z</time>
      </trkpt>
      <trkpt lat="42.45302" lon="2.32648">
        <ele>2318.36</ele>
        <time>2018-02-22T11:32:42Z</time>
      </trkpt>
      <trkpt lat="42.45299" lon="2.32644">
        <ele>2319.32</ele>
        <time>2018-02-22T11:32:56Z</time>
      </trkpt>
      <trkpt lat="42.45294" lon="2.32639">
        <ele>2320.28</ele>
        <time>2018-02-22T11:33:10Z</time>
      </trkpt>
      <trkpt lat="42.45289" lon="2.32634">
        <ele>2321.72</ele>
        <time>2018-02-22T11:33:26Z</time>
      </trkpt>
      <trkpt lat="42.45284" lon="2.3263">
        <ele>2323.64</ele>
        <time>2018-02-22T11:33:41Z</time>
      </trkpt>
      <trkpt lat="42.45278" lon="2.32627">
        <ele>2325.09</ele>
        <time>2018-02-22T11:33:56Z</time>
      </trkpt>
      <trkpt lat="42.45273" lon="2.32625">
        <ele>2326.05</ele>
        <time>2018-02-22T11:34:11Z</time>
      </trkpt>
      <trkpt lat="42.45268" lon="2.32621">
        <ele>2327.49</ele>
        <time>2018-02-22T11:34:26Z</time>
      </trkpt>
      <trkpt lat="42.45264" lon="2.32619">
        <ele>2328.93</ele>
        <time>2018-02-22T11:34:41Z</time>
      </trkpt>
      <trkpt lat="42.45259" lon="2.32617">
        <ele>2329.41</ele>
        <time>2018-02-22T11:34:55Z</time>
      </trkpt>
      <trkpt lat="42.45253" lon="2.32614">
        <ele>2331.81</ele>
        <time>2018-02-22T11:35:11Z</time>
      </trkpt>
      <trkpt lat="42.45249" lon="2.3261">
        <ele>2332.3</ele>
        <time>2018-02-22T11:35:25Z</time>
      </trkpt>
      <trkpt lat="42.45246" lon="2.32604">
        <ele>2333.74</ele>
        <time>2018-02-22T11:35:40Z</time>
      </trkpt>
      <trkpt lat="42.45241" lon="2.326">
        <ele>2334.7</ele>
        <time>2018-02-22T11:35:56Z</time>
      </trkpt>
      <trkpt lat="42.4524" lon="2.32598">
        <ele>2335.18</ele>
        <time>2018-02-22T11:36:12Z</time>
      </trkpt>
      <trkpt lat="42.4524" lon="2.32598">
        <ele>2332.3</ele>
        <time>2018-02-22T11:36:17Z</time>
      </trkpt>
      <trkpt lat="42.4524" lon="2.32598">
        <ele>2334.22</ele>
        <time>2018-02-22T11:36:19Z</time>
      </trkpt>
      <trkpt lat="42.45241" lon="2.32598">
        <ele>2338.06</ele>
        <time>2018-02-22T11:36:22Z</time>
      </trkpt>
      <trkpt lat="42.45237" lon="2.32593">
        <ele>2335.18</ele>
        <time>2018-02-22T11:36:46Z</time>
      </trkpt>
      <trkpt lat="42.45236" lon="2.3259">
        <ele>2335.18</ele>
        <time>2018-02-22T11:37:01Z</time>
      </trkpt>
      <trkpt lat="42.45235" lon="2.32588">
        <ele>2336.62</ele>
        <time>2018-02-22T11:37:04Z</time>
      </trkpt>
      <trkpt lat="42.45233" lon="2.3258">
        <ele>2337.1</ele>
        <time>2018-02-22T11:37:21Z</time>
      </trkpt>
      <trkpt lat="42.45233" lon="2.32573">
        <ele>2338.06</ele>
        <time>2018-02-22T11:37:35Z</time>
      </trkpt>
      <trkpt lat="42.45234" lon="2.32568">
        <ele>2339.51</ele>
        <time>2018-02-22T11:37:47Z</time>
      </trkpt>
      <trkpt lat="42.45235" lon="2.32563">
        <ele>2340.47</ele>
        <time>2018-02-22T11:38:02Z</time>
      </trkpt>
      <trkpt lat="42.45236" lon="2.32561">
        <ele>2340.95</ele>
        <time>2018-02-22T11:38:20Z</time>
      </trkpt>
      <trkpt lat="42.45239" lon="2.32559">
        <ele>2341.91</ele>
        <time>2018-02-22T11:38:33Z</time>
      </trkpt>
      <trkpt lat="42.45241" lon="2.32555">
        <ele>2342.39</ele>
        <time>2018-02-22T11:38:49Z</time>
      </trkpt>
      <trkpt lat="42.45244" lon="2.32551">
        <ele>2342.87</ele>
        <time>2018-02-22T11:39:02Z</time>
      </trkpt>
      <trkpt lat="42.45244" lon="2.32547">
        <ele>2344.79</ele>
        <time>2018-02-22T11:39:12Z</time>
      </trkpt>
      <trkpt lat="42.45243" lon="2.32545">
        <ele>2345.75</ele>
        <time>2018-02-22T11:39:22Z</time>
      </trkpt>
      <trkpt lat="42.45243" lon="2.32545">
        <ele>2345.27</ele>
        <time>2018-02-22T11:39:41Z</time>
      </trkpt>
      <trkpt lat="42.45243" lon="2.32547">
        <ele>2345.75</ele>
        <time>2018-02-22T11:40:03Z</time>
      </trkpt>
      <trkpt lat="42.45244" lon="2.32546">
        <ele>2345.75</ele>
        <time>2018-02-22T11:40:25Z</time>
      </trkpt>
      <trkpt lat="42.45244" lon="2.32546">
        <ele>2344.31</ele>
        <time>2018-02-22T11:40:32Z</time>
      </trkpt>
      <trkpt lat="42.45244" lon="2.32545">
        <ele>2343.83</ele>
        <time>2018-02-22T11:40:56Z</time>
      </trkpt>
      <trkpt lat="42.45245" lon="2.32548">
        <ele>2344.79</ele>
        <time>2018-02-22T11:41:16Z</time>
      </trkpt>
      <trkpt lat="42.45243" lon="2.32549">
        <ele>2345.27</ele>
        <time>2018-02-22T11:41:37Z</time>
      </trkpt>
      <trkpt lat="42.45243" lon="2.32549">
        <ele>2344.31</ele>
        <time>2018-02-22T11:41:53Z</time>
      </trkpt>
      <trkpt lat="42.45242" lon="2.32547">
        <ele>2343.35</ele>
        <time>2018-02-22T11:42:07Z</time>
      </trkpt>
      <trkpt lat="42.45241" lon="2.32547">
        <ele>2342.87</ele>
        <time>2018-02-22T11:42:43Z</time>
      </trkpt>
      <trkpt lat="42.45241" lon="2.32546">
        <ele>2342.39</ele>
        <time>2018-02-22T11:43:13Z</time>
      </trkpt>
      <trkpt lat="42.45241" lon="2.32547">
        <ele>2342.39</ele>
        <time>2018-02-22T11:43:43Z</time>
      </trkpt>
      <trkpt lat="42.4524" lon="2.32547">
        <ele>2341.91</ele>
        <time>2018-02-22T11:44:27Z</time>
      </trkpt>
      <trkpt lat="42.45242" lon="2.32548">
        <ele>2341.43</ele>
        <time>2018-02-22T11:44:46Z</time>
      </trkpt>
      <trkpt lat="42.45242" lon="2.32552">
        <ele>2340.47</ele>
        <time>2018-02-22T11:44:56Z</time>
      </trkpt>
      <trkpt lat="42.45242" lon="2.32555">
        <ele>2339.51</ele>
        <time>2018-02-22T11:45:09Z</time>
      </trkpt>
      <trkpt lat="42.45241" lon="2.32557">
        <ele>2339.02</ele>
        <time>2018-02-22T11:45:20Z</time>
      </trkpt>
      <trkpt lat="42.4524" lon="2.32556">
        <ele>2338.54</ele>
        <time>2018-02-22T11:46:08Z</time>
      </trkpt>
      <trkpt lat="42.45241" lon="2.32558">
        <ele>2338.54</ele>
        <time>2018-02-22T11:46:49Z</time>
      </trkpt>
      <trkpt lat="42.45241" lon="2.32557">
        <ele>2338.54</ele>
        <time>2018-02-22T11:47:28Z</time>
      </trkpt>
      <trkpt lat="42.4524" lon="2.32558">
        <ele>2338.06</ele>
        <time>2018-02-22T11:48:11Z</time>
      </trkpt>
      <trkpt lat="42.4524" lon="2.32556">
        <ele>2338.06</ele>
        <time>2018-02-22T11:49:02Z</time>
      </trkpt>
      <trkpt lat="42.4524" lon="2.32556">
        <ele>2337.58</ele>
        <time>2018-02-22T11:49:38Z</time>
      </trkpt>
      <trkpt lat="42.45239" lon="2.32556">
        <ele>2337.58</ele>
        <time>2018-02-22T11:50:27Z</time>
      </trkpt>
      <trkpt lat="42.4524" lon="2.32558">
        <ele>2338.54</ele>
        <time>2018-02-22T11:51:22Z</time>
      </trkpt>
      <trkpt lat="42.45239" lon="2.32558">
        <ele>2338.06</ele>
        <time>2018-02-22T11:52:23Z</time>
      </trkpt>
      <trkpt lat="42.4524" lon="2.32557">
        <ele>2338.06</ele>
        <time>2018-02-22T11:53:28Z</time>
      </trkpt>
      <trkpt lat="42.45242" lon="2.32558">
        <ele>2338.54</ele>
        <time>2018-02-22T11:54:19Z</time>
      </trkpt>
      <trkpt lat="42.45242" lon="2.32559">
        <ele>2338.54</ele>
        <time>2018-02-22T11:55:04Z</time>
      </trkpt>
      <trkpt lat="42.45242" lon="2.32561">
        <ele>2339.02</ele>
        <time>2018-02-22T11:55:57Z</time>
      </trkpt>
      <trkpt lat="42.45241" lon="2.32564">
        <ele>2339.02</ele>
        <time>2018-02-22T11:56:49Z</time>
      </trkpt>
      <trkpt lat="42.45241" lon="2.32566">
        <ele>2339.99</ele>
        <time>2018-02-22T11:57:51Z</time>
      </trkpt>
      <trkpt lat="42.45241" lon="2.32568">
        <ele>2340.95</ele>
        <time>2018-02-22T11:58:44Z</time>
      </trkpt>
      <trkpt lat="42.45238" lon="2.32566">
        <ele>2341.43</ele>
        <time>2018-02-22T11:59:43Z</time>
      </trkpt>
      <trkpt lat="42.45239" lon="2.32568">
        <ele>2341.43</ele>
        <time>2018-02-22T12:00:19Z</time>
      </trkpt>
      <trkpt lat="42.45237" lon="2.32566">
        <ele>2342.39</ele>
        <time>2018-02-22T12:01:03Z</time>
      </trkpt>
      <trkpt lat="42.45236" lon="2.32566">
        <ele>2342.87</ele>
        <time>2018-02-22T12:01:47Z</time>
      </trkpt>
      <trkpt lat="42.45237" lon="2.32566">
        <ele>2342.87</ele>
        <time>2018-02-22T12:02:21Z</time>
      </trkpt>
      <trkpt lat="42.45237" lon="2.32563">
        <ele>2343.35</ele>
        <time>2018-02-22T12:02:59Z</time>
      </trkpt>
      <trkpt lat="42.45237" lon="2.32561">
        <ele>2343.35</ele>
        <time>2018-02-22T12:03:26Z</time>
      </trkpt>
      <trkpt lat="42.45238" lon="2.3256">
        <ele>2343.35</ele>
        <time>2018-02-22T12:04:05Z</time>
      </trkpt>
      <trkpt lat="42.45238" lon="2.32558">
        <ele>2343.83</ele>
        <time>2018-02-22T12:04:56Z</time>
      </trkpt>
      <trkpt lat="42.45237" lon="2.32555">
        <ele>2344.31</ele>
        <time>2018-02-22T12:05:40Z</time>
      </trkpt>
      <trkpt lat="42.45236" lon="2.32554">
        <ele>2344.79</ele>
        <time>2018-02-22T12:06:12Z</time>
      </trkpt>
      <trkpt lat="42.45237" lon="2.32555">
        <ele>2344.79</ele>
        <time>2018-02-22T12:07:02Z</time>
      </trkpt>
      <trkpt lat="42.45241" lon="2.32557">
        <ele>2344.79</ele>
        <time>2018-02-22T12:07:45Z</time>
      </trkpt>
      <trkpt lat="42.45243" lon="2.32558">
        <ele>2344.79</ele>
        <time>2018-02-22T12:08:24Z</time>
      </trkpt>
      <trkpt lat="42.45244" lon="2.32555">
        <ele>2344.79</ele>
        <time>2018-02-22T12:09:08Z</time>
      </trkpt>
      <trkpt lat="42.45244" lon="2.32554">
        <ele>2344.31</ele>
        <time>2018-02-22T12:09:56Z</time>
      </trkpt>
      <trkpt lat="42.45245" lon="2.32554">
        <ele>2344.31</ele>
        <time>2018-02-22T12:10:37Z</time>
      </trkpt>
      <trkpt lat="42.45243" lon="2.32553">
        <ele>2343.83</ele>
        <time>2018-02-22T12:11:22Z</time>
      </trkpt>
      <trkpt lat="42.45242" lon="2.32555">
        <ele>2344.31</ele>
        <time>2018-02-22T12:12:05Z</time>
      </trkpt>
      <trkpt lat="42.45241" lon="2.32556">
        <ele>2343.83</ele>
        <time>2018-02-22T12:12:55Z</time>
      </trkpt>
      <trkpt lat="42.45241" lon="2.32557">
        <ele>2342.87</ele>
        <time>2018-02-22T12:13:29Z</time>
      </trkpt>
      <trkpt lat="42.45241" lon="2.32557">
        <ele>2342.87</ele>
        <time>2018-02-22T12:14:10Z</time>
      </trkpt>
      <trkpt lat="42.45241" lon="2.32557">
        <ele>2342.87</ele>
        <time>2018-02-22T12:14:39Z</time>
      </trkpt>
      <trkpt lat="42.45242" lon="2.32557">
        <ele>2343.83</ele>
        <time>2018-02-22T12:15:20Z</time>
      </trkpt>
      <trkpt lat="42.45241" lon="2.32557">
        <ele>2344.31</ele>
        <time>2018-02-22T12:15:56Z</time>
      </trkpt>
      <trkpt lat="42.45241" lon="2.32558">
        <ele>2343.83</ele>
        <time>2018-02-22T12:16:37Z</time>
      </trkpt>
      <trkpt lat="42.45242" lon="2.32557">
        <ele>2344.31</ele>
        <time>2018-02-22T12:17:12Z</time>
      </trkpt>
      <trkpt lat="42.45242" lon="2.32557">
        <ele>2344.31</ele>
        <time>2018-02-22T12:17:40Z</time>
      </trkpt>
      <trkpt lat="42.45243" lon="2.32556">
        <ele>2344.79</ele>
        <time>2018-02-22T12:18:08Z</time>
      </trkpt>
      <trkpt lat="42.45244" lon="2.32555">
        <ele>2344.79</ele>
        <time>2018-02-22T12:18:46Z</time>
      </trkpt>
      <trkpt lat="42.45244" lon="2.32556">
        <ele>2344.79</ele>
        <time>2018-02-22T12:19:22Z</time>
      </trkpt>
      <trkpt lat="42.45242" lon="2.32559">
        <ele>2344.79</ele>
        <time>2018-02-22T12:19:34Z</time>
      </trkpt>
      <trkpt lat="42.45242" lon="2.32557">
        <ele>2345.27</ele>
        <time>2018-02-22T12:19:48Z</time>
      </trkpt>
      <trkpt lat="42.45241" lon="2.32556">
        <ele>2345.27</ele>
        <time>2018-02-22T12:20:14Z</time>
      </trkpt>
      <trkpt lat="42.45242" lon="2.32556">
        <ele>2345.27</ele>
        <time>2018-02-22T12:20:34Z</time>
      </trkpt>
      <trkpt lat="42.45241" lon="2.32553">
        <ele>2344.79</ele>
        <time>2018-02-22T12:20:51Z</time>
      </trkpt>
      <trkpt lat="42.4524" lon="2.32554">
        <ele>2344.79</ele>
        <time>2018-02-22T12:21:07Z</time>
      </trkpt>
      <trkpt lat="42.4524" lon="2.32557">
        <ele>2344.31</ele>
        <time>2018-02-22T12:21:31Z</time>
      </trkpt>
      <trkpt lat="42.45238" lon="2.32556">
        <ele>2343.83</ele>
        <time>2018-02-22T12:21:56Z</time>
      </trkpt>
      <trkpt lat="42.45241" lon="2.32557">
        <ele>2342.87</ele>
        <time>2018-02-22T12:22:20Z</time>
      </trkpt>
      <trkpt lat="42.45237" lon="2.32557">
        <ele>2342.87</ele>
        <time>2018-02-22T12:22:46Z</time>
      </trkpt>
      <trkpt lat="42.45237" lon="2.32558">
        <ele>2342.39</ele>
        <time>2018-02-22T12:23:13Z</time>
      </trkpt>
      <trkpt lat="42.45237" lon="2.32553">
        <ele>2342.39</ele>
        <time>2018-02-22T12:23:43Z</time>
      </trkpt>
      <trkpt lat="42.45238" lon="2.32553">
        <ele>2341.91</ele>
        <time>2018-02-22T12:24:05Z</time>
      </trkpt>
      <trkpt lat="42.45237" lon="2.32558">
        <ele>2341.43</ele>
        <time>2018-02-22T12:24:33Z</time>
      </trkpt>
      <trkpt lat="42.45237" lon="2.32559">
        <ele>2340.95</ele>
        <time>2018-02-22T12:25:06Z</time>
      </trkpt>
      <trkpt lat="42.45238" lon="2.32556">
        <ele>2340.47</ele>
        <time>2018-02-22T12:25:36Z</time>
      </trkpt>
      <trkpt lat="42.45235" lon="2.3256">
        <ele>2338.06</ele>
        <time>2018-02-22T12:25:55Z</time>
      </trkpt>
      <trkpt lat="42.45225" lon="2.32567">
        <ele>2335.18</ele>
        <time>2018-02-22T12:26:08Z</time>
      </trkpt>
      <trkpt lat="42.45215" lon="2.32575">
        <ele>2333.26</ele>
        <time>2018-02-22T12:26:22Z</time>
      </trkpt>
      <trkpt lat="42.45202" lon="2.32579">
        <ele>2331.81</ele>
        <time>2018-02-22T12:26:37Z</time>
      </trkpt>
      <trkpt lat="42.4519" lon="2.32583">
        <ele>2330.85</ele>
        <time>2018-02-22T12:26:53Z</time>
      </trkpt>
      <trkpt lat="42.45185" lon="2.32583">
        <ele>2330.85</ele>
        <time>2018-02-22T12:26:59Z</time>
      </trkpt>
      <trkpt lat="42.45179" lon="2.32585">
        <ele>2330.85</ele>
        <time>2018-02-22T12:27:05Z</time>
      </trkpt>
      <trkpt lat="42.45167" lon="2.32584">
        <ele>2330.37</ele>
        <time>2018-02-22T12:27:20Z</time>
      </trkpt>
      <trkpt lat="42.45155" lon="2.32582">
        <ele>2328.93</ele>
        <time>2018-02-22T12:27:36Z</time>
      </trkpt>
      <trkpt lat="42.45141" lon="2.32577">
        <ele>2328.45</ele>
        <time>2018-02-22T12:27:53Z</time>
      </trkpt>
      <trkpt lat="42.45128" lon="2.32577">
        <ele>2327.97</ele>
        <time>2018-02-22T12:28:08Z</time>
      </trkpt>
      <trkpt lat="42.45115" lon="2.32578">
        <ele>2327.01</ele>
        <time>2018-02-22T12:28:23Z</time>
      </trkpt>
      <trkpt lat="42.45103" lon="2.32575">
        <ele>2327.01</ele>
        <time>2018-02-22T12:28:38Z</time>
      </trkpt>
      <trkpt lat="42.45091" lon="2.32574">
        <ele>2327.01</ele>
        <time>2018-02-22T12:28:53Z</time>
      </trkpt>
      <trkpt lat="42.45087" lon="2.32573">
        <ele>2327.01</ele>
        <time>2018-02-22T12:28:58Z</time>
      </trkpt>
      <trkpt lat="42.45074" lon="2.32568">
        <ele>2326.53</ele>
        <time>2018-02-22T12:29:14Z</time>
      </trkpt>
      <trkpt lat="42.45061" lon="2.32564">
        <ele>2326.53</ele>
        <time>2018-02-22T12:29:30Z</time>
      </trkpt>
      <trkpt lat="42.45051" lon="2.32561">
        <ele>2326.53</ele>
        <time>2018-02-22T12:29:44Z</time>
      </trkpt>
      <trkpt lat="42.4504" lon="2.32557">
        <ele>2327.97</ele>
        <time>2018-02-22T12:29:58Z</time>
      </trkpt>
      <trkpt lat="42.45036" lon="2.32553">
        <ele>2328.93</ele>
        <time>2018-02-22T12:30:10Z</time>
      </trkpt>
      <trkpt lat="42.45032" lon="2.32551">
        <ele>2328.93</ele>
        <time>2018-02-22T12:30:26Z</time>
      </trkpt>
      <trkpt lat="42.45023" lon="2.32543">
        <ele>2330.37</ele>
        <time>2018-02-22T12:30:40Z</time>
      </trkpt>
      <trkpt lat="42.45015" lon="2.32541">
        <ele>2331.81</ele>
        <time>2018-02-22T12:30:56Z</time>
      </trkpt>
      <trkpt lat="42.45009" lon="2.32538">
        <ele>2332.78</ele>
        <time>2018-02-22T12:31:17Z</time>
      </trkpt>
      <trkpt lat="42.45" lon="2.32532">
        <ele>2334.7</ele>
        <time>2018-02-22T12:31:34Z</time>
      </trkpt>
      <trkpt lat="42.44992" lon="2.32526">
        <ele>2336.14</ele>
        <time>2018-02-22T12:31:49Z</time>
      </trkpt>
      <trkpt lat="42.44984" lon="2.32522">
        <ele>2338.54</ele>
        <time>2018-02-22T12:32:05Z</time>
      </trkpt>
      <trkpt lat="42.44978" lon="2.32517">
        <ele>2340.47</ele>
        <time>2018-02-22T12:32:20Z</time>
      </trkpt>
      <trkpt lat="42.44972" lon="2.32514">
        <ele>2341.91</ele>
        <time>2018-02-22T12:32:34Z</time>
      </trkpt>
      <trkpt lat="42.44968" lon="2.32511">
        <ele>2343.83</ele>
        <time>2018-02-22T12:32:49Z</time>
      </trkpt>
      <trkpt lat="42.44964" lon="2.32509">
        <ele>2344.79</ele>
        <time>2018-02-22T12:33:05Z</time>
      </trkpt>
      <trkpt lat="42.44956" lon="2.32504">
        <ele>2347.2</ele>
        <time>2018-02-22T12:33:21Z</time>
      </trkpt>
      <trkpt lat="42.4495" lon="2.325">
        <ele>2349.6</ele>
        <time>2018-02-22T12:33:37Z</time>
      </trkpt>
      <trkpt lat="42.44946" lon="2.32496">
        <ele>2351.52</ele>
        <time>2018-02-22T12:33:51Z</time>
      </trkpt>
      <trkpt lat="42.44942" lon="2.32489">
        <ele>2353.44</ele>
        <time>2018-02-22T12:34:05Z</time>
      </trkpt>
      <trkpt lat="42.44936" lon="2.3249">
        <ele>2354.89</ele>
        <time>2018-02-22T12:34:18Z</time>
      </trkpt>
      <trkpt lat="42.4493" lon="2.32483">
        <ele>2356.81</ele>
        <time>2018-02-22T12:34:34Z</time>
      </trkpt>
      <trkpt lat="42.44927" lon="2.32478">
        <ele>2358.73</ele>
        <time>2018-02-22T12:34:51Z</time>
      </trkpt>
      <trkpt lat="42.4492" lon="2.32481">
        <ele>2360.17</ele>
        <time>2018-02-22T12:35:06Z</time>
      </trkpt>
      <trkpt lat="42.44919" lon="2.3248">
        <ele>2360.65</ele>
        <time>2018-02-22T12:35:29Z</time>
      </trkpt>
      <trkpt lat="42.44913" lon="2.3248">
        <ele>2362.1</ele>
        <time>2018-02-22T12:35:43Z</time>
      </trkpt>
      <trkpt lat="42.44908" lon="2.32478">
        <ele>2363.06</ele>
        <time>2018-02-22T12:36:02Z</time>
      </trkpt>
      <trkpt lat="42.44907" lon="2.32478">
        <ele>2363.06</ele>
        <time>2018-02-22T12:36:30Z</time>
      </trkpt>
      <trkpt lat="42.44906" lon="2.32474">
        <ele>2364.5</ele>
        <time>2018-02-22T12:36:44Z</time>
      </trkpt>
      <trkpt lat="42.449" lon="2.32469">
        <ele>2366.42</ele>
        <time>2018-02-22T12:36:59Z</time>
      </trkpt>
      <trkpt lat="42.44894" lon="2.32465">
        <ele>2368.35</ele>
        <time>2018-02-22T12:37:15Z</time>
      </trkpt>
      <trkpt lat="42.44889" lon="2.3246">
        <ele>2370.27</ele>
        <time>2018-02-22T12:37:28Z</time>
      </trkpt>
      <trkpt lat="42.44884" lon="2.32453">
        <ele>2371.71</ele>
        <time>2018-02-22T12:37:44Z</time>
      </trkpt>
      <trkpt lat="42.44878" lon="2.32449">
        <ele>2373.63</ele>
        <time>2018-02-22T12:38:00Z</time>
      </trkpt>
      <trkpt lat="42.44873" lon="2.32445">
        <ele>2375.55</ele>
        <time>2018-02-22T12:38:14Z</time>
      </trkpt>
      <trkpt lat="42.44866" lon="2.3244">
        <ele>2377</ele>
        <time>2018-02-22T12:38:30Z</time>
      </trkpt>
      <trkpt lat="42.44863" lon="2.32435">
        <ele>2378.44</ele>
        <time>2018-02-22T12:38:46Z</time>
      </trkpt>
      <trkpt lat="42.44863" lon="2.32434">
        <ele>2378.44</ele>
        <time>2018-02-22T12:39:15Z</time>
      </trkpt>
      <trkpt lat="42.44858" lon="2.32433">
        <ele>2378.92</ele>
        <time>2018-02-22T12:39:36Z</time>
      </trkpt>
      <trkpt lat="42.44851" lon="2.32428">
        <ele>2380.84</ele>
        <time>2018-02-22T12:39:49Z</time>
      </trkpt>
      <trkpt lat="42.44846" lon="2.32425">
        <ele>2382.28</ele>
        <time>2018-02-22T12:40:04Z</time>
      </trkpt>
      <trkpt lat="42.44839" lon="2.32424">
        <ele>2383.73</ele>
        <time>2018-02-22T12:40:17Z</time>
      </trkpt>
      <trkpt lat="42.44832" lon="2.3242">
        <ele>2385.65</ele>
        <time>2018-02-22T12:40:34Z</time>
      </trkpt>
      <trkpt lat="42.44825" lon="2.32415">
        <ele>2387.57</ele>
        <time>2018-02-22T12:40:51Z</time>
      </trkpt>
      <trkpt lat="42.44817" lon="2.32411">
        <ele>2388.53</ele>
        <time>2018-02-22T12:41:06Z</time>
      </trkpt>
      <trkpt lat="42.4481" lon="2.32408">
        <ele>2390.46</ele>
        <time>2018-02-22T12:41:23Z</time>
      </trkpt>
      <trkpt lat="42.44804" lon="2.32406">
        <ele>2391.9</ele>
        <time>2018-02-22T12:41:36Z</time>
      </trkpt>
      <trkpt lat="42.44797" lon="2.32405">
        <ele>2393.34</ele>
        <time>2018-02-22T12:41:50Z</time>
      </trkpt>
      <trkpt lat="42.44791" lon="2.32401">
        <ele>2394.78</ele>
        <time>2018-02-22T12:42:05Z</time>
      </trkpt>
      <trkpt lat="42.44785" lon="2.324">
        <ele>2396.22</ele>
        <time>2018-02-22T12:42:19Z</time>
      </trkpt>
      <trkpt lat="42.44778" lon="2.32397">
        <ele>2397.67</ele>
        <time>2018-02-22T12:42:35Z</time>
      </trkpt>
      <trkpt lat="42.44773" lon="2.32396">
        <ele>2399.59</ele>
        <time>2018-02-22T12:42:49Z</time>
      </trkpt>
      <trkpt lat="42.44768" lon="2.32395">
        <ele>2401.99</ele>
        <time>2018-02-22T12:43:05Z</time>
      </trkpt>
      <trkpt lat="42.44764" lon="2.32393">
        <ele>2402.95</ele>
        <time>2018-02-22T12:43:17Z</time>
      </trkpt>
      <trkpt lat="42.4476" lon="2.32392">
        <ele>2404.39</ele>
        <time>2018-02-22T12:43:31Z</time>
      </trkpt>
      <trkpt lat="42.44757" lon="2.32392">
        <ele>2406.8</ele>
        <time>2018-02-22T12:43:44Z</time>
      </trkpt>
      <trkpt lat="42.44754" lon="2.32391">
        <ele>2406.8</ele>
        <time>2018-02-22T12:44:04Z</time>
      </trkpt>
      <trkpt lat="42.44751" lon="2.32389">
        <ele>2408.72</ele>
        <time>2018-02-22T12:44:17Z</time>
      </trkpt>
      <trkpt lat="42.44746" lon="2.32386">
        <ele>2410.64</ele>
        <time>2018-02-22T12:44:30Z</time>
      </trkpt>
      <trkpt lat="42.4474" lon="2.32382">
        <ele>2412.09</ele>
        <time>2018-02-22T12:44:44Z</time>
      </trkpt>
      <trkpt lat="42.44736" lon="2.32378">
        <ele>2414.49</ele>
        <time>2018-02-22T12:44:58Z</time>
      </trkpt>
      <trkpt lat="42.44731" lon="2.32373">
        <ele>2416.41</ele>
        <time>2018-02-22T12:45:12Z</time>
      </trkpt>
      <trkpt lat="42.44727" lon="2.32374">
        <ele>2417.85</ele>
        <time>2018-02-22T12:45:24Z</time>
      </trkpt>
      <trkpt lat="42.44723" lon="2.32374">
        <ele>2419.3</ele>
        <time>2018-02-22T12:45:37Z</time>
      </trkpt>
      <trkpt lat="42.44718" lon="2.32374">
        <ele>2421.22</ele>
        <time>2018-02-22T12:45:50Z</time>
      </trkpt>
      <trkpt lat="42.44712" lon="2.3237">
        <ele>2422.66</ele>
        <time>2018-02-22T12:46:04Z</time>
      </trkpt>
      <trkpt lat="42.4471" lon="2.32368">
        <ele>2423.62</ele>
        <time>2018-02-22T12:46:22Z</time>
      </trkpt>
      <trkpt lat="42.44706" lon="2.3237">
        <ele>2425.06</ele>
        <time>2018-02-22T12:46:40Z</time>
      </trkpt>
      <trkpt lat="42.447" lon="2.3237">
        <ele>2427.47</ele>
        <time>2018-02-22T12:46:53Z</time>
      </trkpt>
      <trkpt lat="42.44693" lon="2.32372">
        <ele>2428.91</ele>
        <time>2018-02-22T12:47:06Z</time>
      </trkpt>
      <trkpt lat="42.44688" lon="2.32376">
        <ele>2430.83</ele>
        <time>2018-02-22T12:47:19Z</time>
      </trkpt>
      <trkpt lat="42.44683" lon="2.32379">
        <ele>2433.23</ele>
        <time>2018-02-22T12:47:34Z</time>
      </trkpt>
      <trkpt lat="42.44676" lon="2.32382">
        <ele>2434.68</ele>
        <time>2018-02-22T12:47:49Z</time>
      </trkpt>
      <trkpt lat="42.44668" lon="2.32382">
        <ele>2436.12</ele>
        <time>2018-02-22T12:48:03Z</time>
      </trkpt>
      <trkpt lat="42.4466" lon="2.32384">
        <ele>2438.04</ele>
        <time>2018-02-22T12:48:21Z</time>
      </trkpt>
      <trkpt lat="42.44653" lon="2.32386">
        <ele>2439.96</ele>
        <time>2018-02-22T12:48:36Z</time>
      </trkpt>
      <trkpt lat="42.44645" lon="2.32393">
        <ele>2441.41</ele>
        <time>2018-02-22T12:48:49Z</time>
      </trkpt>
      <trkpt lat="42.44637" lon="2.32395">
        <ele>2442.85</ele>
        <time>2018-02-22T12:49:06Z</time>
      </trkpt>
      <trkpt lat="42.44626" lon="2.32398">
        <ele>2444.77</ele>
        <time>2018-02-22T12:49:26Z</time>
      </trkpt>
      <trkpt lat="42.44613" lon="2.32403">
        <ele>2446.69</ele>
        <time>2018-02-22T12:49:45Z</time>
      </trkpt>
      <trkpt lat="42.44603" lon="2.32406">
        <ele>2447.65</ele>
        <time>2018-02-22T12:49:59Z</time>
      </trkpt>
      <trkpt lat="42.44595" lon="2.32411">
        <ele>2448.13</ele>
        <time>2018-02-22T12:50:13Z</time>
      </trkpt>
      <trkpt lat="42.44583" lon="2.3241">
        <ele>2450.06</ele>
        <time>2018-02-22T12:50:32Z</time>
      </trkpt>
      <trkpt lat="42.44572" lon="2.32407">
        <ele>2451.98</ele>
        <time>2018-02-22T12:50:50Z</time>
      </trkpt>
      <trkpt lat="42.44562" lon="2.32405">
        <ele>2452.46</ele>
        <time>2018-02-22T12:51:03Z</time>
      </trkpt>
      <trkpt lat="42.44552" lon="2.32402">
        <ele>2453.9</ele>
        <time>2018-02-22T12:51:18Z</time>
      </trkpt>
      <trkpt lat="42.44538" lon="2.32402">
        <ele>2454.86</ele>
        <time>2018-02-22T12:51:36Z</time>
      </trkpt>
      <trkpt lat="42.44529" lon="2.324">
        <ele>2454.38</ele>
        <time>2018-02-22T12:51:49Z</time>
      </trkpt>
      <trkpt lat="42.44516" lon="2.32402">
        <ele>2455.82</ele>
        <time>2018-02-22T12:52:04Z</time>
      </trkpt>
      <trkpt lat="42.44507" lon="2.32402">
        <ele>2456.31</ele>
        <time>2018-02-22T12:52:20Z</time>
      </trkpt>
      <trkpt lat="42.44503" lon="2.32405">
        <ele>2456.79</ele>
        <time>2018-02-22T12:52:40Z</time>
      </trkpt>
      <trkpt lat="42.44504" lon="2.32406">
        <ele>2457.75</ele>
        <time>2018-02-22T12:53:04Z</time>
      </trkpt>
      <trkpt lat="42.44505" lon="2.32408">
        <ele>2458.23</ele>
        <time>2018-02-22T12:53:23Z</time>
      </trkpt>
      <trkpt lat="42.44504" lon="2.32408">
        <ele>2457.27</ele>
        <time>2018-02-22T12:53:39Z</time>
      </trkpt>
      <trkpt lat="42.44503" lon="2.32412">
        <ele>2458.71</ele>
        <time>2018-02-22T12:53:55Z</time>
      </trkpt>
      <trkpt lat="42.445" lon="2.32408">
        <ele>2459.19</ele>
        <time>2018-02-22T12:54:27Z</time>
      </trkpt>
      <trkpt lat="42.44502" lon="2.3241">
        <ele>2459.67</ele>
        <time>2018-02-22T12:54:46Z</time>
      </trkpt>
      <trkpt lat="42.44503" lon="2.3241">
        <ele>2459.67</ele>
        <time>2018-02-22T12:55:03Z</time>
      </trkpt>
      <trkpt lat="42.44503" lon="2.3241">
        <ele>2458.23</ele>
        <time>2018-02-22T12:55:31Z</time>
      </trkpt>
      <trkpt lat="42.44502" lon="2.32409">
        <ele>2458.23</ele>
        <time>2018-02-22T12:55:57Z</time>
      </trkpt>
      <trkpt lat="42.44503" lon="2.32409">
        <ele>2458.23</ele>
        <time>2018-02-22T12:56:24Z</time>
      </trkpt>
      <trkpt lat="42.44503" lon="2.32411">
        <ele>2458.71</ele>
        <time>2018-02-22T12:56:44Z</time>
      </trkpt>
      <trkpt lat="42.44501" lon="2.32414">
        <ele>2457.27</ele>
        <time>2018-02-22T12:56:57Z</time>
      </trkpt>
      <trkpt lat="42.44499" lon="2.32415">
        <ele>2456.79</ele>
        <time>2018-02-22T12:57:00Z</time>
      </trkpt>
      <trkpt lat="42.44496" lon="2.32416">
        <ele>2455.82</ele>
        <time>2018-02-22T12:57:02Z</time>
      </trkpt>
      <trkpt lat="42.44494" lon="2.32414">
        <ele>2453.9</ele>
        <time>2018-02-22T12:57:11Z</time>
      </trkpt>
      <trkpt lat="42.44494" lon="2.32416">
        <ele>2453.9</ele>
        <time>2018-02-22T12:57:19Z</time>
      </trkpt>
      <trkpt lat="42.44494" lon="2.32414">
        <ele>2453.9</ele>
        <time>2018-02-22T12:57:45Z</time>
      </trkpt>
      <trkpt lat="42.44495" lon="2.32415">
        <ele>2453.9</ele>
        <time>2018-02-22T12:58:03Z</time>
      </trkpt>
      <trkpt lat="42.44496" lon="2.32418">
        <ele>2453.9</ele>
        <time>2018-02-22T12:58:34Z</time>
      </trkpt>
      <trkpt lat="42.44496" lon="2.32419">
        <ele>2455.34</ele>
        <time>2018-02-22T12:58:53Z</time>
      </trkpt>
      <trkpt lat="42.44496" lon="2.32419">
        <ele>2455.34</ele>
        <time>2018-02-22T12:59:22Z</time>
      </trkpt>
      <trkpt lat="42.44496" lon="2.32419">
        <ele>2455.34</ele>
        <time>2018-02-22T12:59:45Z</time>
      </trkpt>
      <trkpt lat="42.44495" lon="2.3242">
        <ele>2456.31</ele>
        <time>2018-02-22T13:00:18Z</time>
      </trkpt>
      <trkpt lat="42.44494" lon="2.32419">
        <ele>2454.86</ele>
        <time>2018-02-22T13:00:46Z</time>
      </trkpt>
      <trkpt lat="42.44494" lon="2.32419">
        <ele>2456.31</ele>
        <time>2018-02-22T13:00:51Z</time>
      </trkpt>
      <trkpt lat="42.44497" lon="2.32419">
        <ele>2455.34</ele>
        <time>2018-02-22T13:01:16Z</time>
      </trkpt>
      <trkpt lat="42.44496" lon="2.32418">
        <ele>2454.86</ele>
        <time>2018-02-22T13:01:42Z</time>
      </trkpt>
      <trkpt lat="42.44496" lon="2.32419">
        <ele>2454.86</ele>
        <time>2018-02-22T13:02:16Z</time>
      </trkpt>
      <trkpt lat="42.44496" lon="2.32419">
        <ele>2454.38</ele>
        <time>2018-02-22T13:02:44Z</time>
      </trkpt>
      <trkpt lat="42.44496" lon="2.3242">
        <ele>2454.38</ele>
        <time>2018-02-22T13:03:10Z</time>
      </trkpt>
      <trkpt lat="42.44498" lon="2.32421">
        <ele>2454.38</ele>
        <time>2018-02-22T13:03:23Z</time>
      </trkpt>
      <trkpt lat="42.44499" lon="2.32421">
        <ele>2454.38</ele>
        <time>2018-02-22T13:03:48Z</time>
      </trkpt>
      <trkpt lat="42.44499" lon="2.32424">
        <ele>2454.86</ele>
        <time>2018-02-22T13:04:29Z</time>
      </trkpt>
      <trkpt lat="42.445" lon="2.32422">
        <ele>2454.86</ele>
        <time>2018-02-22T13:04:56Z</time>
      </trkpt>
      <trkpt lat="42.44499" lon="2.32422">
        <ele>2454.86</ele>
        <time>2018-02-22T13:05:24Z</time>
      </trkpt>
      <trkpt lat="42.44499" lon="2.32421">
        <ele>2454.86</ele>
        <time>2018-02-22T13:05:48Z</time>
      </trkpt>
      <trkpt lat="42.44499" lon="2.32421">
        <ele>2454.86</ele>
        <time>2018-02-22T13:06:17Z</time>
      </trkpt>
      <trkpt lat="42.44498" lon="2.32421">
        <ele>2454.86</ele>
        <time>2018-02-22T13:06:44Z</time>
      </trkpt>
      <trkpt lat="42.44498" lon="2.32421">
        <ele>2454.86</ele>
        <time>2018-02-22T13:07:08Z</time>
      </trkpt>
      <trkpt lat="42.44501" lon="2.32425">
        <ele>2454.86</ele>
        <time>2018-02-22T13:07:19Z</time>
      </trkpt>
      <trkpt lat="42.44507" lon="2.32423">
        <ele>2454.86</ele>
        <time>2018-02-22T13:07:34Z</time>
      </trkpt>
      <trkpt lat="42.4451" lon="2.32423">
        <ele>2454.86</ele>
        <time>2018-02-22T13:07:38Z</time>
      </trkpt>
      <trkpt lat="42.44516" lon="2.32413">
        <ele>2454.38</ele>
        <time>2018-02-22T13:07:56Z</time>
      </trkpt>
      <trkpt lat="42.44528" lon="2.32405">
        <ele>2453.9</ele>
        <time>2018-02-22T13:08:14Z</time>
      </trkpt>
      <trkpt lat="42.4454" lon="2.32405">
        <ele>2453.9</ele>
        <time>2018-02-22T13:08:28Z</time>
      </trkpt>
      <trkpt lat="42.4455" lon="2.32408">
        <ele>2453.9</ele>
        <time>2018-02-22T13:08:42Z</time>
      </trkpt>
      <trkpt lat="42.44559" lon="2.3241">
        <ele>2452.46</ele>
        <time>2018-02-22T13:08:55Z</time>
      </trkpt>
      <trkpt lat="42.44561" lon="2.32411">
        <ele>2452.46</ele>
        <time>2018-02-22T13:08:58Z</time>
      </trkpt>
      <trkpt lat="42.44573" lon="2.32414">
        <ele>2451.98</ele>
        <time>2018-02-22T13:09:13Z</time>
      </trkpt>
      <trkpt lat="42.44585" lon="2.32418">
        <ele>2450.06</ele>
        <time>2018-02-22T13:09:28Z</time>
      </trkpt>
      <trkpt lat="42.44595" lon="2.32421">
        <ele>2448.62</ele>
        <time>2018-02-22T13:09:41Z</time>
      </trkpt>
      <trkpt lat="42.44605" lon="2.32425">
        <ele>2447.65</ele>
        <time>2018-02-22T13:09:54Z</time>
      </trkpt>
      <trkpt lat="42.44615" lon="2.32428">
        <ele>2445.73</ele>
        <time>2018-02-22T13:10:08Z</time>
      </trkpt>
      <trkpt lat="42.44626" lon="2.32435">
        <ele>2443.33</ele>
        <time>2018-02-22T13:10:23Z</time>
      </trkpt>
      <trkpt lat="42.44637" lon="2.32438">
        <ele>2440.92</ele>
        <time>2018-02-22T13:10:38Z</time>
      </trkpt>
      <trkpt lat="42.44647" lon="2.32442">
        <ele>2439.48</ele>
        <time>2018-02-22T13:10:52Z</time>
      </trkpt>
      <trkpt lat="42.44656" lon="2.32446">
        <ele>2437.56</ele>
        <time>2018-02-22T13:11:06Z</time>
      </trkpt>
      <trkpt lat="42.44666" lon="2.32448">
        <ele>2435.64</ele>
        <time>2018-02-22T13:11:20Z</time>
      </trkpt>
      <trkpt lat="42.44676" lon="2.32449">
        <ele>2433.71</ele>
        <time>2018-02-22T13:11:34Z</time>
      </trkpt>
      <trkpt lat="42.44685" lon="2.32452">
        <ele>2432.27</ele>
        <time>2018-02-22T13:11:48Z</time>
      </trkpt>
      <trkpt lat="42.44694" lon="2.32453">
        <ele>2429.39</ele>
        <time>2018-02-22T13:12:02Z</time>
      </trkpt>
      <trkpt lat="42.44701" lon="2.32453">
        <ele>2427.47</ele>
        <time>2018-02-22T13:12:15Z</time>
      </trkpt>
      <trkpt lat="42.44709" lon="2.3245">
        <ele>2425.54</ele>
        <time>2018-02-22T13:12:29Z</time>
      </trkpt>
      <trkpt lat="42.44716" lon="2.32445">
        <ele>2423.14</ele>
        <time>2018-02-22T13:12:43Z</time>
      </trkpt>
      <trkpt lat="42.44722" lon="2.32441">
        <ele>2421.22</ele>
        <time>2018-02-22T13:12:56Z</time>
      </trkpt>
      <trkpt lat="42.44728" lon="2.32441">
        <ele>2419.78</ele>
        <time>2018-02-22T13:13:09Z</time>
      </trkpt>
      <trkpt lat="42.44732" lon="2.32443">
        <ele>2417.85</ele>
        <time>2018-02-22T13:13:18Z</time>
      </trkpt>
      <trkpt lat="42.44734" lon="2.32443">
        <ele>2415.93</ele>
        <time>2018-02-22T13:13:22Z</time>
      </trkpt>
      <trkpt lat="42.4474" lon="2.32442">
        <ele>2413.05</ele>
        <time>2018-02-22T13:13:35Z</time>
      </trkpt>
      <trkpt lat="42.44745" lon="2.32441">
        <ele>2411.12</ele>
        <time>2018-02-22T13:13:45Z</time>
      </trkpt>
      <trkpt lat="42.4475" lon="2.32439">
        <ele>2407.76</ele>
        <time>2018-02-22T13:13:58Z</time>
      </trkpt>
      <trkpt lat="42.44757" lon="2.32437">
        <ele>2407.28</ele>
        <time>2018-02-22T13:14:11Z</time>
      </trkpt>
      <trkpt lat="42.4476" lon="2.32437">
        <ele>2405.84</ele>
        <time>2018-02-22T13:14:16Z</time>
      </trkpt>
      <trkpt lat="42.44769" lon="2.32439">
        <ele>2402.95</ele>
        <time>2018-02-22T13:14:29Z</time>
      </trkpt>
      <trkpt lat="42.44777" lon="2.32442">
        <ele>2399.59</ele>
        <time>2018-02-22T13:14:42Z</time>
      </trkpt>
      <trkpt lat="42.44786" lon="2.32446">
        <ele>2396.22</ele>
        <time>2018-02-22T13:14:54Z</time>
      </trkpt>
      <trkpt lat="42.44796" lon="2.3245">
        <ele>2392.86</ele>
        <time>2018-02-22T13:15:08Z</time>
      </trkpt>
      <trkpt lat="42.44808" lon="2.32451">
        <ele>2390.46</ele>
        <time>2018-02-22T13:15:22Z</time>
      </trkpt>
      <trkpt lat="42.44817" lon="2.32456">
        <ele>2388.05</ele>
        <time>2018-02-22T13:15:35Z</time>
      </trkpt>
      <trkpt lat="42.44825" lon="2.32459">
        <ele>2385.65</ele>
        <time>2018-02-22T13:15:44Z</time>
      </trkpt>
      <trkpt lat="42.4483" lon="2.32462">
        <ele>2384.21</ele>
        <time>2018-02-22T13:15:50Z</time>
      </trkpt>
      <trkpt lat="42.44842" lon="2.32467">
        <ele>2381.32</ele>
        <time>2018-02-22T13:16:03Z</time>
      </trkpt>
      <trkpt lat="42.44843" lon="2.32467">
        <ele>2380.36</ele>
        <time>2018-02-22T13:16:05Z</time>
      </trkpt>
      <trkpt lat="42.44858" lon="2.32471">
        <ele>2377</ele>
        <time>2018-02-22T13:16:20Z</time>
      </trkpt>
      <trkpt lat="42.44866" lon="2.32475">
        <ele>2373.63</ele>
        <time>2018-02-22T13:16:30Z</time>
      </trkpt>
      <trkpt lat="42.44876" lon="2.32481">
        <ele>2371.71</ele>
        <time>2018-02-22T13:16:44Z</time>
      </trkpt>
      <trkpt lat="42.44886" lon="2.32486">
        <ele>2368.83</ele>
        <time>2018-02-22T13:16:57Z</time>
      </trkpt>
      <trkpt lat="42.44895" lon="2.3249">
        <ele>2365.46</ele>
        <time>2018-02-22T13:17:09Z</time>
      </trkpt>
      <trkpt lat="42.44906" lon="2.32495">
        <ele>2362.1</ele>
        <time>2018-02-22T13:17:22Z</time>
      </trkpt>
      <trkpt lat="42.44918" lon="2.325">
        <ele>2358.73</ele>
        <time>2018-02-22T13:17:37Z</time>
      </trkpt>
      <trkpt lat="42.44929" lon="2.32505">
        <ele>2355.85</ele>
        <time>2018-02-22T13:17:51Z</time>
      </trkpt>
      <trkpt lat="42.44939" lon="2.32508">
        <ele>2352.96</ele>
        <time>2018-02-22T13:18:04Z</time>
      </trkpt>
      <trkpt lat="42.44947" lon="2.32513">
        <ele>2349.6</ele>
        <time>2018-02-22T13:18:16Z</time>
      </trkpt>
      <trkpt lat="42.44957" lon="2.32518">
        <ele>2346.23</ele>
        <time>2018-02-22T13:18:27Z</time>
      </trkpt>
      <trkpt lat="42.44969" lon="2.32525">
        <ele>2342.87</ele>
        <time>2018-02-22T13:18:40Z</time>
      </trkpt>
      <trkpt lat="42.44981" lon="2.3253">
        <ele>2339.99</ele>
        <time>2018-02-22T13:18:53Z</time>
      </trkpt>
      <trkpt lat="42.44987" lon="2.32532">
        <ele>2338.54</ele>
        <time>2018-02-22T13:19:00Z</time>
      </trkpt>
      <trkpt lat="42.45001" lon="2.3254">
        <ele>2335.66</ele>
        <time>2018-02-22T13:19:16Z</time>
      </trkpt>
      <trkpt lat="42.45014" lon="2.32544">
        <ele>2332.78</ele>
        <time>2018-02-22T13:19:30Z</time>
      </trkpt>
      <trkpt lat="42.45028" lon="2.3255">
        <ele>2330.37</ele>
        <time>2018-02-22T13:19:46Z</time>
      </trkpt>
      <trkpt lat="42.45046" lon="2.32556">
        <ele>2328.45</ele>
        <time>2018-02-22T13:20:03Z</time>
      </trkpt>
      <trkpt lat="42.45059" lon="2.32562">
        <ele>2327.01</ele>
        <time>2018-02-22T13:20:17Z</time>
      </trkpt>
      <trkpt lat="42.45073" lon="2.32565">
        <ele>2326.53</ele>
        <time>2018-02-22T13:20:31Z</time>
      </trkpt>
      <trkpt lat="42.45085" lon="2.3257">
        <ele>2327.97</ele>
        <time>2018-02-22T13:20:45Z</time>
      </trkpt>
      <trkpt lat="42.45097" lon="2.32574">
        <ele>2327.97</ele>
        <time>2018-02-22T13:20:59Z</time>
      </trkpt>
      <trkpt lat="42.4511" lon="2.32578">
        <ele>2328.45</ele>
        <time>2018-02-22T13:21:14Z</time>
      </trkpt>
      <trkpt lat="42.45123" lon="2.32581">
        <ele>2327.97</ele>
        <time>2018-02-22T13:21:29Z</time>
      </trkpt>
      <trkpt lat="42.45134" lon="2.32582">
        <ele>2327.97</ele>
        <time>2018-02-22T13:21:43Z</time>
      </trkpt>
      <trkpt lat="42.45146" lon="2.32583">
        <ele>2328.45</ele>
        <time>2018-02-22T13:21:58Z</time>
      </trkpt>
      <trkpt lat="42.45147" lon="2.32583">
        <ele>2329.41</ele>
        <time>2018-02-22T13:22:15Z</time>
      </trkpt>
      <trkpt lat="42.45149" lon="2.32584">
        <ele>2328.93</ele>
        <time>2018-02-22T13:22:36Z</time>
      </trkpt>
      <trkpt lat="42.45152" lon="2.32584">
        <ele>2328.93</ele>
        <time>2018-02-22T13:23:04Z</time>
      </trkpt>
      <trkpt lat="42.45152" lon="2.32584">
        <ele>2328.93</ele>
        <time>2018-02-22T13:23:28Z</time>
      </trkpt>
      <trkpt lat="42.45161" lon="2.32584">
        <ele>2329.41</ele>
        <time>2018-02-22T13:23:41Z</time>
      </trkpt>
      <trkpt lat="42.45171" lon="2.32586">
        <ele>2329.89</ele>
        <time>2018-02-22T13:23:54Z</time>
      </trkpt>
      <trkpt lat="42.45183" lon="2.32589">
        <ele>2330.37</ele>
        <time>2018-02-22T13:24:08Z</time>
      </trkpt>
      <trkpt lat="42.45194" lon="2.32594">
        <ele>2329.89</ele>
        <time>2018-02-22T13:24:22Z</time>
      </trkpt>
      <trkpt lat="42.45205" lon="2.32598">
        <ele>2329.89</ele>
        <time>2018-02-22T13:24:37Z</time>
      </trkpt>
      <trkpt lat="42.45216" lon="2.32601">
        <ele>2329.89</ele>
        <time>2018-02-22T13:24:53Z</time>
      </trkpt>
      <trkpt lat="42.45226" lon="2.32607">
        <ele>2329.89</ele>
        <time>2018-02-22T13:25:07Z</time>
      </trkpt>
      <trkpt lat="42.45235" lon="2.3261">
        <ele>2328.93</ele>
        <time>2018-02-22T13:25:19Z</time>
      </trkpt>
      <trkpt lat="42.45246" lon="2.32613">
        <ele>2327.97</ele>
        <time>2018-02-22T13:25:33Z</time>
      </trkpt>
      <trkpt lat="42.45246" lon="2.32614">
        <ele>2327.97</ele>
        <time>2018-02-22T13:25:55Z</time>
      </trkpt>
      <trkpt lat="42.45247" lon="2.32615">
        <ele>2327.97</ele>
        <time>2018-02-22T13:26:18Z</time>
      </trkpt>
      <trkpt lat="42.45252" lon="2.32616">
        <ele>2327.01</ele>
        <time>2018-02-22T13:26:37Z</time>
      </trkpt>
      <trkpt lat="42.45264" lon="2.32617">
        <ele>2326.05</ele>
        <time>2018-02-22T13:26:52Z</time>
      </trkpt>
      <trkpt lat="42.45273" lon="2.32621">
        <ele>2323.16</ele>
        <time>2018-02-22T13:27:05Z</time>
      </trkpt>
      <trkpt lat="42.45283" lon="2.32625">
        <ele>2319.8</ele>
        <time>2018-02-22T13:27:18Z</time>
      </trkpt>
      <trkpt lat="42.45295" lon="2.32627">
        <ele>2317.88</ele>
        <time>2018-02-22T13:27:32Z</time>
      </trkpt>
      <trkpt lat="42.45302" lon="2.32628">
        <ele>2316.43</ele>
        <time>2018-02-22T13:27:41Z</time>
      </trkpt>
      <trkpt lat="42.4531" lon="2.32628">
        <ele>2315.47</ele>
        <time>2018-02-22T13:27:50Z</time>
      </trkpt>
      <trkpt lat="42.45327" lon="2.32625">
        <ele>2313.55</ele>
        <time>2018-02-22T13:28:09Z</time>
      </trkpt>
      <trkpt lat="42.45341" lon="2.32624">
        <ele>2312.11</ele>
        <time>2018-02-22T13:28:25Z</time>
      </trkpt>
      <trkpt lat="42.4535" lon="2.32627">
        <ele>2309.7</ele>
        <time>2018-02-22T13:28:38Z</time>
      </trkpt>
      <trkpt lat="42.4536" lon="2.3264">
        <ele>2307.78</ele>
        <time>2018-02-22T13:28:54Z</time>
      </trkpt>
      <trkpt lat="42.45368" lon="2.32645">
        <ele>2305.86</ele>
        <time>2018-02-22T13:29:08Z</time>
      </trkpt>
      <trkpt lat="42.45371" lon="2.3265">
        <ele>2304.42</ele>
        <time>2018-02-22T13:29:14Z</time>
      </trkpt>
      <trkpt lat="42.45382" lon="2.32658">
        <ele>2302.01</ele>
        <time>2018-02-22T13:29:30Z</time>
      </trkpt>
      <trkpt lat="42.45395" lon="2.32655">
        <ele>2299.61</ele>
        <time>2018-02-22T13:29:47Z</time>
      </trkpt>
      <trkpt lat="42.45401" lon="2.32655">
        <ele>2299.13</ele>
        <time>2018-02-22T13:29:56Z</time>
      </trkpt>
      <trkpt lat="42.45413" lon="2.32658">
        <ele>2296.73</ele>
        <time>2018-02-22T13:30:10Z</time>
      </trkpt>
      <trkpt lat="42.45423" lon="2.32666">
        <ele>2294.32</ele>
        <time>2018-02-22T13:30:24Z</time>
      </trkpt>
      <trkpt lat="42.45433" lon="2.32666">
        <ele>2291.92</ele>
        <time>2018-02-22T13:30:39Z</time>
      </trkpt>
      <trkpt lat="42.45444" lon="2.32667">
        <ele>2289.04</ele>
        <time>2018-02-22T13:30:54Z</time>
      </trkpt>
      <trkpt lat="42.45456" lon="2.32672">
        <ele>2286.63</ele>
        <time>2018-02-22T13:31:10Z</time>
      </trkpt>
      <trkpt lat="42.45463" lon="2.32679">
        <ele>2284.71</ele>
        <time>2018-02-22T13:31:22Z</time>
      </trkpt>
      <trkpt lat="42.45476" lon="2.32687">
        <ele>2282.31</ele>
        <time>2018-02-22T13:31:37Z</time>
      </trkpt>
      <trkpt lat="42.45482" lon="2.32698">
        <ele>2280.87</ele>
        <time>2018-02-22T13:31:50Z</time>
      </trkpt>
      <trkpt lat="42.45491" lon="2.32711">
        <ele>2279.42</ele>
        <time>2018-02-22T13:32:05Z</time>
      </trkpt>
      <trkpt lat="42.45493" lon="2.32722">
        <ele>2278.94</ele>
        <time>2018-02-22T13:32:19Z</time>
      </trkpt>
      <trkpt lat="42.45502" lon="2.32727">
        <ele>2277.02</ele>
        <time>2018-02-22T13:32:33Z</time>
      </trkpt>
      <trkpt lat="42.45509" lon="2.3274">
        <ele>2275.1</ele>
        <time>2018-02-22T13:32:47Z</time>
      </trkpt>
      <trkpt lat="42.4551" lon="2.32743">
        <ele>2274.62</ele>
        <time>2018-02-22T13:32:50Z</time>
      </trkpt>
      <trkpt lat="42.45521" lon="2.32753">
        <ele>2272.21</ele>
        <time>2018-02-22T13:33:05Z</time>
      </trkpt>
      <trkpt lat="42.45524" lon="2.32762">
        <ele>2271.25</ele>
        <time>2018-02-22T13:33:16Z</time>
      </trkpt>
      <trkpt lat="42.45531" lon="2.32765">
        <ele>2269.81</ele>
        <time>2018-02-22T13:33:28Z</time>
      </trkpt>
      <trkpt lat="42.45542" lon="2.32766">
        <ele>2266.93</ele>
        <time>2018-02-22T13:33:42Z</time>
      </trkpt>
      <trkpt lat="42.45553" lon="2.32763">
        <ele>2264.04</ele>
        <time>2018-02-22T13:33:58Z</time>
      </trkpt>
      <trkpt lat="42.45556" lon="2.32763">
        <ele>2263.56</ele>
        <time>2018-02-22T13:34:14Z</time>
      </trkpt>
      <trkpt lat="42.45556" lon="2.32765">
        <ele>2263.56</ele>
        <time>2018-02-22T13:34:44Z</time>
      </trkpt>
      <trkpt lat="42.45556" lon="2.32763">
        <ele>2263.56</ele>
        <time>2018-02-22T13:35:08Z</time>
      </trkpt>
      <trkpt lat="42.45558" lon="2.32763">
        <ele>2263.56</ele>
        <time>2018-02-22T13:35:44Z</time>
      </trkpt>
      <trkpt lat="42.45558" lon="2.32765">
        <ele>2263.56</ele>
        <time>2018-02-22T13:36:13Z</time>
      </trkpt>
      <trkpt lat="42.45558" lon="2.32764">
        <ele>2263.56</ele>
        <time>2018-02-22T13:36:42Z</time>
      </trkpt>
      <trkpt lat="42.45558" lon="2.32765">
        <ele>2265</ele>
        <time>2018-02-22T13:36:54Z</time>
      </trkpt>
      <trkpt lat="42.45558" lon="2.32765">
        <ele>2264.04</ele>
        <time>2018-02-22T13:37:07Z</time>
      </trkpt>
      <trkpt lat="42.45556" lon="2.32763">
        <ele>2264.04</ele>
        <time>2018-02-22T13:37:31Z</time>
      </trkpt>
      <trkpt lat="42.45556" lon="2.32762">
        <ele>2263.56</ele>
        <time>2018-02-22T13:37:59Z</time>
      </trkpt>
      <trkpt lat="42.45557" lon="2.32761">
        <ele>2263.56</ele>
        <time>2018-02-22T13:38:29Z</time>
      </trkpt>
      <trkpt lat="42.45555" lon="2.32762">
        <ele>2263.56</ele>
        <time>2018-02-22T13:38:54Z</time>
      </trkpt>
      <trkpt lat="42.45555" lon="2.32763">
        <ele>2263.56</ele>
        <time>2018-02-22T13:39:18Z</time>
      </trkpt>
      <trkpt lat="42.45555" lon="2.32761">
        <ele>2263.56</ele>
        <time>2018-02-22T13:39:40Z</time>
      </trkpt>
      <trkpt lat="42.45554" lon="2.32761">
        <ele>2263.56</ele>
        <time>2018-02-22T13:39:58Z</time>
      </trkpt>
      <trkpt lat="42.45554" lon="2.3276">
        <ele>2263.56</ele>
        <time>2018-02-22T13:40:22Z</time>
      </trkpt>
      <trkpt lat="42.45554" lon="2.32762">
        <ele>2263.08</ele>
        <time>2018-02-22T13:40:45Z</time>
      </trkpt>
      <trkpt lat="42.45562" lon="2.32762">
        <ele>2262.12</ele>
        <time>2018-02-22T13:40:56Z</time>
      </trkpt>
      <trkpt lat="42.45568" lon="2.3277">
        <ele>2260.68</ele>
        <time>2018-02-22T13:41:05Z</time>
      </trkpt>
      <trkpt lat="42.45576" lon="2.32783">
        <ele>2259.24</ele>
        <time>2018-02-22T13:41:19Z</time>
      </trkpt>
      <trkpt lat="42.45587" lon="2.32784">
        <ele>2256.83</ele>
        <time>2018-02-22T13:41:34Z</time>
      </trkpt>
      <trkpt lat="42.45599" lon="2.32789">
        <ele>2254.91</ele>
        <time>2018-02-22T13:41:51Z</time>
      </trkpt>
      <trkpt lat="42.45605" lon="2.32784">
        <ele>2253.47</ele>
        <time>2018-02-22T13:42:05Z</time>
      </trkpt>
      <trkpt lat="42.4562" lon="2.32779">
        <ele>2251.54</ele>
        <time>2018-02-22T13:42:22Z</time>
      </trkpt>
      <trkpt lat="42.45633" lon="2.3278">
        <ele>2249.14</ele>
        <time>2018-02-22T13:42:38Z</time>
      </trkpt>
      <trkpt lat="42.45636" lon="2.3278">
        <ele>2248.66</ele>
        <time>2018-02-22T13:42:41Z</time>
      </trkpt>
      <trkpt lat="42.45639" lon="2.32781">
        <ele>2247.7</ele>
        <time>2018-02-22T13:42:45Z</time>
      </trkpt>
      <trkpt lat="42.45652" lon="2.3278">
        <ele>2245.78</ele>
        <time>2018-02-22T13:42:59Z</time>
      </trkpt>
      <trkpt lat="42.45668" lon="2.32781">
        <ele>2244.33</ele>
        <time>2018-02-22T13:43:15Z</time>
      </trkpt>
      <trkpt lat="42.45684" lon="2.32782">
        <ele>2243.37</ele>
        <time>2018-02-22T13:43:32Z</time>
      </trkpt>
      <trkpt lat="42.45699" lon="2.32784">
        <ele>2242.89</ele>
        <time>2018-02-22T13:43:48Z</time>
      </trkpt>
      <trkpt lat="42.45712" lon="2.32786">
        <ele>2241.45</ele>
        <time>2018-02-22T13:44:03Z</time>
      </trkpt>
      <trkpt lat="42.45726" lon="2.32789">
        <ele>2241.45</ele>
        <time>2018-02-22T13:44:19Z</time>
      </trkpt>
      <trkpt lat="42.45741" lon="2.32791">
        <ele>2241.45</ele>
        <time>2018-02-22T13:44:35Z</time>
      </trkpt>
      <trkpt lat="42.45754" lon="2.32791">
        <ele>2241.45</ele>
        <time>2018-02-22T13:44:50Z</time>
      </trkpt>
      <trkpt lat="42.45767" lon="2.32793">
        <ele>2241.45</ele>
        <time>2018-02-22T13:45:05Z</time>
      </trkpt>
      <trkpt lat="42.45779" lon="2.32795">
        <ele>2241.45</ele>
        <time>2018-02-22T13:45:19Z</time>
      </trkpt>
      <trkpt lat="42.45791" lon="2.32797">
        <ele>2241.45</ele>
        <time>2018-02-22T13:45:34Z</time>
      </trkpt>
      <trkpt lat="42.45803" lon="2.32799">
        <ele>2242.89</ele>
        <time>2018-02-22T13:45:49Z</time>
      </trkpt>
      <trkpt lat="42.45815" lon="2.32801">
        <ele>2242.89</ele>
        <time>2018-02-22T13:46:04Z</time>
      </trkpt>
      <trkpt lat="42.45828" lon="2.32802">
        <ele>2242.89</ele>
        <time>2018-02-22T13:46:18Z</time>
      </trkpt>
      <trkpt lat="42.4584" lon="2.32803">
        <ele>2243.37</ele>
        <time>2018-02-22T13:46:33Z</time>
      </trkpt>
      <trkpt lat="42.45852" lon="2.32805">
        <ele>2243.37</ele>
        <time>2018-02-22T13:46:47Z</time>
      </trkpt>
      <trkpt lat="42.45866" lon="2.32804">
        <ele>2243.85</ele>
        <time>2018-02-22T13:47:03Z</time>
      </trkpt>
      <trkpt lat="42.45878" lon="2.32804">
        <ele>2243.85</ele>
        <time>2018-02-22T13:47:17Z</time>
      </trkpt>
      <trkpt lat="42.45891" lon="2.32802">
        <ele>2243.85</ele>
        <time>2018-02-22T13:47:32Z</time>
      </trkpt>
      <trkpt lat="42.45904" lon="2.32801">
        <ele>2241.45</ele>
        <time>2018-02-22T13:47:47Z</time>
      </trkpt>
      <trkpt lat="42.45919" lon="2.32805">
        <ele>2240.01</ele>
        <time>2018-02-22T13:48:04Z</time>
      </trkpt>
      <trkpt lat="42.45934" lon="2.32809">
        <ele>2237.61</ele>
        <time>2018-02-22T13:48:19Z</time>
      </trkpt>
      <trkpt lat="42.45951" lon="2.32814">
        <ele>2235.68</ele>
        <time>2018-02-22T13:48:36Z</time>
      </trkpt>
      <trkpt lat="42.45966" lon="2.32819">
        <ele>2234.24</ele>
        <time>2018-02-22T13:48:51Z</time>
      </trkpt>
      <trkpt lat="42.45981" lon="2.32822">
        <ele>2232.8</ele>
        <time>2018-02-22T13:49:07Z</time>
      </trkpt>
      <trkpt lat="42.45997" lon="2.32826">
        <ele>2231.84</ele>
        <time>2018-02-22T13:49:23Z</time>
      </trkpt>
      <trkpt lat="42.4601" lon="2.32829">
        <ele>2231.36</ele>
        <time>2018-02-22T13:49:36Z</time>
      </trkpt>
      <trkpt lat="42.46025" lon="2.32831">
        <ele>2230.88</ele>
        <time>2018-02-22T13:49:52Z</time>
      </trkpt>
      <trkpt lat="42.46042" lon="2.32835">
        <ele>2229.92</ele>
        <time>2018-02-22T13:50:09Z</time>
      </trkpt>
      <trkpt lat="42.46059" lon="2.3284">
        <ele>2228.95</ele>
        <time>2018-02-22T13:50:27Z</time>
      </trkpt>
      <trkpt lat="42.46074" lon="2.32844">
        <ele>2227.99</ele>
        <time>2018-02-22T13:50:42Z</time>
      </trkpt>
      <trkpt lat="42.46088" lon="2.32848">
        <ele>2226.07</ele>
        <time>2018-02-22T13:50:57Z</time>
      </trkpt>
      <trkpt lat="42.46106" lon="2.32851">
        <ele>2224.63</ele>
        <time>2018-02-22T13:51:15Z</time>
      </trkpt>
      <trkpt lat="42.46117" lon="2.32852">
        <ele>2224.15</ele>
        <time>2018-02-22T13:51:25Z</time>
      </trkpt>
      <trkpt lat="42.46133" lon="2.32856">
        <ele>2223.67</ele>
        <time>2018-02-22T13:51:42Z</time>
      </trkpt>
      <trkpt lat="42.46147" lon="2.32861">
        <ele>2222.71</ele>
        <time>2018-02-22T13:51:57Z</time>
      </trkpt>
      <trkpt lat="42.46161" lon="2.32863">
        <ele>2222.22</ele>
        <time>2018-02-22T13:52:13Z</time>
      </trkpt>
      <trkpt lat="42.46175" lon="2.32864">
        <ele>2221.26</ele>
        <time>2018-02-22T13:52:28Z</time>
      </trkpt>
      <trkpt lat="42.4619" lon="2.32865">
        <ele>2220.78</ele>
        <time>2018-02-22T13:52:45Z</time>
      </trkpt>
      <trkpt lat="42.46204" lon="2.32864">
        <ele>2218.86</ele>
        <time>2018-02-22T13:53:01Z</time>
      </trkpt>
      <trkpt lat="42.4622" lon="2.32863">
        <ele>2217.42</ele>
        <time>2018-02-22T13:53:18Z</time>
      </trkpt>
      <trkpt lat="42.46233" lon="2.32859">
        <ele>2216.46</ele>
        <time>2018-02-22T13:53:34Z</time>
      </trkpt>
      <trkpt lat="42.46244" lon="2.3285">
        <ele>2215.98</ele>
        <time>2018-02-22T13:53:49Z</time>
      </trkpt>
      <trkpt lat="42.46255" lon="2.3285">
        <ele>2214.05</ele>
        <time>2018-02-22T13:54:00Z</time>
      </trkpt>
      <trkpt lat="42.46267" lon="2.32846">
        <ele>2213.09</ele>
        <time>2018-02-22T13:54:14Z</time>
      </trkpt>
      <trkpt lat="42.46282" lon="2.32842">
        <ele>2212.13</ele>
        <time>2018-02-22T13:54:30Z</time>
      </trkpt>
      <trkpt lat="42.46298" lon="2.32835">
        <ele>2209.73</ele>
        <time>2018-02-22T13:54:49Z</time>
      </trkpt>
      <trkpt lat="42.46312" lon="2.32828">
        <ele>2208.77</ele>
        <time>2018-02-22T13:55:05Z</time>
      </trkpt>
      <trkpt lat="42.46327" lon="2.32819">
        <ele>2206.36</ele>
        <time>2018-02-22T13:55:22Z</time>
      </trkpt>
      <trkpt lat="42.46341" lon="2.32812">
        <ele>2206.36</ele>
        <time>2018-02-22T13:55:38Z</time>
      </trkpt>
      <trkpt lat="42.46342" lon="2.32812">
        <ele>2206.36</ele>
        <time>2018-02-22T13:55:39Z</time>
      </trkpt>
      <trkpt lat="42.46359" lon="2.32808">
        <ele>2205.4</ele>
        <time>2018-02-22T13:55:56Z</time>
      </trkpt>
      <trkpt lat="42.46375" lon="2.32807">
        <ele>2203.48</ele>
        <time>2018-02-22T13:56:13Z</time>
      </trkpt>
      <trkpt lat="42.4639" lon="2.32805">
        <ele>2202.04</ele>
        <time>2018-02-22T13:56:28Z</time>
      </trkpt>
      <trkpt lat="42.46405" lon="2.32804">
        <ele>2201.08</ele>
        <time>2018-02-22T13:56:43Z</time>
      </trkpt>
      <trkpt lat="42.46406" lon="2.32804">
        <ele>2201.08</ele>
        <time>2018-02-22T13:56:44Z</time>
      </trkpt>
      <trkpt lat="42.46422" lon="2.32803">
        <ele>2199.63</ele>
        <time>2018-02-22T13:57:00Z</time>
      </trkpt>
      <trkpt lat="42.46437" lon="2.32801">
        <ele>2199.15</ele>
        <time>2018-02-22T13:57:16Z</time>
      </trkpt>
      <trkpt lat="42.46451" lon="2.328">
        <ele>2200.59</ele>
        <time>2018-02-22T13:57:31Z</time>
      </trkpt>
      <trkpt lat="42.46464" lon="2.32799">
        <ele>2201.56</ele>
        <time>2018-02-22T13:57:47Z</time>
      </trkpt>
      <trkpt lat="42.46476" lon="2.32801">
        <ele>2202.52</ele>
        <time>2018-02-22T13:58:02Z</time>
      </trkpt>
      <trkpt lat="42.46486" lon="2.32802">
        <ele>2202.52</ele>
        <time>2018-02-22T13:58:16Z</time>
      </trkpt>
      <trkpt lat="42.46486" lon="2.32803">
        <ele>2202.52</ele>
        <time>2018-02-22T13:58:39Z</time>
      </trkpt>
      <trkpt lat="42.46487" lon="2.32802">
        <ele>2202.52</ele>
        <time>2018-02-22T13:59:04Z</time>
      </trkpt>
      <trkpt lat="42.46487" lon="2.32803">
        <ele>2202.52</ele>
        <time>2018-02-22T13:59:24Z</time>
      </trkpt>
      <trkpt lat="42.46489" lon="2.32803">
        <ele>2202.52</ele>
        <time>2018-02-22T13:59:55Z</time>
      </trkpt>
      <trkpt lat="42.46486" lon="2.32803">
        <ele>2202.52</ele>
        <time>2018-02-22T14:00:13Z</time>
      </trkpt>
      <trkpt lat="42.46488" lon="2.32803">
        <ele>2202.52</ele>
        <time>2018-02-22T14:00:39Z</time>
      </trkpt>
      <trkpt lat="42.46487" lon="2.32803">
        <ele>2202.52</ele>
        <time>2018-02-22T14:01:02Z</time>
      </trkpt>
      <trkpt lat="42.46494" lon="2.32803">
        <ele>2201.56</ele>
        <time>2018-02-22T14:01:18Z</time>
      </trkpt>
      <trkpt lat="42.46506" lon="2.32805">
        <ele>2200.59</ele>
        <time>2018-02-22T14:01:32Z</time>
      </trkpt>
      <trkpt lat="42.46519" lon="2.32809">
        <ele>2198.19</ele>
        <time>2018-02-22T14:01:47Z</time>
      </trkpt>
      <trkpt lat="42.46534" lon="2.32813">
        <ele>2197.23</ele>
        <time>2018-02-22T14:02:02Z</time>
      </trkpt>
      <trkpt lat="42.46548" lon="2.32816">
        <ele>2196.75</ele>
        <time>2018-02-22T14:02:18Z</time>
      </trkpt>
      <trkpt lat="42.46561" lon="2.3282">
        <ele>2195.79</ele>
        <time>2018-02-22T14:02:33Z</time>
      </trkpt>
      <trkpt lat="42.46574" lon="2.32823">
        <ele>2195.79</ele>
        <time>2018-02-22T14:02:49Z</time>
      </trkpt>
      <trkpt lat="42.4658" lon="2.32825">
        <ele>2195.79</ele>
        <time>2018-02-22T14:02:56Z</time>
      </trkpt>
      <trkpt lat="42.46595" lon="2.32829">
        <ele>2194.35</ele>
        <time>2018-02-22T14:03:13Z</time>
      </trkpt>
      <trkpt lat="42.46607" lon="2.32832">
        <ele>2193.39</ele>
        <time>2018-02-22T14:03:27Z</time>
      </trkpt>
      <trkpt lat="42.4662" lon="2.32835">
        <ele>2192.9</ele>
        <time>2018-02-22T14:03:42Z</time>
      </trkpt>
      <trkpt lat="42.46635" lon="2.32839">
        <ele>2192.42</ele>
        <time>2018-02-22T14:03:59Z</time>
      </trkpt>
      <trkpt lat="42.46648" lon="2.32843">
        <ele>2192.42</ele>
        <time>2018-02-22T14:04:14Z</time>
      </trkpt>
      <trkpt lat="42.46661" lon="2.32847">
        <ele>2192.42</ele>
        <time>2018-02-22T14:04:29Z</time>
      </trkpt>
      <trkpt lat="42.46672" lon="2.3285">
        <ele>2192.42</ele>
        <time>2018-02-22T14:04:43Z</time>
      </trkpt>
      <trkpt lat="42.4668" lon="2.32852">
        <ele>2193.87</ele>
        <time>2018-02-22T14:04:53Z</time>
      </trkpt>
      <trkpt lat="42.4669" lon="2.32853">
        <ele>2194.83</ele>
        <time>2018-02-22T14:05:10Z</time>
      </trkpt>
      <trkpt lat="42.46701" lon="2.32856">
        <ele>2195.79</ele>
        <time>2018-02-22T14:05:26Z</time>
      </trkpt>
      <trkpt lat="42.46709" lon="2.32858">
        <ele>2196.75</ele>
        <time>2018-02-22T14:05:40Z</time>
      </trkpt>
      <trkpt lat="42.46718" lon="2.32857">
        <ele>2197.23</ele>
        <time>2018-02-22T14:05:53Z</time>
      </trkpt>
      <trkpt lat="42.46729" lon="2.32855">
        <ele>2197.23</ele>
        <time>2018-02-22T14:06:09Z</time>
      </trkpt>
      <trkpt lat="42.46737" lon="2.32853">
        <ele>2195.79</ele>
        <time>2018-02-22T14:06:19Z</time>
      </trkpt>
      <trkpt lat="42.46748" lon="2.3285">
        <ele>2195.31</ele>
        <time>2018-02-22T14:06:35Z</time>
      </trkpt>
      <trkpt lat="42.46747" lon="2.32849">
        <ele>2195.31</ele>
        <time>2018-02-22T14:06:58Z</time>
      </trkpt>
      <trkpt lat="42.46747" lon="2.32847">
        <ele>2195.31</ele>
        <time>2018-02-22T14:07:20Z</time>
      </trkpt>
      <trkpt lat="42.46746" lon="2.32847">
        <ele>2195.31</ele>
        <time>2018-02-22T14:07:44Z</time>
      </trkpt>
      <trkpt lat="42.46744" lon="2.32848">
        <ele>2195.31</ele>
        <time>2018-02-22T14:08:06Z</time>
      </trkpt>
      <trkpt lat="42.46745" lon="2.32847">
        <ele>2194.35</ele>
        <time>2018-02-22T14:08:32Z</time>
      </trkpt>
      <trkpt lat="42.46746" lon="2.32848">
        <ele>2194.35</ele>
        <time>2018-02-22T14:08:52Z</time>
      </trkpt>
      <trkpt lat="42.46746" lon="2.32849">
        <ele>2193.87</ele>
        <time>2018-02-22T14:09:11Z</time>
      </trkpt>
      <trkpt lat="42.46746" lon="2.32847">
        <ele>2193.87</ele>
        <time>2018-02-22T14:09:30Z</time>
      </trkpt>
      <trkpt lat="42.46747" lon="2.32847">
        <ele>2193.39</ele>
        <time>2018-02-22T14:09:51Z</time>
      </trkpt>
      <trkpt lat="42.46751" lon="2.32848">
        <ele>2193.39</ele>
        <time>2018-02-22T14:10:23Z</time>
      </trkpt>
      <trkpt lat="42.46751" lon="2.3285">
        <ele>2192.9</ele>
        <time>2018-02-22T14:10:42Z</time>
      </trkpt>
      <trkpt lat="42.4675" lon="2.32851">
        <ele>2192.9</ele>
        <time>2018-02-22T14:11:08Z</time>
      </trkpt>
      <trkpt lat="42.46749" lon="2.32849">
        <ele>2192.9</ele>
        <time>2018-02-22T14:11:31Z</time>
      </trkpt>
      <trkpt lat="42.4675" lon="2.32852">
        <ele>2193.39</ele>
        <time>2018-02-22T14:11:52Z</time>
      </trkpt>
      <trkpt lat="42.46761" lon="2.32851">
        <ele>2191.94</ele>
        <time>2018-02-22T14:12:06Z</time>
      </trkpt>
      <trkpt lat="42.46762" lon="2.32851">
        <ele>2191.94</ele>
        <time>2018-02-22T14:12:08Z</time>
      </trkpt>
      <trkpt lat="42.46779" lon="2.32846">
        <ele>2190.02</ele>
        <time>2018-02-22T14:12:26Z</time>
      </trkpt>
      <trkpt lat="42.46786" lon="2.32834">
        <ele>2188.58</ele>
        <time>2018-02-22T14:12:42Z</time>
      </trkpt>
      <trkpt lat="42.4679" lon="2.32827">
        <ele>2186.66</ele>
        <time>2018-02-22T14:12:56Z</time>
      </trkpt>
      <trkpt lat="42.46793" lon="2.32817">
        <ele>2184.73</ele>
        <time>2018-02-22T14:13:10Z</time>
      </trkpt>
      <trkpt lat="42.46796" lon="2.32802">
        <ele>2183.29</ele>
        <time>2018-02-22T14:13:24Z</time>
      </trkpt>
      <trkpt lat="42.46797" lon="2.32785">
        <ele>2181.37</ele>
        <time>2018-02-22T14:13:41Z</time>
      </trkpt>
      <trkpt lat="42.46803" lon="2.32773">
        <ele>2178.97</ele>
        <time>2018-02-22T14:13:56Z</time>
      </trkpt>
      <trkpt lat="42.46802" lon="2.32758">
        <ele>2177.04</ele>
        <time>2018-02-22T14:14:09Z</time>
      </trkpt>
      <trkpt lat="42.46801" lon="2.32755">
        <ele>2177.04</ele>
        <time>2018-02-22T14:14:12Z</time>
      </trkpt>
      <trkpt lat="42.46806" lon="2.32739">
        <ele>2175.6</ele>
        <time>2018-02-22T14:14:29Z</time>
      </trkpt>
      <trkpt lat="42.46807" lon="2.32728">
        <ele>2174.64</ele>
        <time>2018-02-22T14:14:38Z</time>
      </trkpt>
      <trkpt lat="42.46807" lon="2.3271">
        <ele>2173.2</ele>
        <time>2018-02-22T14:14:53Z</time>
      </trkpt>
      <trkpt lat="42.46808" lon="2.32707">
        <ele>2173.2</ele>
        <time>2018-02-22T14:14:56Z</time>
      </trkpt>
      <trkpt lat="42.46817" lon="2.32692">
        <ele>2171.27</ele>
        <time>2018-02-22T14:15:13Z</time>
      </trkpt>
      <trkpt lat="42.46821" lon="2.32689">
        <ele>2170.31</ele>
        <time>2018-02-22T14:15:19Z</time>
      </trkpt>
      <trkpt lat="42.46823" lon="2.32673">
        <ele>2168.87</ele>
        <time>2018-02-22T14:15:35Z</time>
      </trkpt>
      <trkpt lat="42.46823" lon="2.32662">
        <ele>2167.43</ele>
        <time>2018-02-22T14:15:48Z</time>
      </trkpt>
      <trkpt lat="42.46819" lon="2.32652">
        <ele>2165.51</ele>
        <time>2018-02-22T14:16:02Z</time>
      </trkpt>
      <trkpt lat="42.46811" lon="2.32641">
        <ele>2164.55</ele>
        <time>2018-02-22T14:16:17Z</time>
      </trkpt>
      <trkpt lat="42.46808" lon="2.32639">
        <ele>2164.06</ele>
        <time>2018-02-22T14:16:37Z</time>
      </trkpt>
      <trkpt lat="42.4681" lon="2.3264">
        <ele>2164.06</ele>
        <time>2018-02-22T14:16:53Z</time>
      </trkpt>
      <trkpt lat="42.46812" lon="2.32643">
        <ele>2163.58</ele>
        <time>2018-02-22T14:17:19Z</time>
      </trkpt>
      <trkpt lat="42.46812" lon="2.32641">
        <ele>2163.58</ele>
        <time>2018-02-22T14:17:39Z</time>
      </trkpt>
      <trkpt lat="42.46811" lon="2.32641">
        <ele>2163.58</ele>
        <time>2018-02-22T14:18:04Z</time>
      </trkpt>
      <trkpt lat="42.4681" lon="2.32642">
        <ele>2163.1</ele>
        <time>2018-02-22T14:18:28Z</time>
      </trkpt>
      <trkpt lat="42.46811" lon="2.32643">
        <ele>2163.1</ele>
        <time>2018-02-22T14:18:54Z</time>
      </trkpt>
      <trkpt lat="42.46811" lon="2.32643">
        <ele>2163.1</ele>
        <time>2018-02-22T14:19:15Z</time>
      </trkpt>
      <trkpt lat="42.4681" lon="2.32642">
        <ele>2163.1</ele>
        <time>2018-02-22T14:19:43Z</time>
      </trkpt>
      <trkpt lat="42.46802" lon="2.32635">
        <ele>2163.1</ele>
        <time>2018-02-22T14:20:01Z</time>
      </trkpt>
      <trkpt lat="42.46791" lon="2.32627">
        <ele>2161.66</ele>
        <time>2018-02-22T14:20:17Z</time>
      </trkpt>
      <trkpt lat="42.46782" lon="2.32618">
        <ele>2160.22</ele>
        <time>2018-02-22T14:20:31Z</time>
      </trkpt>
      <trkpt lat="42.46773" lon="2.32611">
        <ele>2158.78</ele>
        <time>2018-02-22T14:20:46Z</time>
      </trkpt>
      <trkpt lat="42.46766" lon="2.32606">
        <ele>2157.34</ele>
        <time>2018-02-22T14:21:00Z</time>
      </trkpt>
      <trkpt lat="42.46756" lon="2.32601">
        <ele>2156.86</ele>
        <time>2018-02-22T14:21:17Z</time>
      </trkpt>
      <trkpt lat="42.46746" lon="2.32602">
        <ele>2156.86</ele>
        <time>2018-02-22T14:21:33Z</time>
      </trkpt>
      <trkpt lat="42.46735" lon="2.32596">
        <ele>2155.89</ele>
        <time>2018-02-22T14:21:49Z</time>
      </trkpt>
      <trkpt lat="42.46728" lon="2.32587">
        <ele>2153.97</ele>
        <time>2018-02-22T14:22:05Z</time>
      </trkpt>
      <trkpt lat="42.4672" lon="2.32575">
        <ele>2152.05</ele>
        <time>2018-02-22T14:22:20Z</time>
      </trkpt>
      <trkpt lat="42.46714" lon="2.32563">
        <ele>2151.09</ele>
        <time>2018-02-22T14:22:34Z</time>
      </trkpt>
      <trkpt lat="42.46714" lon="2.32549">
        <ele>2148.68</ele>
        <time>2018-02-22T14:22:48Z</time>
      </trkpt>
      <trkpt lat="42.46715" lon="2.32534">
        <ele>2146.76</ele>
        <time>2018-02-22T14:23:02Z</time>
      </trkpt>
      <trkpt lat="42.4672" lon="2.32518">
        <ele>2144.84</ele>
        <time>2018-02-22T14:23:17Z</time>
      </trkpt>
      <trkpt lat="42.46724" lon="2.325">
        <ele>2142.44</ele>
        <time>2018-02-22T14:23:33Z</time>
      </trkpt>
      <trkpt lat="42.46728" lon="2.32481">
        <ele>2140.03</ele>
        <time>2018-02-22T14:23:50Z</time>
      </trkpt>
      <trkpt lat="42.46734" lon="2.32465">
        <ele>2137.15</ele>
        <time>2018-02-22T14:24:06Z</time>
      </trkpt>
      <trkpt lat="42.46731" lon="2.3245">
        <ele>2135.23</ele>
        <time>2018-02-22T14:24:20Z</time>
      </trkpt>
      <trkpt lat="42.46725" lon="2.32436">
        <ele>2132.82</ele>
        <time>2018-02-22T14:24:35Z</time>
      </trkpt>
      <trkpt lat="42.46721" lon="2.32423">
        <ele>2130.42</ele>
        <time>2018-02-22T14:24:49Z</time>
      </trkpt>
      <trkpt lat="42.46722" lon="2.32411">
        <ele>2128.02</ele>
        <time>2018-02-22T14:25:02Z</time>
      </trkpt>
      <trkpt lat="42.46722" lon="2.32398">
        <ele>2126.09</ele>
        <time>2018-02-22T14:25:15Z</time>
      </trkpt>
      <trkpt lat="42.46725" lon="2.3239">
        <ele>2123.69</ele>
        <time>2018-02-22T14:25:28Z</time>
      </trkpt>
      <trkpt lat="42.46736" lon="2.32388">
        <ele>2121.29</ele>
        <time>2018-02-22T14:25:42Z</time>
      </trkpt>
      <trkpt lat="42.46745" lon="2.32385">
        <ele>2119.84</ele>
        <time>2018-02-22T14:25:59Z</time>
      </trkpt>
      <trkpt lat="42.46753" lon="2.32386">
        <ele>2117.92</ele>
        <time>2018-02-22T14:26:13Z</time>
      </trkpt>
      <trkpt lat="42.46761" lon="2.32392">
        <ele>2117.92</ele>
        <time>2018-02-22T14:26:30Z</time>
      </trkpt>
      <trkpt lat="42.46771" lon="2.32394">
        <ele>2117.44</ele>
        <time>2018-02-22T14:26:43Z</time>
      </trkpt>
      <trkpt lat="42.46781" lon="2.32396">
        <ele>2116</ele>
        <time>2018-02-22T14:26:58Z</time>
      </trkpt>
      <trkpt lat="42.46786" lon="2.32402">
        <ele>2115.52</ele>
        <time>2018-02-22T14:27:15Z</time>
      </trkpt>
      <trkpt lat="42.46791" lon="2.32407">
        <ele>2115.52</ele>
        <time>2018-02-22T14:27:35Z</time>
      </trkpt>
      <trkpt lat="42.46789" lon="2.32408">
        <ele>2116.96</ele>
        <time>2018-02-22T14:27:38Z</time>
      </trkpt>
      <trkpt lat="42.46792" lon="2.32415">
        <ele>2118.4</ele>
        <time>2018-02-22T14:27:51Z</time>
      </trkpt>
      <trkpt lat="42.46798" lon="2.32421">
        <ele>2118.4</ele>
        <time>2018-02-22T14:28:05Z</time>
      </trkpt>
      <trkpt lat="42.46801" lon="2.32422">
        <ele>2118.4</ele>
        <time>2018-02-22T14:28:20Z</time>
      </trkpt>
      <trkpt lat="42.46806" lon="2.32422">
        <ele>2118.4</ele>
        <time>2018-02-22T14:28:45Z</time>
      </trkpt>
      <trkpt lat="42.46813" lon="2.32423">
        <ele>2116.96</ele>
        <time>2018-02-22T14:28:56Z</time>
      </trkpt>
      <trkpt lat="42.46821" lon="2.32421">
        <ele>2116.96</ele>
        <time>2018-02-22T14:29:08Z</time>
      </trkpt>
      <trkpt lat="42.46825" lon="2.32423">
        <ele>2116.48</ele>
        <time>2018-02-22T14:29:23Z</time>
      </trkpt>
      <trkpt lat="42.46831" lon="2.32429">
        <ele>2116.48</ele>
        <time>2018-02-22T14:29:37Z</time>
      </trkpt>
      <trkpt lat="42.46838" lon="2.32432">
        <ele>2118.4</ele>
        <time>2018-02-22T14:29:52Z</time>
      </trkpt>
      <trkpt lat="42.4684" lon="2.32432">
        <ele>2118.88</ele>
        <time>2018-02-22T14:30:09Z</time>
      </trkpt>
      <trkpt lat="42.46843" lon="2.32435">
        <ele>2119.36</ele>
        <time>2018-02-22T14:30:24Z</time>
      </trkpt>
      <trkpt lat="42.46849" lon="2.3244">
        <ele>2120.32</ele>
        <time>2018-02-22T14:30:46Z</time>
      </trkpt>
      <trkpt lat="42.46855" lon="2.32441">
        <ele>2120.32</ele>
        <time>2018-02-22T14:30:59Z</time>
      </trkpt>
      <trkpt lat="42.46862" lon="2.3244">
        <ele>2120.32</ele>
        <time>2018-02-22T14:31:17Z</time>
      </trkpt>
      <trkpt lat="42.46869" lon="2.32437">
        <ele>2119.36</ele>
        <time>2018-02-22T14:31:31Z</time>
      </trkpt>
      <trkpt lat="42.46877" lon="2.32434">
        <ele>2118.88</ele>
        <time>2018-02-22T14:31:49Z</time>
      </trkpt>
      <trkpt lat="42.46885" lon="2.3243">
        <ele>2117.44</ele>
        <time>2018-02-22T14:32:06Z</time>
      </trkpt>
      <trkpt lat="42.4689" lon="2.32427">
        <ele>2116</ele>
        <time>2018-02-22T14:32:17Z</time>
      </trkpt>
      <trkpt lat="42.46898" lon="2.32424">
        <ele>2115.04</ele>
        <time>2018-02-22T14:32:32Z</time>
      </trkpt>
      <trkpt lat="42.46905" lon="2.32413">
        <ele>2112.15</ele>
        <time>2018-02-22T14:32:47Z</time>
      </trkpt>
      <trkpt lat="42.46913" lon="2.32409">
        <ele>2111.19</ele>
        <time>2018-02-22T14:33:00Z</time>
      </trkpt>
      <trkpt lat="42.4692" lon="2.32401">
        <ele>2108.79</ele>
        <time>2018-02-22T14:33:14Z</time>
      </trkpt>
      <trkpt lat="42.46925" lon="2.32395">
        <ele>2107.35</ele>
        <time>2018-02-22T14:33:27Z</time>
      </trkpt>
      <trkpt lat="42.46931" lon="2.32399">
        <ele>2106.87</ele>
        <time>2018-02-22T14:33:41Z</time>
      </trkpt>
      <trkpt lat="42.46937" lon="2.32403">
        <ele>2106.87</ele>
        <time>2018-02-22T14:33:53Z</time>
      </trkpt>
      <trkpt lat="42.46947" lon="2.32401">
        <ele>2105.91</ele>
        <time>2018-02-22T14:34:07Z</time>
      </trkpt>
      <trkpt lat="42.46952" lon="2.3239">
        <ele>2103.5</ele>
        <time>2018-02-22T14:34:22Z</time>
      </trkpt>
      <trkpt lat="42.46954" lon="2.32377">
        <ele>2102.54</ele>
        <time>2018-02-22T14:34:35Z</time>
      </trkpt>
      <trkpt lat="42.46959" lon="2.32369">
        <ele>2100.62</ele>
        <time>2018-02-22T14:34:48Z</time>
      </trkpt>
      <trkpt lat="42.46966" lon="2.32366">
        <ele>2099.18</ele>
        <time>2018-02-22T14:35:01Z</time>
      </trkpt>
      <trkpt lat="42.46973" lon="2.3236">
        <ele>2098.21</ele>
        <time>2018-02-22T14:35:17Z</time>
      </trkpt>
      <trkpt lat="42.46981" lon="2.32357">
        <ele>2096.77</ele>
        <time>2018-02-22T14:35:30Z</time>
      </trkpt>
      <trkpt lat="42.46989" lon="2.32354">
        <ele>2094.85</ele>
        <time>2018-02-22T14:35:44Z</time>
      </trkpt>
      <trkpt lat="42.46998" lon="2.32349">
        <ele>2092.45</ele>
        <time>2018-02-22T14:35:58Z</time>
      </trkpt>
      <trkpt lat="42.47009" lon="2.3235">
        <ele>2090.04</ele>
        <time>2018-02-22T14:36:12Z</time>
      </trkpt>
      <trkpt lat="42.47017" lon="2.32344">
        <ele>2088.12</ele>
        <time>2018-02-22T14:36:28Z</time>
      </trkpt>
      <trkpt lat="42.47026" lon="2.32342">
        <ele>2085.24</ele>
        <time>2018-02-22T14:36:41Z</time>
      </trkpt>
      <trkpt lat="42.47033" lon="2.32335">
        <ele>2082.83</ele>
        <time>2018-02-22T14:36:54Z</time>
      </trkpt>
      <trkpt lat="42.47041" lon="2.3233">
        <ele>2080.91</ele>
        <time>2018-02-22T14:37:07Z</time>
      </trkpt>
      <trkpt lat="42.47051" lon="2.32329">
        <ele>2078.99</ele>
        <time>2018-02-22T14:37:21Z</time>
      </trkpt>
      <trkpt lat="42.47055" lon="2.32321">
        <ele>2077.07</ele>
        <time>2018-02-22T14:37:33Z</time>
      </trkpt>
      <trkpt lat="42.4706" lon="2.32313">
        <ele>2074.66</ele>
        <time>2018-02-22T14:37:45Z</time>
      </trkpt>
      <trkpt lat="42.47065" lon="2.32307">
        <ele>2072.74</ele>
        <time>2018-02-22T14:37:58Z</time>
      </trkpt>
      <trkpt lat="42.47072" lon="2.32301">
        <ele>2069.38</ele>
        <time>2018-02-22T14:38:12Z</time>
      </trkpt>
      <trkpt lat="42.4708" lon="2.32299">
        <ele>2066.97</ele>
        <time>2018-02-22T14:38:25Z</time>
      </trkpt>
      <trkpt lat="42.4709" lon="2.32297">
        <ele>2065.05</ele>
        <time>2018-02-22T14:38:40Z</time>
      </trkpt>
      <trkpt lat="42.47096" lon="2.3229">
        <ele>2062.17</ele>
        <time>2018-02-22T14:38:53Z</time>
      </trkpt>
      <trkpt lat="42.47101" lon="2.32281">
        <ele>2058.8</ele>
        <time>2018-02-22T14:39:07Z</time>
      </trkpt>
      <trkpt lat="42.47106" lon="2.32274">
        <ele>2056.4</ele>
        <time>2018-02-22T14:39:19Z</time>
      </trkpt>
      <trkpt lat="42.4711" lon="2.32263">
        <ele>2053.99</ele>
        <time>2018-02-22T14:39:33Z</time>
      </trkpt>
      <trkpt lat="42.47117" lon="2.32259">
        <ele>2051.11</ele>
        <time>2018-02-22T14:39:48Z</time>
      </trkpt>
      <trkpt lat="42.47121" lon="2.32252">
        <ele>2047.75</ele>
        <time>2018-02-22T14:40:02Z</time>
      </trkpt>
      <trkpt lat="42.47127" lon="2.32244">
        <ele>2044.38</ele>
        <time>2018-02-22T14:40:19Z</time>
      </trkpt>
      <trkpt lat="42.47136" lon="2.32241">
        <ele>2041.02</ele>
        <time>2018-02-22T14:40:34Z</time>
      </trkpt>
      <trkpt lat="42.47138" lon="2.32237">
        <ele>2040.54</ele>
        <time>2018-02-22T14:40:51Z</time>
      </trkpt>
      <trkpt lat="42.47138" lon="2.32234">
        <ele>2040.54</ele>
        <time>2018-02-22T14:41:08Z</time>
      </trkpt>
      <trkpt lat="42.47137" lon="2.32233">
        <ele>2040.54</ele>
        <time>2018-02-22T14:41:34Z</time>
      </trkpt>
      <trkpt lat="42.47137" lon="2.32232">
        <ele>2040.54</ele>
        <time>2018-02-22T14:42:04Z</time>
      </trkpt>
      <trkpt lat="42.47136" lon="2.32231">
        <ele>2040.54</ele>
        <time>2018-02-22T14:42:28Z</time>
      </trkpt>
      <trkpt lat="42.47137" lon="2.32229">
        <ele>2042.94</ele>
        <time>2018-02-22T14:42:51Z</time>
      </trkpt>
      <trkpt lat="42.47136" lon="2.32221">
        <ele>2040.54</ele>
        <time>2018-02-22T14:43:08Z</time>
      </trkpt>
      <trkpt lat="42.47138" lon="2.32212">
        <ele>2038.61</ele>
        <time>2018-02-22T14:43:23Z</time>
      </trkpt>
      <trkpt lat="42.47143" lon="2.32207">
        <ele>2036.21</ele>
        <time>2018-02-22T14:43:36Z</time>
      </trkpt>
      <trkpt lat="42.47148" lon="2.32201">
        <ele>2033.33</ele>
        <time>2018-02-22T14:43:48Z</time>
      </trkpt>
      <trkpt lat="42.47154" lon="2.32193">
        <ele>2031.4</ele>
        <time>2018-02-22T14:44:02Z</time>
      </trkpt>
      <trkpt lat="42.47158" lon="2.32187">
        <ele>2027.56</ele>
        <time>2018-02-22T14:44:15Z</time>
      </trkpt>
      <trkpt lat="42.47163" lon="2.3218">
        <ele>2024.67</ele>
        <time>2018-02-22T14:44:29Z</time>
      </trkpt>
      <trkpt lat="42.47163" lon="2.32179">
        <ele>2024.19</ele>
        <time>2018-02-22T14:44:30Z</time>
      </trkpt>
      <trkpt lat="42.47167" lon="2.32171">
        <ele>2020.83</ele>
        <time>2018-02-22T14:44:39Z</time>
      </trkpt>
      <trkpt lat="42.47172" lon="2.32165">
        <ele>2018.43</ele>
        <time>2018-02-22T14:44:51Z</time>
      </trkpt>
      <trkpt lat="42.47177" lon="2.32161">
        <ele>2015.54</ele>
        <time>2018-02-22T14:45:03Z</time>
      </trkpt>
      <trkpt lat="42.47182" lon="2.32161">
        <ele>2013.62</ele>
        <time>2018-02-22T14:45:16Z</time>
      </trkpt>
      <trkpt lat="42.47189" lon="2.32162">
        <ele>2011.22</ele>
        <time>2018-02-22T14:45:28Z</time>
      </trkpt>
      <trkpt lat="42.47198" lon="2.32164">
        <ele>2008.33</ele>
        <time>2018-02-22T14:45:42Z</time>
      </trkpt>
      <trkpt lat="42.47206" lon="2.32166">
        <ele>2005.93</ele>
        <time>2018-02-22T14:45:56Z</time>
      </trkpt>
      <trkpt lat="42.47213" lon="2.32172">
        <ele>2004.01</ele>
        <time>2018-02-22T14:46:11Z</time>
      </trkpt>
      <trkpt lat="42.47216" lon="2.3218">
        <ele>2004.01</ele>
        <time>2018-02-22T14:46:38Z</time>
      </trkpt>
      <trkpt lat="42.47219" lon="2.3219">
        <ele>2004.97</ele>
        <time>2018-02-22T14:46:55Z</time>
      </trkpt>
      <trkpt lat="42.47226" lon="2.32197">
        <ele>2005.45</ele>
        <time>2018-02-22T14:47:08Z</time>
      </trkpt>
      <trkpt lat="42.47235" lon="2.32201">
        <ele>2004.01</ele>
        <time>2018-02-22T14:47:19Z</time>
      </trkpt>
      <trkpt lat="42.47242" lon="2.3221">
        <ele>2003.04</ele>
        <time>2018-02-22T14:47:33Z</time>
      </trkpt>
      <trkpt lat="42.47248" lon="2.32216">
        <ele>2002.56</ele>
        <time>2018-02-22T14:47:50Z</time>
      </trkpt>
      <trkpt lat="42.47252" lon="2.32208">
        <ele>1999.68</ele>
        <time>2018-02-22T14:48:07Z</time>
      </trkpt>
      <trkpt lat="42.47258" lon="2.32207">
        <ele>1997.28</ele>
        <time>2018-02-22T14:48:21Z</time>
      </trkpt>
      <trkpt lat="42.47266" lon="2.32206">
        <ele>1994.39</ele>
        <time>2018-02-22T14:48:33Z</time>
      </trkpt>
      <trkpt lat="42.47275" lon="2.32209">
        <ele>1991.99</ele>
        <time>2018-02-22T14:48:48Z</time>
      </trkpt>
      <trkpt lat="42.47285" lon="2.32209">
        <ele>1990.55</ele>
        <time>2018-02-22T14:49:04Z</time>
      </trkpt>
      <trkpt lat="42.47294" lon="2.32212">
        <ele>1988.62</ele>
        <time>2018-02-22T14:49:20Z</time>
      </trkpt>
      <trkpt lat="42.47307" lon="2.32215">
        <ele>1986.22</ele>
        <time>2018-02-22T14:49:36Z</time>
      </trkpt>
      <trkpt lat="42.47317" lon="2.32218">
        <ele>1984.78</ele>
        <time>2018-02-22T14:49:50Z</time>
      </trkpt>
      <trkpt lat="42.47327" lon="2.32218">
        <ele>1982.86</ele>
        <time>2018-02-22T14:50:06Z</time>
      </trkpt>
      <trkpt lat="42.47334" lon="2.32214">
        <ele>1979.49</ele>
        <time>2018-02-22T14:50:21Z</time>
      </trkpt>
      <trkpt lat="42.47339" lon="2.32203">
        <ele>1976.61</ele>
        <time>2018-02-22T14:50:36Z</time>
      </trkpt>
      <trkpt lat="42.47344" lon="2.32198">
        <ele>1974.2</ele>
        <time>2018-02-22T14:50:50Z</time>
      </trkpt>
      <trkpt lat="42.47351" lon="2.32195">
        <ele>1971.8</ele>
        <time>2018-02-22T14:51:04Z</time>
      </trkpt>
      <trkpt lat="42.47354" lon="2.32195">
        <ele>1971.32</ele>
        <time>2018-02-22T14:51:08Z</time>
      </trkpt>
      <trkpt lat="42.47368" lon="2.32198">
        <ele>1968.44</ele>
        <time>2018-02-22T14:51:25Z</time>
      </trkpt>
      <trkpt lat="42.47379" lon="2.32196">
        <ele>1965.55</ele>
        <time>2018-02-22T14:51:41Z</time>
      </trkpt>
      <trkpt lat="42.47385" lon="2.32197">
        <ele>1964.59</ele>
        <time>2018-02-22T14:52:00Z</time>
      </trkpt>
      <trkpt lat="42.47385" lon="2.32198">
        <ele>1964.59</ele>
        <time>2018-02-22T14:52:25Z</time>
      </trkpt>
      <trkpt lat="42.47385" lon="2.32199">
        <ele>1964.59</ele>
        <time>2018-02-22T14:52:49Z</time>
      </trkpt>
      <trkpt lat="42.47392" lon="2.32197">
        <ele>1962.67</ele>
        <time>2018-02-22T14:53:02Z</time>
      </trkpt>
      <trkpt lat="42.474" lon="2.32195">
        <ele>1959.78</ele>
        <time>2018-02-22T14:53:15Z</time>
      </trkpt>
      <trkpt lat="42.47413" lon="2.32196">
        <ele>1958.34</ele>
        <time>2018-02-22T14:53:30Z</time>
      </trkpt>
      <trkpt lat="42.4742" lon="2.322">
        <ele>1957.38</ele>
        <time>2018-02-22T14:53:44Z</time>
      </trkpt>
      <trkpt lat="42.47425" lon="2.32201">
        <ele>1955.46</ele>
        <time>2018-02-22T14:53:57Z</time>
      </trkpt>
      <trkpt lat="42.47435" lon="2.32204">
        <ele>1953.06</ele>
        <time>2018-02-22T14:54:13Z</time>
      </trkpt>
      <trkpt lat="42.47441" lon="2.32199">
        <ele>1950.65</ele>
        <time>2018-02-22T14:54:28Z</time>
      </trkpt>
      <trkpt lat="42.47445" lon="2.32193">
        <ele>1948.25</ele>
        <time>2018-02-22T14:54:43Z</time>
      </trkpt>
      <trkpt lat="42.47449" lon="2.32184">
        <ele>1944.88</ele>
        <time>2018-02-22T14:54:56Z</time>
      </trkpt>
      <trkpt lat="42.47451" lon="2.32175">
        <ele>1943.44</ele>
        <time>2018-02-22T14:55:12Z</time>
      </trkpt>
      <trkpt lat="42.47459" lon="2.32172">
        <ele>1940.08</ele>
        <time>2018-02-22T14:55:25Z</time>
      </trkpt>
      <trkpt lat="42.47466" lon="2.32168">
        <ele>1938.16</ele>
        <time>2018-02-22T14:55:38Z</time>
      </trkpt>
      <trkpt lat="42.47476" lon="2.32162">
        <ele>1934.79</ele>
        <time>2018-02-22T14:55:53Z</time>
      </trkpt>
      <trkpt lat="42.47483" lon="2.32161">
        <ele>1932.87</ele>
        <time>2018-02-22T14:56:03Z</time>
      </trkpt>
      <trkpt lat="42.47493" lon="2.32159">
        <ele>1929.98</ele>
        <time>2018-02-22T14:56:19Z</time>
      </trkpt>
      <trkpt lat="42.47502" lon="2.3216">
        <ele>1927.1</ele>
        <time>2018-02-22T14:56:32Z</time>
      </trkpt>
      <trkpt lat="42.4751" lon="2.32157">
        <ele>1923.74</ele>
        <time>2018-02-22T14:56:48Z</time>
      </trkpt>
      <trkpt lat="42.47517" lon="2.32155">
        <ele>1921.33</ele>
        <time>2018-02-22T14:57:00Z</time>
      </trkpt>
      <trkpt lat="42.47525" lon="2.32155">
        <ele>1919.41</ele>
        <time>2018-02-22T14:57:14Z</time>
      </trkpt>
      <trkpt lat="42.47527" lon="2.3215">
        <ele>1918.45</ele>
        <time>2018-02-22T14:57:32Z</time>
      </trkpt>
      <trkpt lat="42.47527" lon="2.32148">
        <ele>1917.97</ele>
        <time>2018-02-22T14:57:56Z</time>
      </trkpt>
      <trkpt lat="42.47529" lon="2.32149">
        <ele>1917.97</ele>
        <time>2018-02-22T14:58:15Z</time>
      </trkpt>
      <trkpt lat="42.47528" lon="2.32146">
        <ele>1918.45</ele>
        <time>2018-02-22T14:58:41Z</time>
      </trkpt>
      <trkpt lat="42.47529" lon="2.32149">
        <ele>1918.45</ele>
        <time>2018-02-22T14:59:07Z</time>
      </trkpt>
      <trkpt lat="42.47528" lon="2.32153">
        <ele>1918.45</ele>
        <time>2018-02-22T14:59:31Z</time>
      </trkpt>
      <trkpt lat="42.47527" lon="2.32149">
        <ele>1918.45</ele>
        <time>2018-02-22T14:59:46Z</time>
      </trkpt>
      <trkpt lat="42.47527" lon="2.32147">
        <ele>1917.97</ele>
        <time>2018-02-22T15:00:02Z</time>
      </trkpt>
      <trkpt lat="42.47525" lon="2.32149">
        <ele>1917.97</ele>
        <time>2018-02-22T15:00:31Z</time>
      </trkpt>
      <trkpt lat="42.47526" lon="2.32148">
        <ele>1917.97</ele>
        <time>2018-02-22T15:01:01Z</time>
      </trkpt>
      <trkpt lat="42.47524" lon="2.32147">
        <ele>1917.97</ele>
        <time>2018-02-22T15:01:31Z</time>
      </trkpt>
      <trkpt lat="42.47524" lon="2.32146">
        <ele>1917.97</ele>
        <time>2018-02-22T15:01:53Z</time>
      </trkpt>
      <trkpt lat="42.47527" lon="2.32143">
        <ele>1917.49</ele>
        <time>2018-02-22T15:02:14Z</time>
      </trkpt>
      <trkpt lat="42.47525" lon="2.32142">
        <ele>1917.97</ele>
        <time>2018-02-22T15:02:38Z</time>
      </trkpt>
      <trkpt lat="42.4753" lon="2.32132">
        <ele>1915.56</ele>
        <time>2018-02-22T15:02:57Z</time>
      </trkpt>
      <trkpt lat="42.47537" lon="2.32122">
        <ele>1913.64</ele>
        <time>2018-02-22T15:03:11Z</time>
      </trkpt>
      <trkpt lat="42.47544" lon="2.3211">
        <ele>1910.76</ele>
        <time>2018-02-22T15:03:26Z</time>
      </trkpt>
      <trkpt lat="42.47552" lon="2.321">
        <ele>1908.35</ele>
        <time>2018-02-22T15:03:41Z</time>
      </trkpt>
      <trkpt lat="42.47563" lon="2.32093">
        <ele>1904.99</ele>
        <time>2018-02-22T15:03:57Z</time>
      </trkpt>
      <trkpt lat="42.47574" lon="2.32085">
        <ele>1902.11</ele>
        <time>2018-02-22T15:04:14Z</time>
      </trkpt>
      <trkpt lat="42.47585" lon="2.32078">
        <ele>1899.7</ele>
        <time>2018-02-22T15:04:29Z</time>
      </trkpt>
      <trkpt lat="42.47597" lon="2.32073">
        <ele>1897.78</ele>
        <time>2018-02-22T15:04:43Z</time>
      </trkpt>
      <trkpt lat="42.47611" lon="2.32066">
        <ele>1895.38</ele>
        <time>2018-02-22T15:05:01Z</time>
      </trkpt>
      <trkpt lat="42.47623" lon="2.32061">
        <ele>1893.93</ele>
        <time>2018-02-22T15:05:17Z</time>
      </trkpt>
      <trkpt lat="42.47636" lon="2.32054">
        <ele>1892.49</ele>
        <time>2018-02-22T15:05:34Z</time>
      </trkpt>
      <trkpt lat="42.47645" lon="2.32049">
        <ele>1890.09</ele>
        <time>2018-02-22T15:05:48Z</time>
      </trkpt>
      <trkpt lat="42.47651" lon="2.32041">
        <ele>1887.21</ele>
        <time>2018-02-22T15:06:02Z</time>
      </trkpt>
      <trkpt lat="42.4765" lon="2.32024">
        <ele>1887.21</ele>
        <time>2018-02-22T15:06:17Z</time>
      </trkpt>
      <trkpt lat="42.47652" lon="2.32009">
        <ele>1886.24</ele>
        <time>2018-02-22T15:06:32Z</time>
      </trkpt>
      <trkpt lat="42.4765" lon="2.32">
        <ele>1883.36</ele>
        <time>2018-02-22T15:06:47Z</time>
      </trkpt>
      <trkpt lat="42.47652" lon="2.31992">
        <ele>1881.44</ele>
        <time>2018-02-22T15:07:02Z</time>
      </trkpt>
      <trkpt lat="42.47654" lon="2.31983">
        <ele>1878.07</ele>
        <time>2018-02-22T15:07:16Z</time>
      </trkpt>
      <trkpt lat="42.47656" lon="2.31973">
        <ele>1876.15</ele>
        <time>2018-02-22T15:07:30Z</time>
      </trkpt>
      <trkpt lat="42.47661" lon="2.31966">
        <ele>1873.27</ele>
        <time>2018-02-22T15:07:44Z</time>
      </trkpt>
      <trkpt lat="42.47666" lon="2.31952">
        <ele>1869.9</ele>
        <time>2018-02-22T15:08:01Z</time>
      </trkpt>
      <trkpt lat="42.47671" lon="2.3194">
        <ele>1866.54</ele>
        <time>2018-02-22T15:08:17Z</time>
      </trkpt>
      <trkpt lat="42.47675" lon="2.31932">
        <ele>1864.61</ele>
        <time>2018-02-22T15:08:30Z</time>
      </trkpt>
      <trkpt lat="42.47675" lon="2.3192">
        <ele>1862.21</ele>
        <time>2018-02-22T15:08:48Z</time>
      </trkpt>
      <trkpt lat="42.4768" lon="2.31915">
        <ele>1859.81</ele>
        <time>2018-02-22T15:09:02Z</time>
      </trkpt>
      <trkpt lat="42.47678" lon="2.31906">
        <ele>1858.37</ele>
        <time>2018-02-22T15:09:14Z</time>
      </trkpt>
      <trkpt lat="42.47679" lon="2.31898">
        <ele>1855</ele>
        <time>2018-02-22T15:09:26Z</time>
      </trkpt>
      <trkpt lat="42.47681" lon="2.31883">
        <ele>1852.12</ele>
        <time>2018-02-22T15:09:39Z</time>
      </trkpt>
      <trkpt lat="42.47682" lon="2.31868">
        <ele>1849.71</ele>
        <time>2018-02-22T15:09:54Z</time>
      </trkpt>
      <trkpt lat="42.47681" lon="2.31853">
        <ele>1847.31</ele>
        <time>2018-02-22T15:10:09Z</time>
      </trkpt>
      <trkpt lat="42.47681" lon="2.31835">
        <ele>1844.43</ele>
        <time>2018-02-22T15:10:24Z</time>
      </trkpt>
      <trkpt lat="42.47684" lon="2.31817">
        <ele>1842.98</ele>
        <time>2018-02-22T15:10:41Z</time>
      </trkpt>
      <trkpt lat="42.4769" lon="2.31798">
        <ele>1841.06</ele>
        <time>2018-02-22T15:10:59Z</time>
      </trkpt>
      <trkpt lat="42.47694" lon="2.31778">
        <ele>1840.1</ele>
        <time>2018-02-22T15:11:14Z</time>
      </trkpt>
      <trkpt lat="42.47703" lon="2.31768">
        <ele>1838.66</ele>
        <time>2018-02-22T15:11:28Z</time>
      </trkpt>
      <trkpt lat="42.47712" lon="2.31761">
        <ele>1837.22</ele>
        <time>2018-02-22T15:11:41Z</time>
      </trkpt>
      <trkpt lat="42.47722" lon="2.31755">
        <ele>1835.77</ele>
        <time>2018-02-22T15:11:56Z</time>
      </trkpt>
      <trkpt lat="42.47732" lon="2.31744">
        <ele>1832.41</ele>
        <time>2018-02-22T15:12:13Z</time>
      </trkpt>
      <trkpt lat="42.47733" lon="2.31725">
        <ele>1830.97</ele>
        <time>2018-02-22T15:12:29Z</time>
      </trkpt>
      <trkpt lat="42.47739" lon="2.31711">
        <ele>1830.01</ele>
        <time>2018-02-22T15:12:43Z</time>
      </trkpt>
      <trkpt lat="42.47746" lon="2.31694">
        <ele>1828.08</ele>
        <time>2018-02-22T15:12:58Z</time>
      </trkpt>
      <trkpt lat="42.47751" lon="2.31676">
        <ele>1826.16</ele>
        <time>2018-02-22T15:13:14Z</time>
      </trkpt>
      <trkpt lat="42.4776" lon="2.31663">
        <ele>1825.2</ele>
        <time>2018-02-22T15:13:29Z</time>
      </trkpt>
      <trkpt lat="42.47768" lon="2.31651">
        <ele>1824.72</ele>
        <time>2018-02-22T15:13:43Z</time>
      </trkpt>
      <trkpt lat="42.47777" lon="2.31635">
        <ele>1823.28</ele>
        <time>2018-02-22T15:13:58Z</time>
      </trkpt>
      <trkpt lat="42.47788" lon="2.31619">
        <ele>1820.87</ele>
        <time>2018-02-22T15:14:13Z</time>
      </trkpt>
      <trkpt lat="42.47801" lon="2.31606">
        <ele>1817.99</ele>
        <time>2018-02-22T15:14:29Z</time>
      </trkpt>
      <trkpt lat="42.47812" lon="2.31592">
        <ele>1816.07</ele>
        <time>2018-02-22T15:14:45Z</time>
      </trkpt>
      <trkpt lat="42.47823" lon="2.31583">
        <ele>1814.63</ele>
        <time>2018-02-22T15:15:00Z</time>
      </trkpt>
      <trkpt lat="42.47833" lon="2.31568">
        <ele>1812.7</ele>
        <time>2018-02-22T15:15:16Z</time>
      </trkpt>
      <trkpt lat="42.47844" lon="2.31555">
        <ele>1809.82</ele>
        <time>2018-02-22T15:15:30Z</time>
      </trkpt>
      <trkpt lat="42.47859" lon="2.31545">
        <ele>1808.38</ele>
        <time>2018-02-22T15:15:46Z</time>
      </trkpt>
      <trkpt lat="42.47872" lon="2.31538">
        <ele>1808.38</ele>
        <time>2018-02-22T15:16:00Z</time>
      </trkpt>
      <trkpt lat="42.47885" lon="2.31526">
        <ele>1806.94</ele>
        <time>2018-02-22T15:16:15Z</time>
      </trkpt>
      <trkpt lat="42.479" lon="2.31525">
        <ele>1804.53</ele>
        <time>2018-02-22T15:16:31Z</time>
      </trkpt>
      <trkpt lat="42.47905" lon="2.31519">
        <ele>1801.65</ele>
        <time>2018-02-22T15:16:45Z</time>
      </trkpt>
      <trkpt lat="42.47914" lon="2.31515">
        <ele>1798.76</ele>
        <time>2018-02-22T15:16:59Z</time>
      </trkpt>
      <trkpt lat="42.47921" lon="2.31507">
        <ele>1795.4</ele>
        <time>2018-02-22T15:17:12Z</time>
      </trkpt>
      <trkpt lat="42.47931" lon="2.31506">
        <ele>1793</ele>
        <time>2018-02-22T15:17:25Z</time>
      </trkpt>
      <trkpt lat="42.47932" lon="2.31507">
        <ele>1793</ele>
        <time>2018-02-22T15:17:26Z</time>
      </trkpt>
      <trkpt lat="42.47948" lon="2.31505">
        <ele>1790.11</ele>
        <time>2018-02-22T15:17:44Z</time>
      </trkpt>
      <trkpt lat="42.47957" lon="2.31499">
        <ele>1788.19</ele>
        <time>2018-02-22T15:17:58Z</time>
      </trkpt>
      <trkpt lat="42.47959" lon="2.31498">
        <ele>1788.19</ele>
        <time>2018-02-22T15:18:01Z</time>
      </trkpt>
      <trkpt lat="42.47971" lon="2.31507">
        <ele>1788.19</ele>
        <time>2018-02-22T15:18:16Z</time>
      </trkpt>
      <trkpt lat="42.47984" lon="2.31502">
        <ele>1786.27</ele>
        <time>2018-02-22T15:18:34Z</time>
      </trkpt>
      <trkpt lat="42.47997" lon="2.31502">
        <ele>1783.38</ele>
        <time>2018-02-22T15:18:50Z</time>
      </trkpt>
      <trkpt lat="42.48007" lon="2.31492">
        <ele>1780.5</ele>
        <time>2018-02-22T15:19:08Z</time>
      </trkpt>
      <trkpt lat="42.48012" lon="2.31479">
        <ele>1778.58</ele>
        <time>2018-02-22T15:19:25Z</time>
      </trkpt>
      <trkpt lat="42.48022" lon="2.31469">
        <ele>1775.69</ele>
        <time>2018-02-22T15:19:39Z</time>
      </trkpt>
      <trkpt lat="42.48028" lon="2.31461">
        <ele>1772.81</ele>
        <time>2018-02-22T15:19:53Z</time>
      </trkpt>
      <trkpt lat="42.48037" lon="2.31462">
        <ele>1771.37</ele>
        <time>2018-02-22T15:20:06Z</time>
      </trkpt>
      <trkpt lat="42.48046" lon="2.31455">
        <ele>1768</ele>
        <time>2018-02-22T15:20:21Z</time>
      </trkpt>
      <trkpt lat="42.48056" lon="2.31451">
        <ele>1765.12</ele>
        <time>2018-02-22T15:20:35Z</time>
      </trkpt>
      <trkpt lat="42.48063" lon="2.31444">
        <ele>1762.71</ele>
        <time>2018-02-22T15:20:48Z</time>
      </trkpt>
      <trkpt lat="42.4807" lon="2.31438">
        <ele>1759.83</ele>
        <time>2018-02-22T15:20:59Z</time>
      </trkpt>
      <trkpt lat="42.48075" lon="2.3143">
        <ele>1757.91</ele>
        <time>2018-02-22T15:21:08Z</time>
      </trkpt>
      <trkpt lat="42.48085" lon="2.31419">
        <ele>1754.06</ele>
        <time>2018-02-22T15:21:23Z</time>
      </trkpt>
      <trkpt lat="42.48098" lon="2.31412">
        <ele>1752.14</ele>
        <time>2018-02-22T15:21:39Z</time>
      </trkpt>
      <trkpt lat="42.48112" lon="2.31409">
        <ele>1751.18</ele>
        <time>2018-02-22T15:21:55Z</time>
      </trkpt>
      <trkpt lat="42.48116" lon="2.31404">
        <ele>1749.74</ele>
        <time>2018-02-22T15:22:07Z</time>
      </trkpt>
      <trkpt lat="42.48118" lon="2.31408">
        <ele>1749.74</ele>
        <time>2018-02-22T15:22:22Z</time>
      </trkpt>
      <trkpt lat="42.48119" lon="2.31407">
        <ele>1749.26</ele>
        <time>2018-02-22T15:22:38Z</time>
      </trkpt>
    </trkseg>
  </trk>
</gpx>